PWSweather.com
Personal Weather Stations
Station Observations
KMILAPEE3
Lapeer Michigan, Lapeer, MI 48446

Lapeer MichiganLapeer, MI 48446

Lat: 43.057, Lon: -83.362

Elevation: 897

Station Type: Oregon Scientific WMR-968

Latest ConditionsUpdated 8:46:27 PM EDT Saturday, Jul 23, 2016
Currently Today's Max Today's Min Today's Average
Temperature 79.0°F26.1°C 90.7°F32.6°C 66.7°F19.3°C 79.2°F26.2°C
Dew Point 49.9°F9.9°C 72.0°F22.2°C 44.8°F7.1°C 57.3°F14.1°C
Winds 3.0 mph ESE4.8 kmh ESE 9.3 mph ESE15.0 kmh ESE - 2.8 mph 4.5 kmh
Wind Gusts 5.8 mph9.3 kmh 14.6 mph23.5 kmh - -
Humidity 36% 83% 22% 52%
Pressure 29.03 in983.1 mb 29.06 in984.1 mb 29.00 in982.1 mb -
Hour Temp Dew Point Humidity Winds Wind Gusts Pressure Precip Precip Rate Daily Precip Total
08:46 PM 79.0°F26.1°C 49.9°F9.9°C 36% 3.0 mph ESE4.8 kmh ESE 5.8 mph9.3 kmh 29.03 in983.1 mb 0.00 in0.0 mm 0.00 in0.0 mm 0.00 in0.0 mm
08:45 PM 79.0°F26.1°C 49.9°F9.9°C 36% 3.0 mph ESE4.8 kmh ESE 6.7 mph10.8 kmh 29.03 in983.1 mb 0.00 in0.0 mm 0.00 in0.0 mm 0.00 in0.0 mm
08:44 PM 79.2°F26.2°C 50.0°F10.0°C 36% 3.7 mph ESE6.0 kmh ESE 9.1 mph14.6 kmh 29.03 in983.1 mb 0.00 in0.0 mm 0.00 in0.0 mm 0.00 in0.0 mm
08:42 PM 79.2°F26.2°C 50.0°F10.0°C 36% 3.7 mph ESE6.0 kmh ESE 9.1 mph14.6 kmh 29.03 in983.1 mb 0.00 in0.0 mm 0.00 in0.0 mm 0.00 in0.0 mm
08:41 PM 79.3°F26.3°C 50.1°F10.1°C 36% 3.7 mph ESE6.0 kmh ESE 9.1 mph14.6 kmh 29.03 in983.1 mb 0.00 in0.0 mm 0.00 in0.0 mm 0.00 in0.0 mm
08:40 PM 79.3°F26.3°C 50.1°F10.1°C 36% 4.0 mph ESE6.4 kmh ESE 9.1 mph14.6 kmh 29.03 in983.1 mb 0.00 in0.0 mm 0.00 in0.0 mm 0.00 in0.0 mm
08:39 PM 79.3°F26.3°C 50.1°F10.1°C 36% 4.6 mph ESE7.4 kmh ESE 9.1 mph14.6 kmh 29.03 in983.1 mb 0.00 in0.0 mm 0.00 in0.0 mm 0.00 in0.0 mm
08:38 PM 79.5°F26.4°C 50.3°F10.2°C 36% 4.9 mph ESE7.9 kmh ESE 9.1 mph14.6 kmh 29.03 in983.1 mb 0.00 in0.0 mm 0.00 in0.0 mm 0.00 in0.0 mm
08:37 PM 79.5°F26.4°C 50.3°F10.2°C 36% 5.3 mph ESE8.5 kmh ESE 9.1 mph14.6 kmh 29.03 in983.1 mb 0.00 in0.0 mm 0.00 in0.0 mm 0.00 in0.0 mm
08:36 PM 79.7°F26.5°C 50.5°F10.3°C 36% 6.1 mph E9.8 kmh E 9.1 mph14.6 kmh 29.03 in983.1 mb 0.00 in0.0 mm 0.00 in0.0 mm 0.00 in0.0 mm
08:35 PM 79.7°F26.5°C 50.5°F10.3°C 36% 5.9 mph E9.5 kmh E 9.1 mph14.6 kmh 29.03 in983.1 mb 0.00 in0.0 mm 0.00 in0.0 mm 0.00 in0.0 mm
08:34 PM 79.7°F26.5°C 50.5°F10.3°C 36% 5.7 mph E9.2 kmh E 9.1 mph14.6 kmh 29.03 in983.1 mb 0.00 in0.0 mm 0.00 in0.0 mm 0.00 in0.0 mm
08:33 PM 79.7°F26.5°C 50.5°F10.3°C 36% 5.2 mph E8.4 kmh E 9.1 mph14.6 kmh 29.03 in983.1 mb 0.00 in0.0 mm 0.00 in0.0 mm 0.00 in0.0 mm
08:31 PM 79.9°F26.6°C 50.6°F10.3°C 36% 4.9 mph E7.9 kmh E 8.4 mph13.5 kmh 29.03 in983.1 mb 0.00 in0.0 mm 0.00 in0.0 mm 0.00 in0.0 mm
08:30 PM 80.1°F26.7°C 50.8°F10.4°C 36% 4.6 mph E7.4 kmh E 8.4 mph13.5 kmh 29.03 in983.1 mb 0.00 in0.0 mm 0.00 in0.0 mm 0.00 in0.0 mm
08:29 PM 80.1°F26.7°C 50.8°F10.4°C 36% 4.0 mph E6.4 kmh E 8.4 mph13.5 kmh 29.03 in983.1 mb 0.00 in0.0 mm 0.00 in0.0 mm 0.00 in0.0 mm
08:28 PM 80.2°F26.8°C 50.9°F10.5°C 36% 3.6 mph E5.8 kmh E 5.8 mph9.3 kmh 29.03 in983.1 mb 0.00 in0.0 mm 0.00 in0.0 mm 0.00 in0.0 mm
08:27 PM 80.2°F26.8°C 50.9°F10.5°C 36% 3.2 mph E5.1 kmh E 5.8 mph9.3 kmh 29.03 in983.1 mb 0.00 in0.0 mm 0.00 in0.0 mm 0.00 in0.0 mm
08:26 PM 80.4°F26.9°C 51.1°F10.6°C 36% 3.0 mph E4.8 kmh E 5.8 mph9.3 kmh 29.03 in983.1 mb 0.00 in0.0 mm 0.00 in0.0 mm 0.00 in0.0 mm
08:25 PM 80.4°F26.9°C 51.1°F10.6°C 36% Calm Calm 3.9 mph6.3 kmh 29.03 in983.1 mb 0.00 in0.0 mm 0.00 in0.0 mm 0.00 in0.0 mm
08:24 PM 80.6°F27.0°C 50.3°F10.2°C 35% Calm Calm 3.9 mph6.3 kmh 29.03 in983.1 mb 0.00 in0.0 mm 0.00 in0.0 mm 0.00 in0.0 mm
08:23 PM 80.6°F27.0°C 50.3°F10.2°C 35% Calm Calm 3.9 mph6.3 kmh 29.03 in983.1 mb 0.00 in0.0 mm 0.00 in0.0 mm 0.00 in0.0 mm
08:22 PM 80.6°F27.0°C 50.3°F10.2°C 35% 3.0 mph E4.8 kmh E 3.9 mph6.3 kmh 29.03 in983.1 mb 0.00 in0.0 mm 0.00 in0.0 mm 0.00 in0.0 mm
08:21 PM 80.8°F27.1°C 50.5°F10.3°C 35% 3.0 mph E4.8 kmh E 3.9 mph6.3 kmh 29.03 in983.1 mb 0.00 in0.0 mm 0.00 in0.0 mm 0.00 in0.0 mm
08:20 PM 80.8°F27.1°C 50.5°F10.3°C 35% Calm Calm 3.9 mph6.3 kmh 29.03 in983.1 mb 0.00 in0.0 mm 0.00 in0.0 mm 0.00 in0.0 mm
08:19 PM 80.8°F27.1°C 50.5°F10.3°C 35% Calm Calm 3.9 mph6.3 kmh 29.03 in983.1 mb 0.00 in0.0 mm 0.00 in0.0 mm 0.00 in0.0 mm
08:18 PM 81.0°F27.2°C 50.7°F10.4°C 35% Calm Calm -- 29.03 in983.1 mb 0.00 in0.0 mm 0.00 in0.0 mm 0.00 in0.0 mm
08:17 PM 81.0°F27.2°C 50.7°F10.4°C 35% Calm Calm -- 29.03 in983.1 mb 0.00 in0.0 mm 0.00 in0.0 mm 0.00 in0.0 mm
08:16 PM 81.0°F27.2°C 50.7°F10.4°C 35% Calm Calm -- 29.03 in983.1 mb 0.00 in0.0 mm 0.00 in0.0 mm 0.00 in0.0 mm
08:15 PM 81.1°F27.3°C 50.7°F10.4°C 35% Calm Calm -- 29.03 in983.1 mb 0.00 in0.0 mm 0.00 in0.0 mm 0.00 in0.0 mm
08:14 PM 81.1°F27.3°C 50.7°F10.4°C 35% Calm Calm -- 29.00 in982.1 mb 0.00 in0.0 mm 0.00 in0.0 mm 0.00 in0.0 mm
08:13 PM 81.3°F27.4°C 50.9°F10.5°C 35% Calm Calm 3.0 mph4.8 kmh 29.00 in982.1 mb 0.00 in0.0 mm 0.00 in0.0 mm 0.00 in0.0 mm
08:12 PM 81.3°F27.4°C 50.9°F10.5°C 35% Calm Calm 5.2 mph8.4 kmh 29.00 in982.1 mb 0.00 in0.0 mm 0.00 in0.0 mm 0.00 in0.0 mm
08:11 PM 81.3°F27.4°C 50.9°F10.5°C 35% Calm Calm 5.2 mph8.4 kmh 29.00 in982.1 mb 0.00 in0.0 mm 0.00 in0.0 mm 0.00 in0.0 mm
08:10 PM 81.3°F27.4°C 50.9°F10.5°C 35% Calm Calm 5.2 mph8.4 kmh 29.00 in982.1 mb 0.00 in0.0 mm 0.00 in0.0 mm 0.00 in0.0 mm
08:09 PM 81.5°F27.5°C 50.1°F10.1°C 34% Calm Calm 5.2 mph8.4 kmh 29.00 in982.1 mb 0.00 in0.0 mm 0.00 in0.0 mm 0.00 in0.0 mm
08:08 PM 81.5°F27.5°C 50.1°F10.1°C 34% Calm Calm 5.2 mph8.4 kmh 29.00 in982.1 mb 0.00 in0.0 mm 0.00 in0.0 mm 0.00 in0.0 mm
08:07 PM 81.5°F27.5°C 50.1°F10.1°C 34% Calm Calm 5.2 mph8.4 kmh 29.00 in982.1 mb 0.00 in0.0 mm 0.00 in0.0 mm 0.00 in0.0 mm
08:06 PM 81.5°F27.5°C 50.1°F10.1°C 34% Calm Calm 5.2 mph8.4 kmh 29.00 in982.1 mb 0.00 in0.0 mm 0.00 in0.0 mm 0.00 in0.0 mm
08:05 PM 81.5°F27.5°C 50.1°F10.1°C 34% 3.0 mph E4.8 kmh E 5.2 mph8.4 kmh 29.00 in982.1 mb 0.00 in0.0 mm 0.00 in0.0 mm 0.00 in0.0 mm
08:04 PM 81.5°F27.5°C 50.1°F10.1°C 34% 3.0 mph E4.8 kmh E 5.2 mph8.4 kmh 29.00 in982.1 mb 0.00 in0.0 mm 0.00 in0.0 mm 0.00 in0.0 mm
08:03 PM 81.7°F27.6°C 50.3°F10.2°C 34% 3.0 mph E4.8 kmh E 5.2 mph8.4 kmh 29.00 in982.1 mb 0.00 in0.0 mm 0.00 in0.0 mm 0.00 in0.0 mm
08:02 PM 81.7°F27.6°C 50.3°F10.2°C 34% 3.0 mph E4.8 kmh E 4.5 mph7.2 kmh 29.00 in982.1 mb 0.00 in0.0 mm 0.00 in0.0 mm 0.00 in0.0 mm
08:01 PM 81.7°F27.6°C 50.3°F10.2°C 34% Calm Calm 4.5 mph7.2 kmh 29.00 in982.1 mb 0.00 in0.0 mm 0.00 in0.0 mm 0.00 in0.0 mm
08:00 PM 81.9°F27.7°C 50.5°F10.3°C 34% Calm Calm 4.5 mph7.2 kmh 29.00 in982.1 mb 0.00 in0.0 mm 0.00 in0.0 mm 0.00 in0.0 mm
07:59 PM 81.9°F27.7°C 50.5°F10.3°C 34% Calm Calm 4.5 mph7.2 kmh 29.00 in982.1 mb 0.00 in0.0 mm 0.00 in0.0 mm 0.00 in0.0 mm
07:58 PM 82.0°F27.8°C 50.5°F10.3°C 34% Calm Calm 5.2 mph8.4 kmh 29.00 in982.1 mb 0.00 in0.0 mm 0.00 in0.0 mm 0.00 in0.0 mm
07:57 PM 82.0°F27.8°C 50.5°F10.3°C 34% Calm Calm 5.2 mph8.4 kmh 29.00 in982.1 mb 0.00 in0.0 mm 0.00 in0.0 mm 0.00 in0.0 mm
07:56 PM 82.0°F27.8°C 50.5°F10.3°C 34% Calm Calm 5.2 mph8.4 kmh 29.00 in982.1 mb 0.00 in0.0 mm 0.00 in0.0 mm 0.00 in0.0 mm
07:55 PM 82.2°F27.9°C 50.7°F10.4°C 34% Calm Calm 5.2 mph8.4 kmh 29.00 in982.1 mb 0.00 in0.0 mm 0.00 in0.0 mm 0.00 in0.0 mm
07:54 PM 82.2°F27.9°C 50.7°F10.4°C 34% Calm Calm 5.2 mph8.4 kmh 29.00 in982.1 mb 0.00 in0.0 mm 0.00 in0.0 mm 0.00 in0.0 mm
07:53 PM 82.2°F27.9°C 50.7°F10.4°C 34% Calm Calm 5.5 mph8.9 kmh 29.00 in982.1 mb 0.00 in0.0 mm 0.00 in0.0 mm 0.00 in0.0 mm
07:52 PM 82.4°F28.0°C 49.9°F9.9°C 33% Calm Calm 9.1 mph14.6 kmh 29.00 in982.1 mb 0.00 in0.0 mm 0.00 in0.0 mm 0.00 in0.0 mm
07:51 PM 82.4°F28.0°C 49.9°F9.9°C 33% Calm Calm 9.1 mph14.6 kmh 29.00 in982.1 mb 0.00 in0.0 mm 0.00 in0.0 mm 0.00 in0.0 mm
07:50 PM 82.6°F28.1°C 50.1°F10.1°C 33% Calm Calm 9.1 mph14.6 kmh 29.00 in982.1 mb 0.00 in0.0 mm 0.00 in0.0 mm 0.00 in0.0 mm
07:49 PM 82.6°F28.1°C 50.1°F10.1°C 33% Calm Calm 9.1 mph14.6 kmh 29.00 in982.1 mb 0.00 in0.0 mm 0.00 in0.0 mm 0.00 in0.0 mm
07:48 PM 82.6°F28.1°C 50.1°F10.1°C 33% Calm Calm 9.1 mph14.6 kmh 29.00 in982.1 mb 0.00 in0.0 mm 0.00 in0.0 mm 0.00 in0.0 mm
07:47 PM 82.8°F28.2°C 50.3°F10.2°C 33% 3.5 mph E5.6 kmh E 9.1 mph14.6 kmh 29.00 in982.1 mb 0.00 in0.0 mm 0.00 in0.0 mm 0.00 in0.0 mm
07:46 PM 82.8°F28.2°C 50.2°F10.1°C 33% 3.5 mph E5.6 kmh E 9.1 mph14.6 kmh 29.00 in982.1 mb 0.00 in0.0 mm 0.00 in0.0 mm 0.00 in0.0 mm
07:45 PM 82.9°F28.3°C 50.3°F10.2°C 33% 4.0 mph E6.4 kmh E 9.1 mph14.6 kmh 29.00 in982.1 mb 0.00 in0.0 mm 0.00 in0.0 mm 0.00 in0.0 mm
07:44 PM 82.9°F28.3°C 50.3°F10.2°C 33% 4.8 mph E7.7 kmh E 9.1 mph14.6 kmh 29.00 in982.1 mb 0.00 in0.0 mm 0.00 in0.0 mm 0.00 in0.0 mm
07:43 PM 83.1°F28.4°C 50.5°F10.3°C 33% 5.3 mph E8.5 kmh E 12.6 mph20.3 kmh 29.00 in982.1 mb 0.00 in0.0 mm 0.00 in0.0 mm 0.00 in0.0 mm
07:42 PM 83.1°F28.4°C 50.5°F10.3°C 33% 4.9 mph E7.9 kmh E 12.6 mph20.3 kmh 29.00 in982.1 mb 0.00 in0.0 mm 0.00 in0.0 mm 0.00 in0.0 mm
07:41 PM 83.3°F28.5°C 50.7°F10.4°C 33% 3.4 mph E5.5 kmh E 12.6 mph20.3 kmh 29.00 in982.1 mb 0.00 in0.0 mm 0.00 in0.0 mm 0.00 in0.0 mm
07:40 PM 83.3°F28.5°C 50.7°F10.4°C 33% 3.4 mph E5.5 kmh E 12.6 mph20.3 kmh 29.00 in982.1 mb 0.00 in0.0 mm 0.00 in0.0 mm 0.00 in0.0 mm
07:39 PM 83.5°F28.6°C 51.8°F11.0°C 34% 3.9 mph E6.3 kmh E 12.6 mph20.3 kmh 29.00 in982.1 mb 0.00 in0.0 mm 0.00 in0.0 mm 0.00 in0.0 mm
07:38 PM 83.5°F28.6°C 51.8°F11.0°C 34% 4.0 mph E6.4 kmh E 12.6 mph20.3 kmh 29.00 in982.1 mb 0.00 in0.0 mm 0.00 in0.0 mm 0.00 in0.0 mm
07:37 PM 83.7°F28.7°C 51.0°F10.6°C 33% 4.6 mph E7.4 kmh E 12.6 mph20.3 kmh 29.00 in982.1 mb 0.00 in0.0 mm 0.00 in0.0 mm 0.00 in0.0 mm
07:36 PM 83.8°F28.8°C 51.1°F10.6°C 33% 5.5 mph E8.9 kmh E 12.6 mph20.3 kmh 29.00 in982.1 mb 0.00 in0.0 mm 0.00 in0.0 mm 0.00 in0.0 mm
07:35 PM 84.0°F28.9°C 51.3°F10.7°C 33% 4.3 mph E6.9 kmh E 12.6 mph20.3 kmh 29.00 in982.1 mb 0.00 in0.0 mm 0.00 in0.0 mm 0.00 in0.0 mm
07:34 PM 84.0°F28.9°C 51.3°F10.7°C 33% 4.3 mph E6.9 kmh E 12.6 mph20.3 kmh 29.00 in982.1 mb 0.00 in0.0 mm 0.00 in0.0 mm 0.00 in0.0 mm
07:33 PM 84.0°F28.9°C 51.3°F10.7°C 33% 6.5 mph E10.5 kmh E 12.0 mph19.3 kmh 29.00 in982.1 mb 0.00 in0.0 mm 0.00 in0.0 mm 0.00 in0.0 mm
07:32 PM 84.2°F29.0°C 50.4°F10.2°C 31% 7.1 mph E11.4 kmh E 13.9 mph22.4 kmh 29.00 in982.1 mb 0.00 in0.0 mm 0.00 in0.0 mm 0.00 in0.0 mm
07:31 PM 84.4°F29.1°C 50.6°F10.3°C 31% 6.6 mph E10.6 kmh E 13.9 mph22.4 kmh 29.00 in982.1 mb 0.00 in0.0 mm 0.00 in0.0 mm 0.00 in0.0 mm
07:29 PM 84.6°F29.2°C 50.8°F10.4°C 31% 6.2 mph E10.0 kmh E 13.9 mph22.4 kmh 29.00 in982.1 mb 0.00 in0.0 mm 0.00 in0.0 mm 0.00 in0.0 mm
07:28 PM 84.7°F29.3°C 50.8°F10.4°C 31% 6.4 mph ESE10.3 kmh ESE 13.9 mph22.4 kmh 29.00 in982.1 mb 0.00 in0.0 mm 0.00 in0.0 mm 0.00 in0.0 mm
07:27 PM 84.7°F29.3°C 51.8°F11.0°C 33% 5.9 mph E9.5 kmh E 13.9 mph22.4 kmh 29.00 in982.1 mb 0.00 in0.0 mm 0.00 in0.0 mm 0.00 in0.0 mm
07:26 PM 84.9°F29.4°C 52.0°F11.1°C 33% 6.4 mph E10.3 kmh E 13.9 mph22.4 kmh 29.00 in982.1 mb 0.00 in0.0 mm 0.00 in0.0 mm 0.00 in0.0 mm
07:25 PM 84.9°F29.4°C 52.0°F11.1°C 33% 7.9 mph ESE12.7 kmh ESE 13.9 mph22.4 kmh 29.00 in982.1 mb 0.00 in0.0 mm 0.00 in0.0 mm 0.00 in0.0 mm
07:24 PM 84.9°F29.4°C 52.0°F11.1°C 33% 9.0 mph ESE14.5 kmh ESE 13.9 mph22.4 kmh 29.00 in982.1 mb 0.00 in0.0 mm 0.00 in0.0 mm 0.00 in0.0 mm
07:23 PM 84.9°F29.4°C 52.0°F11.1°C 32% 7.6 mph ESE12.2 kmh ESE 13.9 mph22.4 kmh 29.00 in982.1 mb 0.00 in0.0 mm 0.00 in0.0 mm 0.00 in0.0 mm
07:22 PM 85.1°F29.5°C 52.2°F11.2°C 32% 6.2 mph ESE10.0 kmh ESE 10.4 mph16.7 kmh 29.00 in982.1 mb 0.00 in0.0 mm 0.00 in0.0 mm 0.00 in0.0 mm
07:21 PM 85.1°F29.5°C 52.2°F11.2°C 32% 5.4 mph ESE8.7 kmh ESE 9.1 mph14.6 kmh 29.00 in982.1 mb 0.00 in0.0 mm 0.00 in0.0 mm 0.00 in0.0 mm
07:20 PM 85.1°F29.5°C 52.2°F11.2°C 32% 4.9 mph ESE7.9 kmh ESE 9.1 mph14.6 kmh 29.00 in982.1 mb 0.00 in0.0 mm 0.00 in0.0 mm 0.00 in0.0 mm
07:19 PM 85.3°F29.6°C 51.3°F10.7°C 31% 4.1 mph ESE6.6 kmh ESE 9.1 mph14.6 kmh 29.00 in982.1 mb 0.00 in0.0 mm 0.00 in0.0 mm 0.00 in0.0 mm
07:18 PM 85.3°F29.6°C 51.3°F10.7°C 31% 5.0 mph E8.0 kmh E 9.1 mph14.6 kmh 29.00 in982.1 mb 0.00 in0.0 mm 0.00 in0.0 mm 0.00 in0.0 mm
07:17 PM 85.3°F29.6°C 51.3°F10.7°C 31% 5.8 mph E9.3 kmh E 9.1 mph14.6 kmh 29.00 in982.1 mb 0.00 in0.0 mm 0.00 in0.0 mm 0.00 in0.0 mm
07:16 PM 85.3°F29.6°C 51.3°F10.7°C 31% 4.8 mph E7.7 kmh E 11.0 mph17.7 kmh 29.00 in982.1 mb 0.00 in0.0 mm 0.00 in0.0 mm 0.00 in0.0 mm
07:15 PM 85.5°F29.7°C 51.5°F10.8°C 31% 3.3 mph ENE5.3 kmh ENE 11.0 mph17.7 kmh 29.00 in982.1 mb 0.00 in0.0 mm 0.00 in0.0 mm 0.00 in0.0 mm
07:14 PM 85.5°F29.7°C 51.5°F10.8°C 31% 3.0 mph NE4.8 kmh NE 11.0 mph17.7 kmh 29.00 in982.1 mb 0.00 in0.0 mm 0.00 in0.0 mm 0.00 in0.0 mm
07:13 PM 85.6°F29.8°C 51.6°F10.9°C 31% 4.9 mph ESE7.9 kmh ESE 11.0 mph17.7 kmh 29.00 in982.1 mb 0.00 in0.0 mm 0.00 in0.0 mm 0.00 in0.0 mm
07:12 PM 85.6°F29.8°C 51.6°F10.9°C 31% 4.9 mph ESE7.9 kmh ESE 11.0 mph17.7 kmh 29.00 in982.1 mb 0.00 in0.0 mm 0.00 in0.0 mm 0.00 in0.0 mm
07:11 PM 85.8°F29.9°C 51.7°F10.9°C 31% 5.8 mph E9.3 kmh E 11.0 mph17.7 kmh 29.00 in982.1 mb 0.00 in0.0 mm 0.00 in0.0 mm 0.00 in0.0 mm
07:10 PM 85.8°F29.9°C 51.7°F10.9°C 31% 6.1 mph E9.8 kmh E 11.0 mph17.7 kmh 29.00 in982.1 mb 0.00 in0.0 mm 0.00 in0.0 mm 0.00 in0.0 mm
07:09 PM 86.0°F30.0°C 50.9°F10.5°C 30% 6.0 mph E9.7 kmh E 11.0 mph17.7 kmh 29.00 in982.1 mb 0.00 in0.0 mm 0.00 in0.0 mm 0.00 in0.0 mm
07:08 PM 86.2°F30.1°C 51.0°F10.6°C 30% 5.3 mph E8.5 kmh E 11.0 mph17.7 kmh 29.00 in982.1 mb 0.00 in0.0 mm 0.00 in0.0 mm 0.00 in0.0 mm
07:07 PM 86.2°F30.1°C 51.0°F10.6°C 30% 4.4 mph E7.1 kmh E 11.0 mph17.7 kmh 29.00 in982.1 mb 0.00 in0.0 mm 0.00 in0.0 mm 0.00 in0.0 mm
07:06 PM 86.2°F30.1°C 51.0°F10.6°C 30% 3.9 mph E6.3 kmh E 9.7 mph15.6 kmh 29.00 in982.1 mb 0.00 in0.0 mm 0.00 in0.0 mm 0.00 in0.0 mm
07:05 PM 86.4°F30.2°C 51.2°F10.7°C 30% 3.7 mph E6.0 kmh E 8.4 mph13.5 kmh 29.00 in982.1 mb 0.00 in0.0 mm 0.00 in0.0 mm 0.00 in0.0 mm
07:04 PM 86.4°F30.2°C 50.1°F10.1°C 29% 4.1 mph E6.6 kmh E 8.4 mph13.5 kmh 29.00 in982.1 mb 0.00 in0.0 mm 0.00 in0.0 mm 0.00 in0.0 mm
07:03 PM 86.5°F30.3°C 50.2°F10.1°C 29% 3.9 mph E6.3 kmh E 8.4 mph13.5 kmh 29.00 in982.1 mb 0.00 in0.0 mm 0.00 in0.0 mm 0.00 in0.0 mm
07:02 PM 86.5°F30.3°C 49.1°F9.5°C 28% 3.0 mph NE4.8 kmh NE 8.4 mph13.5 kmh 29.00 in982.1 mb 0.00 in0.0 mm 0.00 in0.0 mm 0.00 in0.0 mm
07:01 PM 86.5°F30.3°C 49.1°F9.5°C 28% 3.0 mph NE4.8 kmh NE 6.5 mph10.5 kmh 29.00 in982.1 mb 0.00 in0.0 mm 0.00 in0.0 mm 0.00 in0.0 mm
07:00 PM 86.5°F30.3°C 49.1°F9.5°C 28% 3.0 mph E4.8 kmh E 6.5 mph10.5 kmh 29.00 in982.1 mb 0.00 in0.0 mm 0.00 in0.0 mm 0.00 in0.0 mm
06:59 PM 86.5°F30.3°C 49.1°F9.5°C 28% 3.0 mph ESE4.8 kmh ESE 6.5 mph10.5 kmh 29.00 in982.1 mb 0.00 in0.0 mm 0.00 in0.0 mm 0.00 in0.0 mm
06:58 PM 86.7°F30.4°C 49.2°F9.6°C 28% 3.0 mph ESE4.8 kmh ESE 6.5 mph10.5 kmh 29.00 in982.1 mb 0.00 in0.0 mm 0.00 in0.0 mm 0.00 in0.0 mm
06:57 PM 86.7°F30.4°C 49.2°F9.6°C 28% 3.0 mph ESE4.8 kmh ESE 5.2 mph8.4 kmh 29.00 in982.1 mb 0.00 in0.0 mm 0.00 in0.0 mm 0.00 in0.0 mm
06:56 PM 86.7°F30.4°C 49.2°F9.6°C 28% Calm Calm 5.2 mph8.4 kmh 29.00 in982.1 mb 0.00 in0.0 mm 0.00 in0.0 mm 0.00 in0.0 mm
06:55 PM 86.7°F30.4°C 49.2°F9.6°C 28% Calm Calm 5.2 mph8.4 kmh 29.00 in982.1 mb 0.00 in0.0 mm 0.00 in0.0 mm 0.00 in0.0 mm
06:54 PM 86.9°F30.5°C 49.4°F9.7°C 28% Calm Calm 5.2 mph8.4 kmh 29.00 in982.1 mb 0.00 in0.0 mm 0.00 in0.0 mm 0.00 in0.0 mm
06:53 PM 86.9°F30.5°C 49.4°F9.7°C 28% Calm Calm 5.2 mph8.4 kmh 29.00 in982.1 mb 0.00 in0.0 mm 0.00 in0.0 mm 0.00 in0.0 mm
06:52 PM 86.9°F30.5°C 49.4°F9.7°C 28% Calm Calm 5.2 mph8.4 kmh 29.00 in982.1 mb 0.00 in0.0 mm 0.00 in0.0 mm 0.00 in0.0 mm
06:51 PM 86.9°F30.5°C 49.4°F9.7°C 28% Calm Calm 5.8 mph9.3 kmh 29.00 in982.1 mb 0.00 in0.0 mm 0.00 in0.0 mm 0.00 in0.0 mm
06:50 PM 86.9°F30.5°C 49.4°F9.7°C 28% Calm Calm 7.8 mph12.6 kmh 29.00 in982.1 mb 0.00 in0.0 mm 0.00 in0.0 mm 0.00 in0.0 mm
06:49 PM 86.9°F30.5°C 49.4°F9.7°C 28% Calm Calm 7.8 mph12.6 kmh 29.00 in982.1 mb 0.00 in0.0 mm 0.00 in0.0 mm 0.00 in0.0 mm
06:48 PM 86.9°F30.5°C 49.4°F9.7°C 28% Calm Calm 7.8 mph12.6 kmh 29.00 in982.1 mb 0.00 in0.0 mm 0.00 in0.0 mm 0.00 in0.0 mm
06:45 PM 86.9°F30.5°C 49.3°F9.6°C 28% 3.4 mph ENE5.5 kmh ENE 9.7 mph15.6 kmh 29.00 in982.1 mb 0.00 in0.0 mm 0.00 in0.0 mm 0.00 in0.0 mm
06:44 PM 86.9°F30.5°C 49.3°F9.6°C 28% 3.3 mph ENE5.3 kmh ENE 9.7 mph15.6 kmh 29.00 in982.1 mb 0.00 in0.0 mm 0.00 in0.0 mm 0.00 in0.0 mm
06:43 PM 86.9°F30.5°C 49.3°F9.6°C 28% 3.1 mph E5.0 kmh E 9.7 mph15.6 kmh 29.00 in982.1 mb 0.00 in0.0 mm 0.00 in0.0 mm 0.00 in0.0 mm
06:42 PM 86.9°F30.5°C 49.3°F9.6°C 28% 3.0 mph E4.8 kmh E 9.7 mph15.6 kmh 29.00 in982.1 mb 0.00 in0.0 mm 0.00 in0.0 mm 0.00 in0.0 mm
06:41 PM 86.9°F30.5°C 49.3°F9.6°C 28% 4.3 mph E6.9 kmh E 9.7 mph15.6 kmh 29.00 in982.1 mb 0.00 in0.0 mm 0.00 in0.0 mm 0.00 in0.0 mm
06:40 PM 86.9°F30.5°C 49.3°F9.6°C 28% 4.3 mph E6.9 kmh E 9.7 mph15.6 kmh 29.00 in982.1 mb 0.00 in0.0 mm 0.00 in0.0 mm 0.00 in0.0 mm
06:39 PM 86.9°F30.5°C 49.3°F9.6°C 28% 4.5 mph E7.2 kmh E 9.7 mph15.6 kmh 29.00 in982.1 mb 0.00 in0.0 mm 0.00 in0.0 mm 0.00 in0.0 mm
06:38 PM 86.7°F30.4°C 49.1°F9.5°C 28% 5.2 mph E8.4 kmh E 9.7 mph15.6 kmh 29.00 in982.1 mb 0.00 in0.0 mm 0.00 in0.0 mm 0.00 in0.0 mm
06:37 PM 86.7°F30.4°C 49.1°F9.5°C 28% 5.0 mph E8.0 kmh E 9.7 mph15.6 kmh 29.00 in982.1 mb 0.00 in0.0 mm 0.00 in0.0 mm 0.00 in0.0 mm
06:36 PM 86.7°F30.4°C 49.1°F9.5°C 28% 4.4 mph ESE7.1 kmh ESE 9.7 mph15.6 kmh 29.00 in982.1 mb 0.00 in0.0 mm 0.00 in0.0 mm 0.00 in0.0 mm
06:35 PM 86.7°F30.4°C 49.1°F9.5°C 28% 3.5 mph ESE5.6 kmh ESE 9.7 mph15.6 kmh 29.00 in982.1 mb 0.00 in0.0 mm 0.00 in0.0 mm 0.00 in0.0 mm
06:34 PM 86.7°F30.4°C 49.1°F9.5°C 28% 3.0 mph SE4.8 kmh SE 8.4 mph13.5 kmh 29.00 in982.1 mb 0.00 in0.0 mm 0.00 in0.0 mm 0.00 in0.0 mm
06:33 PM 86.7°F30.4°C 49.1°F9.5°C 28% 3.0 mph SE4.8 kmh SE 8.4 mph13.5 kmh 29.00 in982.1 mb 0.00 in0.0 mm 0.00 in0.0 mm 0.00 in0.0 mm
06:32 PM 86.7°F30.4°C 49.1°F9.5°C 28% 4.3 mph SE6.9 kmh SE 8.4 mph13.5 kmh 29.00 in982.1 mb 0.00 in0.0 mm 0.00 in0.0 mm 0.00 in0.0 mm
06:31 PM 86.5°F30.3°C 48.9°F9.4°C 28% 4.0 mph SE6.4 kmh SE 8.4 mph13.5 kmh 29.00 in982.1 mb 0.00 in0.0 mm 0.00 in0.0 mm 0.00 in0.0 mm
06:30 PM 86.5°F30.3°C 47.8°F8.8°C 26% 3.8 mph SE6.1 kmh SE 8.4 mph13.5 kmh 29.00 in982.1 mb 0.00 in0.0 mm 0.00 in0.0 mm 0.00 in0.0 mm
06:29 PM 86.5°F30.3°C 47.8°F8.8°C 26% 3.3 mph SE5.3 kmh SE 8.4 mph13.5 kmh 29.00 in982.1 mb 0.00 in0.0 mm 0.00 in0.0 mm 0.00 in0.0 mm
06:28 PM 86.5°F30.3°C 47.8°F8.8°C 26% 3.3 mph SE5.3 kmh SE 8.4 mph13.5 kmh 29.00 in982.1 mb 0.00 in0.0 mm 0.00 in0.0 mm 0.00 in0.0 mm
06:27 PM 86.5°F30.3°C 47.8°F8.8°C 26% 4.2 mph ESE6.8 kmh ESE 8.4 mph13.5 kmh 29.00 in982.1 mb 0.00 in0.0 mm 0.00 in0.0 mm 0.00 in0.0 mm
06:26 PM 86.5°F30.3°C 47.8°F8.8°C 26% 4.0 mph E6.4 kmh E 8.4 mph13.5 kmh 29.00 in982.1 mb 0.00 in0.0 mm 0.00 in0.0 mm 0.00 in0.0 mm
06:25 PM 86.5°F30.3°C 47.8°F8.8°C 26% 3.7 mph E6.0 kmh E 7.8 mph12.6 kmh 29.00 in982.1 mb 0.00 in0.0 mm 0.00 in0.0 mm 0.00 in0.0 mm
06:24 PM 86.5°F30.3°C 47.8°F8.8°C 26% 3.9 mph E6.3 kmh E 7.1 mph11.4 kmh 29.00 in982.1 mb 0.00 in0.0 mm 0.00 in0.0 mm 0.00 in0.0 mm
06:23 PM 86.5°F30.3°C 47.7°F8.7°C 26% 4.0 mph ESE6.4 kmh ESE 7.1 mph11.4 kmh 29.00 in982.1 mb 0.00 in0.0 mm 0.00 in0.0 mm 0.00 in0.0 mm
06:22 PM 86.5°F30.3°C 47.7°F8.7°C 26% 3.9 mph ESE6.3 kmh ESE 7.1 mph11.4 kmh 29.00 in982.1 mb 0.00 in0.0 mm 0.00 in0.0 mm 0.00 in0.0 mm
06:21 PM 86.5°F30.3°C 47.7°F8.7°C 26% 3.7 mph ESE6.0 kmh ESE 7.1 mph11.4 kmh 29.00 in982.1 mb 0.00 in0.0 mm 0.00 in0.0 mm 0.00 in0.0 mm
06:20 PM 86.7°F30.4°C 47.9°F8.8°C 26% Calm Calm 5.8 mph9.3 kmh 29.00 in982.1 mb 0.00 in0.0 mm 0.00 in0.0 mm 0.00 in0.0 mm
06:19 PM 86.7°F30.4°C 46.7°F8.2°C 25% Calm Calm 5.8 mph9.3 kmh 29.00 in982.1 mb 0.00 in0.0 mm 0.00 in0.0 mm 0.00 in0.0 mm
06:18 PM 86.7°F30.4°C 46.7°F8.2°C 25% 3.7 mph N6.0 kmh N 5.8 mph9.3 kmh 29.00 in982.1 mb 0.00 in0.0 mm 0.00 in0.0 mm 0.00 in0.0 mm
06:17 PM 86.7°F30.4°C 46.7°F8.2°C 25% 3.7 mph N6.0 kmh N 5.8 mph9.3 kmh 29.00 in982.1 mb 0.00 in0.0 mm 0.00 in0.0 mm 0.00 in0.0 mm
06:16 PM 86.9°F30.5°C 46.8°F8.2°C 25% 3.7 mph N6.0 kmh N 5.8 mph9.3 kmh 29.00 in982.1 mb 0.00 in0.0 mm 0.00 in0.0 mm 0.00 in0.0 mm
06:15 PM 86.9°F30.5°C 46.8°F8.2°C 25% 3.7 mph N6.0 kmh N 5.8 mph9.3 kmh 29.00 in982.1 mb 0.00 in0.0 mm 0.00 in0.0 mm 0.00 in0.0 mm
06:14 PM 86.9°F30.5°C 46.8°F8.2°C 25% 3.7 mph N6.0 kmh N 5.8 mph9.3 kmh 29.00 in982.1 mb 0.00 in0.0 mm 0.00 in0.0 mm 0.00 in0.0 mm
06:13 PM 86.9°F30.5°C 46.8°F8.2°C 25% 3.7 mph N6.0 kmh N 5.8 mph9.3 kmh 29.00 in982.1 mb 0.00 in0.0 mm 0.00 in0.0 mm 0.00 in0.0 mm
06:12 PM 86.9°F30.5°C 46.8°F8.2°C 25% 3.7 mph N6.0 kmh N 7.1 mph11.4 kmh 29.00 in982.1 mb 0.00 in0.0 mm 0.00 in0.0 mm 0.00 in0.0 mm
06:11 PM 86.9°F30.5°C 46.8°F8.2°C 25% Calm Calm 7.1 mph11.4 kmh 29.00 in982.1 mb 0.00 in0.0 mm 0.00 in0.0 mm 0.00 in0.0 mm
06:10 PM 86.9°F30.5°C 46.8°F8.2°C 25% 3.7 mph N6.0 kmh N 7.1 mph11.4 kmh 29.00 in982.1 mb 0.00 in0.0 mm 0.00 in0.0 mm 0.00 in0.0 mm
06:09 PM 87.1°F30.6°C 47.0°F8.3°C 25% 3.5 mph N5.6 kmh N 7.1 mph11.4 kmh 29.00 in982.1 mb 0.00 in0.0 mm 0.00 in0.0 mm 0.00 in0.0 mm
06:08 PM 87.1°F30.6°C 47.0°F8.3°C 25% 3.5 mph N5.6 kmh N 7.1 mph11.4 kmh 29.00 in982.1 mb 0.00 in0.0 mm 0.00 in0.0 mm 0.00 in0.0 mm
06:07 PM 87.1°F30.6°C 47.0°F8.3°C 25% 3.7 mph N6.0 kmh N 7.1 mph11.4 kmh 29.00 in982.1 mb 0.00 in0.0 mm 0.00 in0.0 mm 0.00 in0.0 mm
06:06 PM 87.1°F30.6°C 47.0°F8.3°C 25% 3.9 mph N6.3 kmh N 7.1 mph11.4 kmh 29.00 in982.1 mb 0.00 in0.0 mm 0.00 in0.0 mm 0.00 in0.0 mm
06:05 PM 87.1°F30.6°C 47.0°F8.3°C 25% 4.0 mph NNE6.4 kmh NNE 7.1 mph11.4 kmh 29.00 in982.1 mb 0.00 in0.0 mm 0.00 in0.0 mm 0.00 in0.0 mm
06:04 PM 87.1°F30.6°C 47.0°F8.3°C 25% 4.0 mph N6.4 kmh N 7.1 mph11.4 kmh 29.00 in982.1 mb 0.00 in0.0 mm 0.00 in0.0 mm 0.00 in0.0 mm
06:03 PM 87.1°F30.6°C 45.7°F7.6°C 24% 4.9 mph N7.9 kmh N 7.1 mph11.4 kmh 29.00 in982.1 mb 0.00 in0.0 mm 0.00 in0.0 mm 0.00 in0.0 mm
06:02 PM 87.1°F30.6°C 45.7°F7.6°C 24% 4.9 mph NNE7.9 kmh NNE 7.1 mph11.4 kmh 29.00 in982.1 mb 0.00 in0.0 mm 0.00 in0.0 mm 0.00 in0.0 mm
06:01 PM 87.1°F30.6°C 45.7°F7.6°C 24% Calm Calm 5.2 mph8.4 kmh 29.00 in982.1 mb 0.00 in0.0 mm 0.00 in0.0 mm 0.00 in0.0 mm
06:00 PM 87.1°F30.6°C 45.7°F7.6°C 24% Calm Calm 5.2 mph8.4 kmh 29.00 in982.1 mb 0.00 in0.0 mm 0.00 in0.0 mm 0.00 in0.0 mm
05:59 PM 87.1°F30.6°C 45.7°F7.6°C 24% Calm Calm 5.2 mph8.4 kmh 29.00 in982.1 mb 0.00 in0.0 mm 0.00 in0.0 mm 0.00 in0.0 mm
05:58 PM 87.1°F30.6°C 45.7°F7.6°C 24% Calm Calm 5.8 mph9.3 kmh 29.00 in982.1 mb 0.00 in0.0 mm 0.00 in0.0 mm 0.00 in0.0 mm
05:57 PM 87.1°F30.6°C 45.7°F7.6°C 24% 3.0 mph N4.8 kmh N 5.8 mph9.3 kmh 29.00 in982.1 mb 0.00 in0.0 mm 0.00 in0.0 mm 0.00 in0.0 mm
05:56 PM 87.1°F30.6°C 45.6°F7.6°C 24% 3.0 mph N4.8 kmh N 5.8 mph9.3 kmh 29.00 in982.1 mb 0.00 in0.0 mm 0.00 in0.0 mm 0.00 in0.0 mm
05:55 PM 87.1°F30.6°C 45.6°F7.6°C 24% 3.0 mph N4.8 kmh N 5.8 mph9.3 kmh 29.00 in982.1 mb 0.00 in0.0 mm 0.00 in0.0 mm 0.00 in0.0 mm
05:54 PM 87.3°F30.7°C 45.8°F7.7°C 24% 3.0 mph N4.8 kmh N 5.8 mph9.3 kmh 29.00 in982.1 mb 0.00 in0.0 mm 0.00 in0.0 mm 0.00 in0.0 mm
05:53 PM 87.3°F30.7°C 45.8°F7.7°C 24% Calm Calm 5.8 mph9.3 kmh 29.00 in982.1 mb 0.00 in0.0 mm 0.00 in0.0 mm 0.00 in0.0 mm
05:52 PM 87.3°F30.7°C 45.8°F7.7°C 24% 3.4 mph N5.5 kmh N 5.8 mph9.3 kmh 29.00 in982.1 mb 0.00 in0.0 mm 0.00 in0.0 mm 0.00 in0.0 mm
05:51 PM 87.3°F30.7°C 45.8°F7.7°C 24% 4.1 mph N6.6 kmh N 5.8 mph9.3 kmh 29.00 in982.1 mb 0.00 in0.0 mm 0.00 in0.0 mm 0.00 in0.0 mm
05:50 PM 87.3°F30.7°C 45.8°F7.7°C 24% 4.4 mph N7.1 kmh N 5.8 mph9.3 kmh 29.00 in982.1 mb 0.00 in0.0 mm 0.00 in0.0 mm 0.00 in0.0 mm
05:49 PM 87.3°F30.7°C 45.8°F7.7°C 24% 3.7 mph NNE6.0 kmh NNE 5.8 mph9.3 kmh 29.00 in982.1 mb 0.00 in0.0 mm 0.00 in0.0 mm 0.00 in0.0 mm
05:48 PM 87.4°F30.8°C 45.9°F7.7°C 24% 3.8 mph NNE6.1 kmh NNE 5.8 mph9.3 kmh 29.00 in982.1 mb 0.00 in0.0 mm 0.00 in0.0 mm 0.00 in0.0 mm
05:47 PM 87.4°F30.8°C 45.9°F7.7°C 24% 4.2 mph NNE6.8 kmh NNE 5.8 mph9.3 kmh 29.00 in982.1 mb 0.00 in0.0 mm 0.00 in0.0 mm 0.00 in0.0 mm
05:46 PM 87.4°F30.8°C 45.8°F7.7°C 24% 3.6 mph NNE5.8 kmh NNE 6.5 mph10.5 kmh 29.00 in982.1 mb 0.00 in0.0 mm 0.00 in0.0 mm 0.00 in0.0 mm
05:45 PM 87.4°F30.8°C 45.8°F7.7°C 24% 3.6 mph NNE5.8 kmh NNE 6.5 mph10.5 kmh 29.00 in982.1 mb 0.00 in0.0 mm 0.00 in0.0 mm 0.00 in0.0 mm
05:44 PM 87.4°F30.8°C 45.8°F7.7°C 24% 3.8 mph NNE6.1 kmh NNE 6.5 mph10.5 kmh 29.00 in982.1 mb 0.00 in0.0 mm 0.00 in0.0 mm 0.00 in0.0 mm
05:43 PM 87.4°F30.8°C 45.8°F7.7°C 24% 3.9 mph NE6.3 kmh NE 6.5 mph10.5 kmh 29.00 in982.1 mb 0.00 in0.0 mm 0.00 in0.0 mm 0.00 in0.0 mm
05:42 PM 87.6°F30.9°C 46.0°F7.8°C 24% 3.4 mph NE5.5 kmh NE 6.5 mph10.5 kmh 29.00 in982.1 mb 0.00 in0.0 mm 0.00 in0.0 mm 0.00 in0.0 mm
05:41 PM 87.6°F30.9°C 46.0°F7.8°C 24% 3.3 mph NE5.3 kmh NE 6.5 mph10.5 kmh 29.00 in982.1 mb 0.00 in0.0 mm 0.00 in0.0 mm 0.00 in0.0 mm
05:40 PM 87.6°F30.9°C 46.0°F7.8°C 24% 3.8 mph NE6.1 kmh NE 6.5 mph10.5 kmh 29.00 in982.1 mb 0.00 in0.0 mm 0.00 in0.0 mm 0.00 in0.0 mm
05:39 PM 87.6°F30.9°C 46.0°F7.8°C 24% 4.0 mph NE6.4 kmh NE 6.5 mph10.5 kmh 29.00 in982.1 mb 0.00 in0.0 mm 0.00 in0.0 mm 0.00 in0.0 mm
05:38 PM 87.6°F30.9°C 46.0°F7.8°C 24% 4.2 mph NE6.8 kmh NE 6.5 mph10.5 kmh 29.00 in982.1 mb 0.00 in0.0 mm 0.00 in0.0 mm 0.00 in0.0 mm
05:37 PM 87.6°F30.9°C 46.0°F7.8°C 24% 4.3 mph NE6.9 kmh NE 6.5 mph10.5 kmh 29.00 in982.1 mb 0.00 in0.0 mm 0.00 in0.0 mm 0.00 in0.0 mm
05:36 PM 87.8°F31.0°C 44.8°F7.1°C 23% 4.3 mph N6.9 kmh N 5.8 mph9.3 kmh 29.00 in982.1 mb 0.00 in0.0 mm 0.00 in0.0 mm 0.00 in0.0 mm
05:35 PM 87.8°F31.0°C 44.8°F7.1°C 23% 3.9 mph N6.3 kmh N 7.1 mph11.4 kmh 29.00 in982.1 mb 0.00 in0.0 mm 0.00 in0.0 mm 0.00 in0.0 mm
05:34 PM 87.8°F31.0°C 44.8°F7.1°C 23% 3.7 mph N6.0 kmh N 7.1 mph11.4 kmh 29.00 in982.1 mb 0.00 in0.0 mm 0.00 in0.0 mm 0.00 in0.0 mm
05:33 PM 87.8°F31.0°C 44.8°F7.1°C 23% 3.7 mph N6.0 kmh N 8.4 mph13.5 kmh 29.00 in982.1 mb 0.00 in0.0 mm 0.00 in0.0 mm 0.00 in0.0 mm
05:32 PM 87.8°F31.0°C 46.1°F7.8°C 24% 3.7 mph N6.0 kmh N 8.4 mph13.5 kmh 29.00 in982.1 mb 0.00 in0.0 mm 0.00 in0.0 mm 0.00 in0.0 mm
05:31 PM 87.8°F31.0°C 46.1°F7.8°C 24% 3.2 mph N5.1 kmh N 9.1 mph14.6 kmh 29.00 in982.1 mb 0.00 in0.0 mm 0.00 in0.0 mm 0.00 in0.0 mm
05:30 PM 87.8°F31.0°C 46.1°F7.8°C 24% 3.4 mph N5.5 kmh N 9.1 mph14.6 kmh 29.03 in983.1 mb 0.00 in0.0 mm 0.00 in0.0 mm 0.00 in0.0 mm
05:29 PM 87.8°F31.0°C 46.1°F7.8°C 24% 3.8 mph N6.1 kmh N 11.0 mph17.7 kmh 29.03 in983.1 mb 0.00 in0.0 mm 0.00 in0.0 mm 0.00 in0.0 mm
05:28 PM 87.8°F31.0°C 46.1°F7.8°C 24% 4.3 mph N6.9 kmh N 11.0 mph17.7 kmh 29.03 in983.1 mb 0.00 in0.0 mm 0.00 in0.0 mm 0.00 in0.0 mm
05:27 PM 87.8°F31.0°C 46.1°F7.8°C 24% 4.5 mph N7.2 kmh N 11.0 mph17.7 kmh 29.03 in983.1 mb 0.00 in0.0 mm 0.00 in0.0 mm 0.00 in0.0 mm
05:26 PM 88.0°F31.1°C 46.2°F7.9°C 24% 4.4 mph N7.1 kmh N 11.0 mph17.7 kmh 29.03 in983.1 mb 0.00 in0.0 mm 0.00 in0.0 mm 0.00 in0.0 mm
05:25 PM 88.0°F31.1°C 46.2°F7.9°C 24% 5.1 mph N8.2 kmh N 11.0 mph17.7 kmh 29.03 in983.1 mb 0.00 in0.0 mm 0.00 in0.0 mm 0.00 in0.0 mm
05:24 PM 88.0°F31.1°C 44.9°F7.2°C 23% 5.7 mph N9.2 kmh N 11.0 mph17.7 kmh 29.03 in983.1 mb 0.00 in0.0 mm 0.00 in0.0 mm 0.00 in0.0 mm
05:23 PM 88.0°F31.1°C 44.9°F7.2°C 23% 6.3 mph 10.1 kmh 11.0 mph17.7 kmh 29.03 in983.1 mb 0.00 in0.0 mm 0.00 in0.0 mm 0.00 in0.0 mm
05:22 PM 88.0°F31.1°C 46.2°F7.9°C 24% 6.3 mph N10.1 kmh N 11.0 mph17.7 kmh 29.03 in983.1 mb 0.00 in0.0 mm 0.00 in0.0 mm 0.00 in0.0 mm
05:21 PM 88.0°F31.1°C 46.2°F7.9°C 24% 5.8 mph N9.3 kmh N 11.0 mph17.7 kmh 29.03 in983.1 mb 0.00 in0.0 mm 0.00 in0.0 mm 0.00 in0.0 mm
05:20 PM 88.0°F31.1°C 44.9°F7.2°C 22% 5.5 mph N8.9 kmh N 11.0 mph17.7 kmh 29.03 in983.1 mb 0.00 in0.0 mm 0.00 in0.0 mm 0.00 in0.0 mm
05:19 PM 88.0°F31.1°C 44.9°F7.2°C 22% 4.5 mph N7.2 kmh N 9.1 mph14.6 kmh 29.03 in983.1 mb 0.00 in0.0 mm 0.00 in0.0 mm 0.00 in0.0 mm
05:18 PM 88.2°F31.2°C 45.0°F7.2°C 22% 3.0 mph N4.8 kmh N 7.8 mph12.6 kmh 29.03 in983.1 mb 0.00 in0.0 mm 0.00 in0.0 mm 0.00 in0.0 mm
05:17 PM 88.2°F31.2°C 45.0°F7.2°C 22% 3.0 mph N4.8 kmh N 7.8 mph12.6 kmh 29.03 in983.1 mb 0.00 in0.0 mm 0.00 in0.0 mm 0.00 in0.0 mm
05:16 PM 88.2°F31.2°C 45.0°F7.2°C 22% 3.0 mph N4.8 kmh N 7.8 mph12.6 kmh 29.03 in983.1 mb 0.00 in0.0 mm 0.00 in0.0 mm 0.00 in0.0 mm
05:15 PM 88.2°F31.2°C 45.0°F7.2°C 22% 3.7 mph N6.0 kmh N 7.8 mph12.6 kmh 29.03 in983.1 mb 0.00 in0.0 mm 0.00 in0.0 mm 0.00 in0.0 mm
05:14 PM 88.2°F31.2°C 45.0°F7.2°C 22% 3.5 mph N5.6 kmh N 7.8 mph12.6 kmh 29.03 in983.1 mb 0.00 in0.0 mm 0.00 in0.0 mm 0.00 in0.0 mm
05:13 PM 88.2°F31.2°C 45.0°F7.2°C 22% 3.7 mph N6.0 kmh N 8.4 mph13.5 kmh 29.03 in983.1 mb 0.00 in0.0 mm 0.00 in0.0 mm 0.00 in0.0 mm
05:12 PM 88.2°F31.2°C 45.0°F7.2°C 22% 4.0 mph N6.4 kmh N 9.1 mph14.6 kmh 29.03 in983.1 mb 0.00 in0.0 mm 0.00 in0.0 mm 0.00 in0.0 mm
05:11 PM 88.2°F31.2°C 45.0°F7.2°C 22% 3.8 mph N6.1 kmh N 9.1 mph14.6 kmh 29.03 in983.1 mb 0.00 in0.0 mm 0.00 in0.0 mm 0.00 in0.0 mm
05:10 PM 88.0°F31.1°C 44.8°F7.1°C 22% 3.7 mph N6.0 kmh N 9.1 mph14.6 kmh 29.03 in983.1 mb 0.00 in0.0 mm 0.00 in0.0 mm 0.00 in0.0 mm
05:09 PM 88.2°F31.2°C 45.0°F7.2°C 22% 4.3 mph N6.9 kmh N 9.1 mph14.6 kmh 29.03 in983.1 mb 0.00 in0.0 mm 0.00 in0.0 mm 0.00 in0.0 mm
05:08 PM 88.2°F31.2°C 45.0°F7.2°C 22% 4.9 mph NNE7.9 kmh NNE 9.1 mph14.6 kmh 29.03 in983.1 mb 0.00 in0.0 mm 0.00 in0.0 mm 0.00 in0.0 mm
05:07 PM 88.2°F31.2°C 45.0°F7.2°C 22% 5.2 mph NNE8.4 kmh NNE 9.1 mph14.6 kmh 29.03 in983.1 mb 0.00 in0.0 mm 0.00 in0.0 mm 0.00 in0.0 mm
05:06 PM 88.2°F31.2°C 44.9°F7.2°C 22% 5.7 mph N9.2 kmh N 9.1 mph14.6 kmh 29.03 in983.1 mb 0.00 in0.0 mm 0.00 in0.0 mm 0.00 in0.0 mm
05:05 PM 88.2°F31.2°C 44.9°F7.2°C 22% 6.3 mph N10.1 kmh N 9.1 mph14.6 kmh 29.03 in983.1 mb 0.00 in0.0 mm 0.00 in0.0 mm 0.00 in0.0 mm
05:04 PM 88.2°F31.2°C 44.9°F7.2°C 22% 6.8 mph N10.9 kmh N 9.1 mph14.6 kmh 29.03 in983.1 mb 0.00 in0.0 mm 0.00 in0.0 mm 0.00 in0.0 mm
05:03 PM 88.2°F31.2°C 44.9°F7.2°C 22% 6.7 mph N10.8 kmh N 9.1 mph14.6 kmh 29.03 in983.1 mb 0.00 in0.0 mm 0.00 in0.0 mm 0.00 in0.0 mm
05:02 PM 88.2°F31.2°C 44.9°F7.2°C 22% 4.1 mph N6.6 kmh N 9.1 mph14.6 kmh 29.03 in983.1 mb 0.00 in0.0 mm 0.00 in0.0 mm 0.00 in0.0 mm
05:01 PM 88.2°F31.2°C 44.9°F7.2°C 22% 3.2 mph N5.1 kmh N 8.4 mph13.5 kmh 29.03 in983.1 mb 0.00 in0.0 mm 0.00 in0.0 mm 0.00 in0.0 mm
05:00 PM 88.2°F31.2°C 44.9°F7.2°C 22% 3.5 mph N5.6 kmh N 7.8 mph12.6 kmh 29.03 in983.1 mb 0.00 in0.0 mm 0.00 in0.0 mm 0.00 in0.0 mm
04:59 PM 88.2°F31.2°C 44.9°F7.2°C 22% 3.4 mph N5.5 kmh N 7.8 mph12.6 kmh 29.03 in983.1 mb 0.00 in0.0 mm 0.00 in0.0 mm 0.00 in0.0 mm
04:58 PM 88.2°F31.2°C 44.9°F7.2°C 22% 3.2 mph N5.1 kmh N 7.8 mph12.6 kmh 29.03 in983.1 mb 0.00 in0.0 mm 0.00 in0.0 mm 0.00 in0.0 mm
04:57 PM 88.2°F31.2°C 44.9°F7.2°C 22% 3.6 mph N5.8 kmh N 7.8 mph12.6 kmh 29.03 in983.1 mb 0.00 in0.0 mm 0.00 in0.0 mm 0.00 in0.0 mm
04:56 PM 88.2°F31.2°C 44.9°F7.2°C 22% 4.5 mph N7.2 kmh N 7.8 mph12.6 kmh 29.03 in983.1 mb 0.00 in0.0 mm 0.00 in0.0 mm 0.00 in0.0 mm
04:55 PM 88.2°F31.2°C 44.9°F7.2°C 22% 4.9 mph N7.9 kmh N 7.8 mph12.6 kmh 29.03 in983.1 mb 0.00 in0.0 mm 0.00 in0.0 mm 0.00 in0.0 mm
04:54 PM 88.2°F31.2°C 44.9°F7.2°C 22% 4.4 mph N7.1 kmh N 7.8 mph12.6 kmh 29.03 in983.1 mb 0.00 in0.0 mm 0.00 in0.0 mm 0.00 in0.0 mm
04:53 PM 88.2°F31.2°C 44.9°F7.2°C 22% 3.5 mph N5.6 kmh N 7.1 mph11.4 kmh 29.03 in983.1 mb 0.00 in0.0 mm 0.00 in0.0 mm 0.00 in0.0 mm
04:52 PM 88.2°F31.2°C 44.9°F7.2°C 22% 3.0 mph NNE4.8 kmh NNE 7.1 mph11.4 kmh 29.03 in983.1 mb 0.00 in0.0 mm 0.00 in0.0 mm 0.00 in0.0 mm
04:51 PM 88.2°F31.2°C 45.0°F7.2°C 22% Calm Calm 7.1 mph11.4 kmh 29.03 in983.1 mb 0.00 in0.0 mm 0.00 in0.0 mm 0.00 in0.0 mm
04:50 PM 88.2°F31.2°C 45.0°F7.2°C 22% 3.7 mph NW6.0 kmh NW 7.1 mph11.4 kmh 29.03 in983.1 mb 0.00 in0.0 mm 0.00 in0.0 mm 0.00 in0.0 mm
04:49 PM 88.2°F31.2°C 45.0°F7.2°C 22% 4.3 mph NW6.9 kmh NW 7.1 mph11.4 kmh 29.03 in983.1 mb 0.00 in0.0 mm 0.00 in0.0 mm 0.00 in0.0 mm
04:48 PM 88.2°F31.2°C 45.0°F7.2°C 22% 4.4 mph NNW7.1 kmh NNW 7.1 mph11.4 kmh 29.03 in983.1 mb 0.00 in0.0 mm 0.00 in0.0 mm 0.00 in0.0 mm
04:47 PM 88.2°F31.2°C 45.0°F7.2°C 22% 3.9 mph N6.3 kmh N 7.1 mph11.4 kmh 29.03 in983.1 mb 0.00 in0.0 mm 0.00 in0.0 mm 0.00 in0.0 mm
04:46 PM 88.2°F31.2°C 45.0°F7.2°C 22% 3.1 mph NNE5.0 kmh NNE 5.8 mph9.3 kmh 29.03 in983.1 mb 0.00 in0.0 mm 0.00 in0.0 mm 0.00 in0.0 mm
04:45 PM 88.2°F31.2°C 45.0°F7.2°C 22% 3.0 mph NNE4.8 kmh NNE 5.8 mph9.3 kmh 29.03 in983.1 mb 0.00 in0.0 mm 0.00 in0.0 mm 0.00 in0.0 mm
04:44 PM 88.2°F31.2°C 45.0°F7.2°C 22% Calm Calm 5.2 mph8.4 kmh 29.03 in983.1 mb 0.00 in0.0 mm 0.00 in0.0 mm 0.00 in0.0 mm
04:43 PM 88.3°F31.3°C 45.1°F7.3°C 22% Calm Calm 5.2 mph8.4 kmh 29.03 in983.1 mb 0.00 in0.0 mm 0.00 in0.0 mm 0.00 in0.0 mm
04:42 PM 88.3°F31.3°C 45.1°F7.3°C 22% Calm Calm 5.2 mph8.4 kmh 29.03 in983.1 mb 0.00 in0.0 mm 0.00 in0.0 mm 0.00 in0.0 mm
04:41 PM 88.3°F31.3°C 45.1°F7.3°C 22% Calm Calm 5.8 mph9.3 kmh 29.03 in983.1 mb 0.00 in0.0 mm 0.00 in0.0 mm 0.00 in0.0 mm
04:40 PM 88.3°F31.3°C 45.1°F7.3°C 22% Calm Calm 5.8 mph9.3 kmh 29.03 in983.1 mb 0.00 in0.0 mm 0.00 in0.0 mm 0.00 in0.0 mm
04:39 PM 88.3°F31.3°C 45.1°F7.3°C 22% Calm Calm 5.8 mph9.3 kmh 29.03 in983.1 mb 0.00 in0.0 mm 0.00 in0.0 mm 0.00 in0.0 mm
04:38 PM 88.3°F31.3°C 45.1°F7.3°C 22% 3.7 mph NE6.0 kmh NE 5.8 mph9.3 kmh 29.03 in983.1 mb 0.00 in0.0 mm 0.00 in0.0 mm 0.00 in0.0 mm
04:37 PM 88.3°F31.3°C 45.1°F7.3°C 22% 3.9 mph NE6.3 kmh NE 5.8 mph9.3 kmh 29.03 in983.1 mb 0.00 in0.0 mm 0.00 in0.0 mm 0.00 in0.0 mm
04:36 PM 88.3°F31.3°C 45.1°F7.3°C 22% 4.1 mph NE6.6 kmh NE 5.8 mph9.3 kmh 29.03 in983.1 mb 0.00 in0.0 mm 0.00 in0.0 mm 0.00 in0.0 mm
04:35 PM 88.3°F31.3°C 45.1°F7.3°C 22% 3.9 mph NE6.3 kmh NE 5.8 mph9.3 kmh 29.03 in983.1 mb 0.00 in0.0 mm 0.00 in0.0 mm 0.00 in0.0 mm
04:34 PM 88.5°F31.4°C 45.3°F7.4°C 23% 3.6 mph N5.8 kmh N 5.8 mph9.3 kmh 29.03 in983.1 mb 0.00 in0.0 mm 0.00 in0.0 mm 0.00 in0.0 mm
04:33 PM 88.5°F31.4°C 45.3°F7.4°C 23% 3.6 mph NNE5.8 kmh NNE 5.8 mph9.3 kmh 29.03 in983.1 mb 0.00 in0.0 mm 0.00 in0.0 mm 0.00 in0.0 mm
04:32 PM 88.5°F31.4°C 45.3°F7.4°C 23% 3.4 mph NNE5.5 kmh NNE 7.8 mph12.6 kmh 29.03 in983.1 mb 0.00 in0.0 mm 0.00 in0.0 mm 0.00 in0.0 mm
04:31 PM 88.5°F31.4°C 45.3°F7.4°C 23% 3.0 mph N4.8 kmh N 7.8 mph12.6 kmh 29.03 in983.1 mb 0.00 in0.0 mm 0.00 in0.0 mm 0.00 in0.0 mm
04:30 PM 88.5°F31.4°C 45.3°F7.4°C 23% Calm Calm 7.8 mph12.6 kmh 29.03 in983.1 mb 0.00 in0.0 mm 0.00 in0.0 mm 0.00 in0.0 mm
04:29 PM 88.5°F31.4°C 45.3°F7.4°C 23% 3.1 mph 5.0 kmh 7.8 mph12.6 kmh 29.03 in983.1 mb 0.00 in0.0 mm 0.00 in0.0 mm 0.00 in0.0 mm
04:28 PM 88.5°F31.4°C 45.3°F7.4°C 23% 3.4 mph 5.5 kmh 7.8 mph12.6 kmh 29.03 in983.1 mb 0.00 in0.0 mm 0.00 in0.0 mm 0.00 in0.0 mm
04:27 PM 88.5°F31.4°C 45.3°F7.4°C 23% 3.4 mph 5.5 kmh 7.8 mph12.6 kmh 29.03 in983.1 mb 0.00 in0.0 mm 0.00 in0.0 mm 0.00 in0.0 mm
04:26 PM 88.5°F31.4°C 45.4°F7.4°C 23% 3.3 mph N5.3 kmh N 7.8 mph12.6 kmh 29.03 in983.1 mb 0.00 in0.0 mm 0.00 in0.0 mm 0.00 in0.0 mm
04:25 PM 88.5°F31.4°C 45.4°F7.4°C 23% 3.7 mph N6.0 kmh N 7.8 mph12.6 kmh 29.03 in983.1 mb 0.00 in0.0 mm 0.00 in0.0 mm 0.00 in0.0 mm
04:24 PM 88.5°F31.4°C 45.4°F7.4°C 23% 4.5 mph N7.2 kmh N 8.4 mph13.5 kmh 29.03 in983.1 mb 0.00 in0.0 mm 0.00 in0.0 mm 0.00 in0.0 mm
04:23 PM 88.5°F31.4°C 45.4°F7.4°C 23% 4.0 mph N6.4 kmh N 8.4 mph13.5 kmh 29.03 in983.1 mb 0.00 in0.0 mm 0.00 in0.0 mm 0.00 in0.0 mm
04:22 PM 88.5°F31.4°C 45.4°F7.4°C 23% 3.8 mph N6.1 kmh N 8.4 mph13.5 kmh 29.03 in983.1 mb 0.00 in0.0 mm 0.00 in0.0 mm 0.00 in0.0 mm
04:21 PM 88.5°F31.4°C 45.4°F7.4°C 23% 3.7 mph N6.0 kmh N 8.4 mph13.5 kmh 29.03 in983.1 mb 0.00 in0.0 mm 0.00 in0.0 mm 0.00 in0.0 mm
04:20 PM 88.5°F31.4°C 45.4°F7.4°C 23% Calm Calm 8.4 mph13.5 kmh 29.03 in983.1 mb 0.00 in0.0 mm 0.00 in0.0 mm 0.00 in0.0 mm
04:19 PM 88.5°F31.4°C 45.4°F7.4°C 23% Calm Calm 8.4 mph13.5 kmh 29.03 in983.1 mb 0.00 in0.0 mm 0.00 in0.0 mm 0.00 in0.0 mm
04:18 PM 88.5°F31.4°C 45.4°F7.4°C 23% 4.9 mph N7.9 kmh N 8.4 mph13.5 kmh 29.03 in983.1 mb 0.00 in0.0 mm 0.00 in0.0 mm 0.00 in0.0 mm
04:17 PM 88.5°F31.4°C 45.4°F7.4°C 23% 5.5 mph N8.9 kmh N 8.4 mph13.5 kmh 29.03 in983.1 mb 0.00 in0.0 mm 0.00 in0.0 mm 0.00 in0.0 mm
04:16 PM 88.5°F31.4°C 45.4°F7.4°C 23% 5.1 mph N8.2 kmh N 8.4 mph13.5 kmh 29.03 in983.1 mb 0.00 in0.0 mm 0.00 in0.0 mm 0.00 in0.0 mm
04:15 PM 88.5°F31.4°C 45.4°F7.4°C 23% 4.3 mph 6.9 kmh 8.4 mph13.5 kmh 29.03 in983.1 mb 0.00 in0.0 mm 0.00 in0.0 mm 0.00 in0.0 mm
04:14 PM 88.5°F31.4°C 45.4°F7.4°C 23% 3.7 mph N6.0 kmh N 7.8 mph12.6 kmh 29.03 in983.1 mb 0.00 in0.0 mm 0.00 in0.0 mm 0.00 in0.0 mm
04:13 PM 88.5°F31.4°C 45.4°F7.4°C 23% 3.8 mph WNW6.1 kmh WNW 6.2 mph10.0 kmh 29.03 in983.1 mb 0.00 in0.0 mm 0.00 in0.0 mm 0.00 in0.0 mm
04:12 PM 88.5°F31.4°C 45.4°F7.4°C 23% 3.9 mph WNW6.3 kmh WNW 7.1 mph11.4 kmh 29.03 in983.1 mb 0.00 in0.0 mm 0.00 in0.0 mm 0.00 in0.0 mm
04:11 PM 88.5°F31.4°C 45.4°F7.4°C 23% 4.1 mph WNW6.6 kmh WNW 7.8 mph12.6 kmh 29.03 in983.1 mb 0.00 in0.0 mm 0.00 in0.0 mm 0.00 in0.0 mm
04:10 PM 88.5°F31.4°C 45.4°F7.4°C 23% 4.0 mph WNW6.4 kmh WNW 7.8 mph12.6 kmh 29.03 in983.1 mb 0.00 in0.0 mm 0.00 in0.0 mm 0.00 in0.0 mm
04:09 PM 88.5°F31.4°C 45.4°F7.4°C 23% 3.7 mph WNW6.0 kmh WNW 7.8 mph12.6 kmh 29.03 in983.1 mb 0.00 in0.0 mm 0.00 in0.0 mm 0.00 in0.0 mm
04:08 PM 88.3°F31.3°C 45.3°F7.4°C 23% 3.7 mph NW6.0 kmh NW 7.8 mph12.6 kmh 29.03 in983.1 mb 0.00 in0.0 mm 0.00 in0.0 mm 0.00 in0.0 mm
04:07 PM 88.3°F31.3°C 45.3°F7.4°C 23% 3.7 mph N6.0 kmh N 7.8 mph12.6 kmh 29.03 in983.1 mb 0.00 in0.0 mm 0.00 in0.0 mm 0.00 in0.0 mm
04:06 PM 88.3°F31.3°C 45.3°F7.4°C 23% 3.0 mph N4.8 kmh N 7.8 mph12.6 kmh 29.03 in983.1 mb 0.00 in0.0 mm 0.00 in0.0 mm 0.00 in0.0 mm
04:05 PM 88.3°F31.3°C 45.3°F7.4°C 23% 3.7 mph N6.0 kmh N 7.8 mph12.6 kmh 29.03 in983.1 mb 0.00 in0.0 mm 0.00 in0.0 mm 0.00 in0.0 mm
04:04 PM 88.3°F31.3°C 45.3°F7.4°C 23% 4.8 mph N7.7 kmh N 7.8 mph12.6 kmh 29.03 in983.1 mb 0.00 in0.0 mm 0.00 in0.0 mm 0.00 in0.0 mm
04:03 PM 88.3°F31.3°C 45.3°F7.4°C 23% 5.1 mph N8.2 kmh N 7.8 mph12.6 kmh 29.03 in983.1 mb 0.00 in0.0 mm 0.00 in0.0 mm 0.00 in0.0 mm
04:02 PM 88.3°F31.3°C 45.3°F7.4°C 23% 5.0 mph N8.0 kmh N 7.8 mph12.6 kmh 29.03 in983.1 mb 0.00 in0.0 mm 0.00 in0.0 mm 0.00 in0.0 mm
04:01 PM 88.3°F31.3°C 45.3°F7.4°C 23% 6.0 mph N9.7 kmh N 7.8 mph12.6 kmh 29.03 in983.1 mb 0.00 in0.0 mm 0.00 in0.0 mm 0.00 in0.0 mm
04:00 PM 88.3°F31.3°C 45.3°F7.4°C 23% 6.2 mph N10.0 kmh N 7.8 mph12.6 kmh 29.03 in983.1 mb 0.00 in0.0 mm 0.00 in0.0 mm 0.00 in0.0 mm
03:59 PM 88.3°F31.3°C 45.3°F7.4°C 23% 6.2 mph 10.0 kmh 8.4 mph13.5 kmh 29.03 in983.1 mb 0.00 in0.0 mm 0.00 in0.0 mm 0.00 in0.0 mm
03:58 PM 88.3°F31.3°C 45.3°F7.4°C 23% 3.0 mph NNW4.8 kmh NNW 8.4 mph13.5 kmh 29.03 in983.1 mb 0.00 in0.0 mm 0.00 in0.0 mm 0.00 in0.0 mm
03:57 PM 88.3°F31.3°C 45.3°F7.4°C 23% 3.3 mph NNW5.3 kmh NNW 8.4 mph13.5 kmh 29.03 in983.1 mb 0.00 in0.0 mm 0.00 in0.0 mm 0.00 in0.0 mm
03:56 PM 88.3°F31.3°C 45.4°F7.4°C 23% 3.5 mph NNW5.6 kmh NNW 9.2 mph14.8 kmh 29.03 in983.1 mb 0.00 in0.0 mm 0.00 in0.0 mm 0.00 in0.0 mm
03:55 PM 88.3°F31.3°C 45.4°F7.4°C 23% 3.3 mph N5.3 kmh N 12.6 mph20.3 kmh 29.03 in983.1 mb 0.00 in0.0 mm 0.00 in0.0 mm 0.00 in0.0 mm
03:54 PM 88.3°F31.3°C 45.4°F7.4°C 23% 4.7 mph N7.6 kmh N 12.6 mph20.3 kmh 29.03 in983.1 mb 0.00 in0.0 mm 0.00 in0.0 mm 0.00 in0.0 mm
03:53 PM 88.3°F31.3°C 45.4°F7.4°C 23% 5.9 mph N9.5 kmh N 12.6 mph20.3 kmh 29.03 in983.1 mb 0.00 in0.0 mm 0.00 in0.0 mm 0.00 in0.0 mm
03:52 PM 88.3°F31.3°C 45.4°F7.4°C 23% 6.3 mph N10.1 kmh N 12.6 mph20.3 kmh 29.03 in983.1 mb 0.00 in0.0 mm 0.00 in0.0 mm 0.00 in0.0 mm
03:51 PM 88.3°F31.3°C 45.4°F7.4°C 23% 7.0 mph N11.3 kmh N 12.6 mph20.3 kmh 29.03 in983.1 mb 0.00 in0.0 mm 0.00 in0.0 mm 0.00 in0.0 mm
03:50 PM 88.3°F31.3°C 45.4°F7.4°C 23% 7.2 mph 11.6 kmh 12.6 mph20.3 kmh 29.03 in983.1 mb 0.00 in0.0 mm 0.00 in0.0 mm 0.00 in0.0 mm
03:49 PM 88.5°F31.4°C 45.6°F7.6°C 23% 7.4 mph 11.9 kmh 12.6 mph20.3 kmh 29.03 in983.1 mb 0.00 in0.0 mm 0.00 in0.0 mm 0.00 in0.0 mm
03:48 PM 88.5°F31.4°C 45.6°F7.6°C 23% 7.7 mph N12.4 kmh N 12.6 mph20.3 kmh 29.03 in983.1 mb 0.00 in0.0 mm 0.00 in0.0 mm 0.00 in0.0 mm
03:47 PM 88.5°F31.4°C 45.6°F7.6°C 23% 8.6 mph N13.8 kmh N 12.6 mph20.3 kmh 29.03 in983.1 mb 0.00 in0.0 mm 0.00 in0.0 mm 0.00 in0.0 mm
03:46 PM 88.5°F31.4°C 46.9°F8.3°C 24% 6.8 mph N10.9 kmh N 12.6 mph20.3 kmh 29.03 in983.1 mb 0.00 in0.0 mm 0.00 in0.0 mm 0.00 in0.0 mm
03:45 PM 88.7°F31.5°C 47.1°F8.4°C 24% 5.2 mph N8.4 kmh N 12.6 mph20.3 kmh 29.03 in983.1 mb 0.00 in0.0 mm 0.00 in0.0 mm 0.00 in0.0 mm
03:44 PM 88.7°F31.5°C 47.1°F8.4°C 24% 4.3 mph 6.9 kmh 8.4 mph13.5 kmh 29.03 in983.1 mb 0.00 in0.0 mm 0.00 in0.0 mm 0.00 in0.0 mm
03:43 PM 88.7°F31.5°C 47.1°F8.4°C 24% 4.3 mph 6.9 kmh 7.1 mph11.4 kmh 29.03 in983.1 mb 0.00 in0.0 mm 0.00 in0.0 mm 0.00 in0.0 mm
03:42 PM 88.7°F31.5°C 47.1°F8.4°C 24% Calm Calm 6.7 mph10.8 kmh 29.03 in983.1 mb 0.00 in0.0 mm 0.00 in0.0 mm 0.00 in0.0 mm
03:41 PM 88.7°F31.5°C 47.1°F8.4°C 24% Calm Calm 9.1 mph14.6 kmh 29.03 in983.1 mb 0.00 in0.0 mm 0.00 in0.0 mm 0.00 in0.0 mm
03:40 PM 88.7°F31.5°C 47.1°F8.4°C 24% Calm Calm 9.1 mph14.6 kmh 29.03 in983.1 mb 0.00 in0.0 mm 0.00 in0.0 mm 0.00 in0.0 mm
03:39 PM 88.7°F31.5°C 47.1°F8.4°C 24% Calm Calm 9.1 mph14.6 kmh 29.03 in983.1 mb 0.00 in0.0 mm 0.00 in0.0 mm 0.00 in0.0 mm
03:38 PM 88.7°F31.5°C 47.1°F8.4°C 24% Calm Calm 9.1 mph14.6 kmh 29.03 in983.1 mb 0.00 in0.0 mm 0.00 in0.0 mm 0.00 in0.0 mm
03:37 PM 88.7°F31.5°C 47.1°F8.4°C 24% Calm Calm 9.1 mph14.6 kmh 29.03 in983.1 mb 0.00 in0.0 mm 0.00 in0.0 mm 0.00 in0.0 mm
03:36 PM 88.7°F31.5°C 47.1°F8.4°C 24% Calm Calm 9.1 mph14.6 kmh 29.03 in983.1 mb 0.00 in0.0 mm 0.00 in0.0 mm 0.00 in0.0 mm
03:35 PM 88.7°F31.5°C 47.1°F8.4°C 24% 4.5 mph N7.2 kmh N 9.1 mph14.6 kmh 29.03 in983.1 mb 0.00 in0.0 mm 0.00 in0.0 mm 0.00 in0.0 mm
03:34 PM 88.7°F31.5°C 47.1°F8.4°C 24% 5.6 mph N9.0 kmh N 9.1 mph14.6 kmh 29.03 in983.1 mb 0.00 in0.0 mm 0.00 in0.0 mm 0.00 in0.0 mm
03:33 PM 88.7°F31.5°C 47.1°F8.4°C 24% 6.2 mph N10.0 kmh N 11.0 mph17.7 kmh 29.03 in983.1 mb 0.00 in0.0 mm 0.00 in0.0 mm 0.00 in0.0 mm
03:32 PM 88.7°F31.5°C 48.4°F9.1°C 25% 5.8 mph N9.3 kmh N 12.6 mph20.3 kmh 29.03 in983.1 mb 0.00 in0.0 mm 0.00 in0.0 mm 0.00 in0.0 mm
03:31 PM 88.7°F31.5°C 48.4°F9.1°C 25% 5.6 mph N9.0 kmh N 12.6 mph20.3 kmh 29.03 in983.1 mb 0.00 in0.0 mm 0.00 in0.0 mm 0.00 in0.0 mm
03:30 PM 88.7°F31.5°C 48.4°F9.1°C 25% 6.4 mph 10.3 kmh 12.6 mph20.3 kmh 29.03 in983.1 mb 0.00 in0.0 mm 0.00 in0.0 mm 0.00 in0.0 mm
03:29 PM 88.7°F31.5°C 48.4°F9.1°C 25% 6.6 mph N10.6 kmh N 12.6 mph20.3 kmh 29.03 in983.1 mb 0.00 in0.0 mm 0.00 in0.0 mm 0.00 in0.0 mm
03:28 PM 88.7°F31.5°C 47.2°F8.4°C 24% 6.1 mph N9.8 kmh N 12.6 mph20.3 kmh 29.03 in983.1 mb 0.00 in0.0 mm 0.00 in0.0 mm 0.00 in0.0 mm
03:27 PM 88.7°F31.5°C 47.2°F8.4°C 24% 5.0 mph N8.0 kmh N 12.6 mph20.3 kmh 29.03 in983.1 mb 0.00 in0.0 mm 0.00 in0.0 mm 0.00 in0.0 mm
03:26 PM 88.7°F31.5°C 48.4°F9.1°C 25% 5.1 mph 8.2 kmh 14.6 mph23.5 kmh 29.03 in983.1 mb 0.00 in0.0 mm 0.00 in0.0 mm 0.00 in0.0 mm
03:25 PM 88.7°F31.5°C 48.4°F9.1°C 25% 6.5 mph N10.5 kmh N 14.6 mph23.5 kmh 29.03 in983.1 mb 0.00 in0.0 mm 0.00 in0.0 mm 0.00 in0.0 mm
03:24 PM 88.9°F31.6°C 47.3°F8.5°C 24% 9.2 mph N14.8 kmh N 14.6 mph23.5 kmh 29.03 in983.1 mb 0.00 in0.0 mm 0.00 in0.0 mm 0.00 in0.0 mm
03:23 PM 88.9°F31.6°C 47.3°F8.5°C 24% 7.5 mph N12.1 kmh N 14.6 mph23.5 kmh 29.03 in983.1 mb 0.00 in0.0 mm 0.00 in0.0 mm 0.00 in0.0 mm
03:22 PM 88.9°F31.6°C 47.4°F8.6°C 24% 5.9 mph N9.5 kmh N 14.6 mph23.5 kmh 29.03 in983.1 mb 0.00 in0.0 mm 0.00 in0.0 mm 0.00 in0.0 mm
03:21 PM 88.9°F31.6°C 47.4°F8.6°C 24% 5.2 mph N8.4 kmh N 14.6 mph23.5 kmh 29.03 in983.1 mb 0.00 in0.0 mm 0.00 in0.0 mm 0.00 in0.0 mm
03:20 PM 88.9°F31.6°C 47.4°F8.6°C 24% 5.6 mph N9.0 kmh N 14.6 mph23.5 kmh 29.03 in983.1 mb 0.00 in0.0 mm 0.00 in0.0 mm 0.00 in0.0 mm
03:19 PM 88.9°F31.6°C 47.4°F8.6°C 24% 8.4 mph NNE13.5 kmh NNE 14.6 mph23.5 kmh 29.03 in983.1 mb 0.00 in0.0 mm 0.00 in0.0 mm 0.00 in0.0 mm
03:18 PM 89.1°F31.7°C 47.5°F8.6°C 24% 7.0 mph NNE11.3 kmh NNE 14.6 mph23.5 kmh 29.03 in983.1 mb 0.00 in0.0 mm 0.00 in0.0 mm 0.00 in0.0 mm
03:17 PM 89.1°F31.7°C 47.5°F8.6°C 24% 6.5 mph NNE10.5 kmh NNE 14.6 mph23.5 kmh 29.03 in983.1 mb 0.00 in0.0 mm 0.00 in0.0 mm 0.00 in0.0 mm
03:16 PM 89.2°F31.8°C 47.6°F8.7°C 24% 7.9 mph NNE12.7 kmh NNE 12.0 mph19.3 kmh 29.03 in983.1 mb 0.00 in0.0 mm 0.00 in0.0 mm 0.00 in0.0 mm
03:15 PM 89.2°F31.8°C 47.6°F8.7°C 24% 7.6 mph NNE12.2 kmh NNE 12.0 mph19.3 kmh 29.03 in983.1 mb 0.00 in0.0 mm 0.00 in0.0 mm 0.00 in0.0 mm
03:14 PM 89.4°F31.9°C 47.8°F8.8°C 24% 6.2 mph N10.0 kmh N 11.7 mph18.8 kmh 29.03 in983.1 mb 0.00 in0.0 mm 0.00 in0.0 mm 0.00 in0.0 mm
03:13 PM 89.4°F31.9°C 49.1°F9.5°C 25% 4.0 mph NNW6.4 kmh NNW 11.7 mph18.8 kmh 29.03 in983.1 mb 0.00 in0.0 mm 0.00 in0.0 mm 0.00 in0.0 mm
03:12 PM 89.4°F31.9°C 49.1°F9.5°C 25% 4.0 mph NNW6.4 kmh NNW 7.8 mph12.6 kmh 29.03 in983.1 mb 0.00 in0.0 mm 0.00 in0.0 mm 0.00 in0.0 mm
03:11 PM 89.4°F31.9°C 49.1°F9.5°C 25% 4.1 mph N6.6 kmh N 5.8 mph9.3 kmh 29.03 in983.1 mb 0.00 in0.0 mm 0.00 in0.0 mm 0.00 in0.0 mm
03:10 PM 89.4°F31.9°C 49.1°F9.5°C 25% 4.3 mph N6.9 kmh N 6.2 mph10.0 kmh 29.03 in983.1 mb 0.00 in0.0 mm 0.00 in0.0 mm 0.00 in0.0 mm
03:09 PM 89.4°F31.9°C 49.1°F9.5°C 25% Calm Calm 7.8 mph12.6 kmh 29.03 in983.1 mb 0.00 in0.0 mm 0.00 in0.0 mm 0.00 in0.0 mm
03:08 PM 89.4°F31.9°C 49.1°F9.5°C 25% Calm Calm 7.8 mph12.6 kmh 29.03 in983.1 mb 0.00 in0.0 mm 0.00 in0.0 mm 0.00 in0.0 mm
03:07 PM 89.4°F31.9°C 49.1°F9.5°C 25% 3.0 mph N4.8 kmh N 7.8 mph12.6 kmh 29.03 in983.1 mb 0.00 in0.0 mm 0.00 in0.0 mm 0.00 in0.0 mm
03:06 PM 89.4°F31.9°C 49.1°F9.5°C 25% 3.0 mph N4.8 kmh N 7.8 mph12.6 kmh 29.03 in983.1 mb 0.00 in0.0 mm 0.00 in0.0 mm 0.00 in0.0 mm
03:05 PM 89.4°F31.9°C 49.1°F9.5°C 25% 3.0 mph N4.8 kmh N 7.8 mph12.6 kmh 29.03 in983.1 mb 0.00 in0.0 mm 0.00 in0.0 mm 0.00 in0.0 mm
03:04 PM 89.4°F31.9°C 49.1°F9.5°C 25% 3.0 mph 4.8 kmh 7.8 mph12.6 kmh 29.03 in983.1 mb 0.00 in0.0 mm 0.00 in0.0 mm 0.00 in0.0 mm
03:03 PM 89.4°F31.9°C 49.1°F9.5°C 25% 3.5 mph NNE5.6 kmh NNE 7.8 mph12.6 kmh 29.03 in983.1 mb 0.00 in0.0 mm 0.00 in0.0 mm 0.00 in0.0 mm
03:02 PM 89.4°F31.9°C 49.1°F9.5°C 25% 5.2 mph NNE8.4 kmh NNE 8.4 mph13.5 kmh 29.03 in983.1 mb 0.00 in0.0 mm 0.00 in0.0 mm 0.00 in0.0 mm
03:01 PM 89.4°F31.9°C 49.1°F9.5°C 25% 5.6 mph NNE9.0 kmh NNE 8.4 mph13.5 kmh 29.03 in983.1 mb 0.00 in0.0 mm 0.00 in0.0 mm 0.00 in0.0 mm
03:00 PM 89.4°F31.9°C 49.1°F9.5°C 25% 5.2 mph N8.4 kmh N 8.4 mph13.5 kmh 29.03 in983.1 mb 0.00 in0.0 mm 0.00 in0.0 mm 0.00 in0.0 mm
02:59 PM 89.4°F31.9°C 49.1°F9.5°C 25% 4.9 mph N7.9 kmh N 8.4 mph13.5 kmh 29.03 in983.1 mb 0.00 in0.0 mm 0.00 in0.0 mm 0.00 in0.0 mm
02:58 PM 89.4°F31.9°C 49.1°F9.5°C 25% 4.9 mph N7.9 kmh N 8.4 mph13.5 kmh 29.03 in983.1 mb 0.00 in0.0 mm 0.00 in0.0 mm 0.00 in0.0 mm
02:57 PM 89.4°F31.9°C 49.1°F9.5°C 25% 4.3 mph N6.9 kmh N 8.4 mph13.5 kmh 29.03 in983.1 mb 0.00 in0.0 mm 0.00 in0.0 mm 0.00 in0.0 mm
02:56 PM 89.2°F31.8°C 49.0°F9.4°C 25% 4.3 mph N6.9 kmh N 8.4 mph13.5 kmh 29.03 in983.1 mb 0.00 in0.0 mm 0.00 in0.0 mm 0.00 in0.0 mm
02:55 PM 89.2°F31.8°C 49.0°F9.4°C 25% 5.4 mph N8.7 kmh N 8.4 mph13.5 kmh 29.03 in983.1 mb 0.00 in0.0 mm 0.00 in0.0 mm 0.00 in0.0 mm
02:54 PM 89.2°F31.8°C 49.0°F9.4°C 25% 5.3 mph N8.5 kmh N 8.4 mph13.5 kmh 29.03 in983.1 mb 0.00 in0.0 mm 0.00 in0.0 mm 0.00 in0.0 mm
02:53 PM 89.2°F31.8°C 49.0°F9.4°C 25% 5.2 mph N8.4 kmh N 8.4 mph13.5 kmh 29.03 in983.1 mb 0.00 in0.0 mm 0.00 in0.0 mm 0.00 in0.0 mm
02:52 PM 89.2°F31.8°C 49.0°F9.4°C 25% 4.6 mph NNE7.4 kmh NNE 8.4 mph13.5 kmh 29.03 in983.1 mb 0.00 in0.0 mm 0.00 in0.0 mm 0.00 in0.0 mm
02:51 PM 89.1°F31.7°C 47.7°F8.7°C 24% 4.3 mph NE6.9 kmh NE 9.1 mph14.6 kmh 29.03 in983.1 mb 0.00 in0.0 mm 0.00 in0.0 mm 0.00 in0.0 mm
02:50 PM 89.1°F31.7°C 48.9°F9.4°C 25% 4.3 mph NE6.9 kmh NE 9.1 mph14.6 kmh 29.03 in983.1 mb 0.00 in0.0 mm 0.00 in0.0 mm 0.00 in0.0 mm
02:49 PM 89.2°F31.8°C 49.0°F9.4°C 25% Calm Calm 9.1 mph14.6 kmh 29.03 in983.1 mb 0.00 in0.0 mm 0.00 in0.0 mm 0.00 in0.0 mm
02:48 PM 89.2°F31.8°C 49.0°F9.4°C 25% Calm Calm 9.1 mph14.6 kmh 29.03 in983.1 mb 0.00 in0.0 mm 0.00 in0.0 mm 0.00 in0.0 mm
02:47 PM 89.2°F31.8°C 47.8°F8.8°C 24% 4.3 mph NE6.9 kmh NE 9.1 mph14.6 kmh 29.03 in983.1 mb 0.00 in0.0 mm 0.00 in0.0 mm 0.00 in0.0 mm
02:46 PM 89.2°F31.8°C 47.8°F8.8°C 24% 4.8 mph NE7.7 kmh NE 9.1 mph14.6 kmh 29.03 in983.1 mb 0.00 in0.0 mm 0.00 in0.0 mm 0.00 in0.0 mm
02:45 PM 89.2°F31.8°C 47.8°F8.8°C 24% 5.7 mph NE9.2 kmh NE 9.1 mph14.6 kmh 29.03 in983.1 mb 0.00 in0.0 mm 0.00 in0.0 mm 0.00 in0.0 mm
02:44 PM 89.2°F31.8°C 47.8°F8.8°C 24% 6.3 mph NNE10.1 kmh NNE 9.1 mph14.6 kmh 29.03 in983.1 mb 0.00 in0.0 mm 0.00 in0.0 mm 0.00 in0.0 mm
02:43 PM 89.2°F31.8°C 47.8°F8.8°C 24% 5.8 mph NNE9.3 kmh NNE 9.1 mph14.6 kmh 29.03 in983.1 mb 0.00 in0.0 mm 0.00 in0.0 mm 0.00 in0.0 mm
02:42 PM 89.4°F31.9°C 48.0°F8.9°C 24% 5.3 mph NNE8.5 kmh NNE 9.1 mph14.6 kmh 29.03 in983.1 mb 0.00 in0.0 mm 0.00 in0.0 mm 0.00 in0.0 mm
02:41 PM 89.4°F31.9°C 49.2°F9.6°C 25% 4.3 mph NNE6.9 kmh NNE 9.1 mph14.6 kmh 29.03 in983.1 mb 0.00 in0.0 mm 0.00 in0.0 mm 0.00 in0.0 mm
02:40 PM 89.6°F32.0°C 48.1°F8.9°C 24% 3.0 mph ESE4.8 kmh ESE 8.4 mph13.5 kmh 29.03 in983.1 mb 0.00 in0.0 mm 0.00 in0.0 mm 0.00 in0.0 mm
02:39 PM 89.6°F32.0°C 48.1°F8.9°C 24% 3.0 mph ESE4.8 kmh ESE 8.4 mph13.5 kmh 29.03 in983.1 mb 0.00 in0.0 mm 0.00 in0.0 mm 0.00 in0.0 mm
02:38 PM 89.6°F32.0°C 48.1°F8.9°C 24% 4.3 mph ENE6.9 kmh ENE 8.4 mph13.5 kmh 29.03 in983.1 mb 0.00 in0.0 mm 0.00 in0.0 mm 0.00 in0.0 mm
02:37 PM 89.6°F32.0°C 48.1°F8.9°C 24% 4.6 mph NE7.4 kmh NE 8.4 mph13.5 kmh 29.03 in983.1 mb 0.00 in0.0 mm 0.00 in0.0 mm 0.00 in0.0 mm
02:36 PM 89.8°F32.1°C 49.6°F9.8°C 25% 4.0 mph NNE6.4 kmh NNE 8.4 mph13.5 kmh 29.03 in983.1 mb 0.00 in0.0 mm 0.00 in0.0 mm 0.00 in0.0 mm
02:35 PM 89.8°F32.1°C 49.6°F9.8°C 25% 3.3 mph NNE5.3 kmh NNE 8.4 mph13.5 kmh 29.03 in983.1 mb 0.00 in0.0 mm 0.00 in0.0 mm 0.00 in0.0 mm
02:34 PM 90.0°F32.2°C 49.8°F9.9°C 25% Calm Calm 5.8 mph9.3 kmh 29.03 in983.1 mb 0.00 in0.0 mm 0.00 in0.0 mm 0.00 in0.0 mm
02:33 PM 89.8°F32.1°C 49.6°F9.8°C 25% Calm Calm 5.8 mph9.3 kmh 29.03 in983.1 mb 0.00 in0.0 mm 0.00 in0.0 mm 0.00 in0.0 mm
02:32 PM 89.8°F32.1°C 49.6°F9.8°C 25% Calm Calm 5.8 mph9.3 kmh 29.03 in983.1 mb 0.00 in0.0 mm 0.00 in0.0 mm 0.00 in0.0 mm
02:31 PM 89.8°F32.1°C 49.6°F9.8°C 25% Calm Calm 6.5 mph10.5 kmh 29.03 in983.1 mb 0.00 in0.0 mm 0.00 in0.0 mm 0.00 in0.0 mm
02:30 PM 89.8°F32.1°C 49.6°F9.8°C 25% 4.3 mph NNE6.9 kmh NNE 7.1 mph11.4 kmh 29.03 in983.1 mb 0.00 in0.0 mm 0.00 in0.0 mm 0.00 in0.0 mm
02:29 PM 89.8°F32.1°C 48.3°F9.1°C 24% 3.6 mph NNE5.8 kmh NNE 8.4 mph13.5 kmh 29.03 in983.1 mb 0.00 in0.0 mm 0.00 in0.0 mm 0.00 in0.0 mm
02:28 PM 89.6°F32.0°C 48.2°F9.0°C 24% 3.1 mph NNE5.0 kmh NNE 8.4 mph13.5 kmh 29.03 in983.1 mb 0.00 in0.0 mm 0.00 in0.0 mm 0.00 in0.0 mm
02:27 PM 89.8°F32.1°C 49.6°F9.8°C 25% 3.6 mph NNE5.8 kmh NNE 8.4 mph13.5 kmh 29.03 in983.1 mb 0.00 in0.0 mm 0.00 in0.0 mm 0.00 in0.0 mm
02:26 PM 89.8°F32.1°C 49.6°F9.8°C 25% 4.2 mph NNE6.8 kmh NNE 8.4 mph13.5 kmh 29.03 in983.1 mb 0.00 in0.0 mm 0.00 in0.0 mm 0.00 in0.0 mm
02:25 PM 89.8°F32.1°C 49.6°F9.8°C 25% 4.6 mph NNE7.4 kmh NNE 8.4 mph13.5 kmh 29.03 in983.1 mb 0.00 in0.0 mm 0.00 in0.0 mm 0.00 in0.0 mm
02:24 PM 89.8°F32.1°C 48.4°F9.1°C 24% 4.9 mph NNE7.9 kmh NNE 8.4 mph13.5 kmh 29.03 in983.1 mb 0.00 in0.0 mm 0.00 in0.0 mm 0.00 in0.0 mm
02:23 PM 90.0°F32.2°C 49.8°F9.9°C 25% 5.5 mph NNE8.9 kmh NNE 8.4 mph13.5 kmh 29.03 in983.1 mb 0.00 in0.0 mm 0.00 in0.0 mm 0.00 in0.0 mm
02:22 PM 90.0°F32.2°C 49.8°F9.9°C 25% 5.3 mph NNE8.5 kmh NNE 8.4 mph13.5 kmh 29.03 in983.1 mb 0.00 in0.0 mm 0.00 in0.0 mm 0.00 in0.0 mm
02:21 PM 90.1°F32.3°C 49.9°F9.9°C 25% 4.7 mph NNE7.6 kmh NNE 8.4 mph13.5 kmh 29.03 in983.1 mb 0.00 in0.0 mm 0.00 in0.0 mm 0.00 in0.0 mm
02:20 PM 90.3°F32.4°C 52.4°F11.3°C 28% 4.3 mph N6.9 kmh N 8.4 mph13.5 kmh 29.03 in983.1 mb 0.00 in0.0 mm 0.00 in0.0 mm 0.00 in0.0 mm
02:19 PM 90.3°F32.4°C 52.4°F11.3°C 28% 4.1 mph N6.6 kmh N 8.4 mph13.5 kmh 29.03 in983.1 mb 0.00 in0.0 mm 0.00 in0.0 mm 0.00 in0.0 mm
02:18 PM 90.3°F32.4°C 51.3°F10.7°C 27% 3.9 mph NNE6.3 kmh NNE 8.4 mph13.5 kmh 29.03 in983.1 mb 0.00 in0.0 mm 0.00 in0.0 mm 0.00 in0.0 mm
02:17 PM 90.3°F32.4°C 51.3°F10.7°C 27% 3.3 mph E5.3 kmh E 8.4 mph13.5 kmh 29.03 in983.1 mb 0.00 in0.0 mm 0.00 in0.0 mm 0.00 in0.0 mm
02:16 PM 90.3°F32.4°C 52.4°F11.3°C 28% 3.5 mph E5.6 kmh E 8.4 mph13.5 kmh 29.03 in983.1 mb 0.00 in0.0 mm 0.00 in0.0 mm 0.00 in0.0 mm
02:15 PM 90.3°F32.4°C 52.4°F11.3°C 28% 4.9 mph ENE7.9 kmh ENE 8.4 mph13.5 kmh 29.03 in983.1 mb 0.00 in0.0 mm 0.00 in0.0 mm 0.00 in0.0 mm
02:14 PM 90.3°F32.4°C 52.4°F11.3°C 28% 6.0 mph NE9.7 kmh NE 8.4 mph13.5 kmh 29.03 in983.1 mb 0.00 in0.0 mm 0.00 in0.0 mm 0.00 in0.0 mm
02:13 PM 90.5°F32.5°C 52.6°F11.4°C 28% 5.1 mph NNE8.2 kmh NNE 8.4 mph13.5 kmh 29.03 in983.1 mb 0.00 in0.0 mm 0.00 in0.0 mm 0.00 in0.0 mm
02:12 PM 90.5°F32.5°C 53.8°F12.1°C 29% 4.0 mph NE6.4 kmh NE 6.5 mph10.5 kmh 29.03 in983.1 mb 0.00 in0.0 mm 0.00 in0.0 mm 0.00 in0.0 mm
02:11 PM 90.5°F32.5°C 53.8°F12.1°C 29% 4.8 mph NE7.7 kmh NE 6.5 mph10.5 kmh 29.03 in983.1 mb 0.00 in0.0 mm 0.00 in0.0 mm 0.00 in0.0 mm
02:10 PM 90.5°F32.5°C 53.8°F12.1°C 29% 4.4 mph ENE7.1 kmh ENE 6.5 mph10.5 kmh 29.03 in983.1 mb 0.00 in0.0 mm 0.00 in0.0 mm 0.00 in0.0 mm
02:09 PM 90.5°F32.5°C 53.8°F12.1°C 29% 3.7 mph ENE6.0 kmh ENE 5.8 mph9.3 kmh 29.03 in983.1 mb 0.00 in0.0 mm 0.00 in0.0 mm 0.00 in0.0 mm
02:08 PM 90.5°F32.5°C 53.8°F12.1°C 29% 3.5 mph ENE5.6 kmh ENE 5.8 mph9.3 kmh 29.03 in983.1 mb 0.00 in0.0 mm 0.00 in0.0 mm 0.00 in0.0 mm
02:07 PM 90.3°F32.4°C 52.5°F11.4°C 28% 3.0 mph ENE4.8 kmh ENE 5.8 mph9.3 kmh 29.03 in983.1 mb 0.00 in0.0 mm 0.00 in0.0 mm 0.00 in0.0 mm
02:06 PM 90.5°F32.5°C 56.9°F13.8°C 33% 3.0 mph ENE4.8 kmh ENE 5.8 mph9.3 kmh 29.03 in983.1 mb 0.00 in0.0 mm 0.00 in0.0 mm 0.00 in0.0 mm
02:05 PM 90.5°F32.5°C 56.9°F13.8°C 33% 3.0 mph ENE4.8 kmh ENE 5.8 mph9.3 kmh 29.03 in983.1 mb 0.00 in0.0 mm 0.00 in0.0 mm 0.00 in0.0 mm
02:04 PM 90.5°F32.5°C 56.9°F13.8°C 33% Calm Calm 5.8 mph9.3 kmh 29.03 in983.1 mb 0.00 in0.0 mm 0.00 in0.0 mm 0.00 in0.0 mm
02:03 PM 90.5°F32.5°C 55.9°F13.3°C 31% Calm Calm 5.8 mph9.3 kmh 29.03 in983.1 mb 0.00 in0.0 mm 0.00 in0.0 mm 0.00 in0.0 mm
02:02 PM 90.3°F32.4°C 55.7°F13.2°C 31% Calm Calm 5.8 mph9.3 kmh 29.03 in983.1 mb 0.00 in0.0 mm 0.00 in0.0 mm 0.00 in0.0 mm
02:01 PM 90.5°F32.5°C 56.9°F13.8°C 33% Calm Calm 5.8 mph9.3 kmh 29.03 in983.1 mb 0.00 in0.0 mm 0.00 in0.0 mm 0.00 in0.0 mm
02:00 PM 90.5°F32.5°C 56.9°F13.8°C 33% 4.3 mph NE6.9 kmh NE 5.8 mph9.3 kmh 29.03 in983.1 mb 0.00 in0.0 mm 0.00 in0.0 mm 0.00 in0.0 mm
01:59 PM 90.7°F32.6°C 57.1°F13.9°C 33% 4.3 mph NE6.9 kmh NE 5.8 mph9.3 kmh 29.03 in983.1 mb 0.00 in0.0 mm 0.00 in0.0 mm 0.00 in0.0 mm
01:58 PM 90.7°F32.6°C 57.1°F13.9°C 33% 3.6 mph NE5.8 kmh NE 5.8 mph9.3 kmh 29.03 in983.1 mb 0.00 in0.0 mm 0.00 in0.0 mm 0.00 in0.0 mm
01:57 PM 90.7°F32.6°C 57.1°F13.9°C 33% 3.0 mph NE4.8 kmh NE 5.8 mph9.3 kmh 29.03 in983.1 mb 0.00 in0.0 mm 0.00 in0.0 mm 0.00 in0.0 mm
01:56 PM 90.7°F32.6°C 57.1°F13.9°C 33% 3.0 mph NE4.8 kmh NE 6.2 mph10.0 kmh 29.03 in983.1 mb 0.00 in0.0 mm 0.00 in0.0 mm 0.00 in0.0 mm
01:55 PM 90.7°F32.6°C 57.1°F13.9°C 33% 3.0 mph ENE4.8 kmh ENE 6.2 mph10.0 kmh 29.03 in983.1 mb 0.00 in0.0 mm 0.00 in0.0 mm 0.00 in0.0 mm
01:54 PM 90.5°F32.5°C 57.0°F13.9°C 33% Calm Calm 7.8 mph12.6 kmh 29.03 in983.1 mb 0.00 in0.0 mm 0.00 in0.0 mm 0.00 in0.0 mm
01:53 PM 90.5°F32.5°C 58.0°F14.4°C 34% Calm Calm 7.8 mph12.6 kmh 29.03 in983.1 mb 0.00 in0.0 mm 0.00 in0.0 mm 0.00 in0.0 mm
01:52 PM 90.3°F32.4°C 56.8°F13.8°C 33% Calm Calm 7.8 mph12.6 kmh 29.03 in983.1 mb 0.00 in0.0 mm 0.00 in0.0 mm 0.00 in0.0 mm
01:51 PM 90.1°F32.3°C 56.6°F13.7°C 33% Calm Calm 7.8 mph12.6 kmh 29.03 in983.1 mb 0.00 in0.0 mm 0.00 in0.0 mm 0.00 in0.0 mm
01:50 PM 90.0°F32.2°C 56.5°F13.6°C 33% Calm Calm 7.8 mph12.6 kmh 29.03 in983.1 mb 0.00 in0.0 mm 0.00 in0.0 mm 0.00 in0.0 mm
01:49 PM 90.0°F32.2°C 56.5°F13.6°C 33% 3.0 mph ENE4.8 kmh ENE 7.8 mph12.6 kmh 29.03 in983.1 mb 0.00 in0.0 mm 0.00 in0.0 mm 0.00 in0.0 mm
01:48 PM 89.8°F32.1°C 56.4°F13.6°C 33% 3.0 mph ENE4.8 kmh ENE 7.8 mph12.6 kmh 29.03 in983.1 mb 0.00 in0.0 mm 0.00 in0.0 mm 0.00 in0.0 mm
01:47 PM 89.8°F32.1°C 56.4°F13.6°C 33% 3.9 mph ENE6.3 kmh ENE 8.0 mph12.9 kmh 29.03 in983.1 mb 0.00 in0.0 mm 0.00 in0.0 mm 0.00 in0.0 mm
01:46 PM 89.6°F32.0°C 56.2°F13.4°C 33% 5.0 mph ENE8.0 kmh ENE 10.4 mph16.7 kmh 29.03 in983.1 mb 0.00 in0.0 mm 0.00 in0.0 mm 0.00 in0.0 mm
01:45 PM 89.6°F32.0°C 56.2°F13.4°C 33% 4.6 mph NE7.4 kmh NE 10.4 mph16.7 kmh 29.03 in983.1 mb 0.00 in0.0 mm 0.00 in0.0 mm 0.00 in0.0 mm
01:44 PM 89.6°F32.0°C 56.2°F13.4°C 33% 3.8 mph NE6.1 kmh NE 10.4 mph16.7 kmh 29.03 in983.1 mb 0.00 in0.0 mm 0.00 in0.0 mm 0.00 in0.0 mm
01:43 PM 89.6°F32.0°C 56.2°F13.4°C 33% 3.7 mph NE6.0 kmh NE 11.0 mph17.7 kmh 29.03 in983.1 mb 0.00 in0.0 mm 0.00 in0.0 mm 0.00 in0.0 mm
01:42 PM 89.4°F31.9°C 56.0°F13.3°C 33% 3.4 mph NNE5.5 kmh NNE 12.0 mph19.3 kmh 29.03 in983.1 mb 0.00 in0.0 mm 0.00 in0.0 mm 0.00 in0.0 mm
01:41 PM 89.4°F31.9°C 55.0°F12.8°C 31% 3.0 mph N4.8 kmh N 12.0 mph19.3 kmh 29.03 in983.1 mb 0.00 in0.0 mm 0.00 in0.0 mm 0.00 in0.0 mm
01:40 PM 89.4°F31.9°C 55.0°F12.8°C 31% 3.3 mph 5.3 kmh 12.0 mph19.3 kmh 29.03 in983.1 mb 0.00 in0.0 mm 0.00 in0.0 mm 0.00 in0.0 mm
01:39 PM 89.2°F31.8°C 53.8°F12.1°C 30% 5.2 mph N8.4 kmh N 12.0 mph19.3 kmh 29.03 in983.1 mb 0.00 in0.0 mm 0.00 in0.0 mm 0.00 in0.0 mm
01:38 PM 89.4°F31.9°C 54.0°F12.2°C 30% 6.8 mph N10.9 kmh N 12.0 mph19.3 kmh 29.03 in983.1 mb 0.00 in0.0 mm 0.00 in0.0 mm 0.00 in0.0 mm
01:37 PM 89.4°F31.9°C 54.0°F12.2°C 30% 6.7 mph N10.8 kmh N 12.0 mph19.3 kmh 29.03 in983.1 mb 0.00 in0.0 mm 0.00 in0.0 mm 0.00 in0.0 mm
01:36 PM 89.4°F31.9°C 51.8°F11.0°C 28% 5.7 mph NE9.2 kmh NE 12.0 mph19.3 kmh 29.03 in983.1 mb 0.00 in0.0 mm 0.00 in0.0 mm 0.00 in0.0 mm
01:35 PM 89.4°F31.9°C 54.0°F12.2°C 30% 6.9 mph NE11.1 kmh NE 12.0 mph19.3 kmh 29.03 in983.1 mb 0.00 in0.0 mm 0.00 in0.0 mm 0.00 in0.0 mm
01:34 PM 89.6°F32.0°C 56.2°F13.4°C 33% 7.3 mph NE11.7 kmh NE 12.0 mph19.3 kmh 29.03 in983.1 mb 0.00 in0.0 mm 0.00 in0.0 mm 0.00 in0.0 mm
01:33 PM 89.6°F32.0°C 56.2°F13.4°C 33% 7.4 mph NE11.9 kmh NE 12.0 mph19.3 kmh 29.03 in983.1 mb 0.00 in0.0 mm 0.00 in0.0 mm 0.00 in0.0 mm
01:32 PM 89.8°F32.1°C 56.4°F13.6°C 33% 4.3 mph NNE6.9 kmh NNE 11.7 mph18.8 kmh 29.03 in983.1 mb 0.00 in0.0 mm 0.00 in0.0 mm 0.00 in0.0 mm
01:31 PM 89.8°F32.1°C 56.4°F13.6°C 33% 4.6 mph N7.4 kmh N 9.1 mph14.6 kmh 29.03 in983.1 mb 0.00 in0.0 mm 0.00 in0.0 mm 0.00 in0.0 mm
01:30 PM 89.6°F32.0°C 56.2°F13.4°C 33% 5.2 mph NNE8.4 kmh NNE 9.1 mph14.6 kmh 29.03 in983.1 mb 0.00 in0.0 mm 0.00 in0.0 mm 0.00 in0.0 mm
01:29 PM 89.6°F32.0°C 56.2°F13.4°C 33% 4.4 mph NNE7.1 kmh NNE 9.1 mph14.6 kmh 29.03 in983.1 mb 0.00 in0.0 mm 0.00 in0.0 mm 0.00 in0.0 mm
01:28 PM 89.6°F32.0°C 55.2°F12.9°C 31% 3.5 mph NNE5.6 kmh NNE 9.1 mph14.6 kmh 29.03 in983.1 mb 0.00 in0.0 mm 0.00 in0.0 mm 0.00 in0.0 mm
01:27 PM 89.6°F32.0°C 57.2°F14.0°C 34% 3.0 mph NE4.8 kmh NE 9.1 mph14.6 kmh 29.03 in983.1 mb 0.00 in0.0 mm 0.00 in0.0 mm 0.00 in0.0 mm
01:26 PM 89.4°F31.9°C 57.1°F13.9°C 34% Calm Calm 9.1 mph14.6 kmh 29.03 in983.1 mb 0.00 in0.0 mm 0.00 in0.0 mm 0.00 in0.0 mm
01:25 PM 89.4°F31.9°C 57.1°F13.9°C 34% Calm Calm 9.1 mph14.6 kmh 29.03 in983.1 mb 0.00 in0.0 mm 0.00 in0.0 mm 0.00 in0.0 mm
01:24 PM 89.2°F31.8°C 56.9°F13.8°C 34% 3.7 mph NE6.0 kmh NE 9.1 mph14.6 kmh 29.03 in983.1 mb 0.00 in0.0 mm 0.00 in0.0 mm 0.00 in0.0 mm
01:23 PM 89.2°F31.8°C 56.9°F13.8°C 34% 3.9 mph NE6.3 kmh NE 9.1 mph14.6 kmh 29.03 in983.1 mb 0.00 in0.0 mm 0.00 in0.0 mm 0.00 in0.0 mm
01:22 PM 89.2°F31.8°C 56.9°F13.8°C 34% 4.7 mph NE7.6 kmh NE 9.1 mph14.6 kmh 29.03 in983.1 mb 0.00 in0.0 mm 0.00 in0.0 mm 0.00 in0.0 mm
01:21 PM 89.2°F31.8°C 55.9°F13.3°C 33% 5.7 mph NE9.2 kmh NE 9.1 mph14.6 kmh 29.03 in983.1 mb 0.00 in0.0 mm 0.00 in0.0 mm 0.00 in0.0 mm
01:20 PM 89.2°F31.8°C 53.8°F12.1°C 30% 6.0 mph NNE9.7 kmh NNE 9.2 mph14.8 kmh 29.03 in983.1 mb 0.00 in0.0 mm 0.00 in0.0 mm 0.00 in0.0 mm
01:19 PM 89.2°F31.8°C 53.8°F12.1°C 30% 5.4 mph NNE8.7 kmh NNE 11.0 mph17.7 kmh 29.03 in983.1 mb 0.00 in0.0 mm 0.00 in0.0 mm 0.00 in0.0 mm
01:18 PM 89.4°F31.9°C 57.1°F13.9°C 34% 3.4 mph NNE5.5 kmh NNE 11.0 mph17.7 kmh 29.03 in983.1 mb 0.00 in0.0 mm 0.00 in0.0 mm 0.00 in0.0 mm
01:17 PM 89.2°F31.8°C 56.9°F13.8°C 34% 3.8 mph NNE6.1 kmh NNE 11.0 mph17.7 kmh 29.03 in983.1 mb 0.00 in0.0 mm 0.00 in0.0 mm 0.00 in0.0 mm
01:16 PM 89.2°F31.8°C 56.9°F13.8°C 34% 4.6 mph N7.4 kmh N 11.0 mph17.7 kmh 29.03 in983.1 mb 0.00 in0.0 mm 0.00 in0.0 mm 0.00 in0.0 mm
01:15 PM 89.2°F31.8°C 56.9°F13.8°C 34% 4.4 mph N7.1 kmh N 11.0 mph17.7 kmh 29.03 in983.1 mb 0.00 in0.0 mm 0.00 in0.0 mm 0.00 in0.0 mm
01:14 PM 89.2°F31.8°C 56.9°F13.8°C 34% 3.7 mph N6.0 kmh N 11.0 mph17.7 kmh 29.03 in983.1 mb 0.00 in0.0 mm 0.00 in0.0 mm 0.00 in0.0 mm
01:13 PM 89.2°F31.8°C 56.9°F13.8°C 34% 5.5 mph N8.9 kmh N 11.0 mph17.7 kmh 29.03 in983.1 mb 0.00 in0.0 mm 0.00 in0.0 mm 0.00 in0.0 mm
01:12 PM 89.2°F31.8°C 57.9°F14.4°C 35% 7.2 mph N11.6 kmh N 11.0 mph17.7 kmh 29.03 in983.1 mb 0.00 in0.0 mm 0.00 in0.0 mm 0.00 in0.0 mm
01:11 PM 89.2°F31.8°C 57.9°F14.4°C 35% 6.5 mph N10.5 kmh N 11.0 mph17.7 kmh 29.03 in983.1 mb 0.00 in0.0 mm 0.00 in0.0 mm 0.00 in0.0 mm
01:10 PM 89.2°F31.8°C 57.9°F14.4°C 35% 4.8 mph N7.7 kmh N 11.0 mph17.7 kmh 29.03 in983.1 mb 0.00 in0.0 mm 0.00 in0.0 mm 0.00 in0.0 mm
01:09 PM 89.2°F31.8°C 57.9°F14.4°C 35% 4.2 mph NNE6.8 kmh NNE 11.0 mph17.7 kmh 29.03 in983.1 mb 0.00 in0.0 mm 0.00 in0.0 mm 0.00 in0.0 mm
01:08 PM 89.1°F31.7°C 57.8°F14.3°C 35% 4.3 mph NNE6.9 kmh NNE 9.7 mph15.6 kmh 29.03 in983.1 mb 0.00 in0.0 mm 0.00 in0.0 mm 0.00 in0.0 mm
01:07 PM 89.2°F31.8°C 59.7°F15.4°C 37% 4.2 mph NNE6.8 kmh NNE 9.7 mph15.6 kmh 29.03 in983.1 mb 0.00 in0.0 mm 0.00 in0.0 mm 0.00 in0.0 mm
01:06 PM 89.1°F31.7°C 59.6°F15.3°C 37% 3.7 mph N6.0 kmh N 10.4 mph16.7 kmh 29.03 in983.1 mb 0.00 in0.0 mm 0.00 in0.0 mm 0.00 in0.0 mm
01:05 PM 88.9°F31.6°C 59.5°F15.3°C 37% 3.7 mph N6.0 kmh N 10.4 mph16.7 kmh 29.03 in983.1 mb 0.00 in0.0 mm 0.00 in0.0 mm 0.00 in0.0 mm
01:04 PM 88.9°F31.6°C 59.5°F15.3°C 37% 3.7 mph N6.0 kmh N 10.4 mph16.7 kmh 29.03 in983.1 mb 0.00 in0.0 mm 0.00 in0.0 mm 0.00 in0.0 mm
01:03 PM 88.9°F31.6°C 59.5°F15.3°C 37% Calm Calm 10.4 mph16.7 kmh 29.03 in983.1 mb 0.00 in0.0 mm 0.00 in0.0 mm 0.00 in0.0 mm
01:02 PM 88.7°F31.5°C 60.2°F15.7°C 39% 3.7 mph N6.0 kmh N 10.4 mph16.7 kmh 29.03 in983.1 mb 0.00 in0.0 mm 0.00 in0.0 mm 0.00 in0.0 mm
01:01 PM 88.5°F31.4°C 59.1°F15.1°C 37% 4.2 mph N6.8 kmh N 10.4 mph16.7 kmh 29.03 in983.1 mb 0.00 in0.0 mm 0.00 in0.0 mm 0.00 in0.0 mm
01:00 PM 88.5°F31.4°C 59.1°F15.1°C 37% 5.8 mph N9.3 kmh N 10.4 mph16.7 kmh 29.03 in983.1 mb 0.00 in0.0 mm 0.00 in0.0 mm 0.00 in0.0 mm
12:59 PM 88.3°F31.3°C 58.9°F14.9°C 37% 7.0 mph N11.3 kmh N 10.4 mph16.7 kmh 29.03 in983.1 mb 0.00 in0.0 mm 0.00 in0.0 mm 0.00 in0.0 mm
12:58 PM 88.3°F31.3°C 58.9°F14.9°C 37% 6.4 mph N10.3 kmh N 10.4 mph16.7 kmh 29.03 in983.1 mb 0.00 in0.0 mm 0.00 in0.0 mm 0.00 in0.0 mm
12:57 PM 88.3°F31.3°C 58.0°F14.4°C 36% 4.8 mph N7.7 kmh N 10.4 mph16.7 kmh 29.03 in983.1 mb 0.00 in0.0 mm 0.00 in0.0 mm 0.00 in0.0 mm
12:56 PM 88.3°F31.3°C 59.8°F15.4°C 39% 3.7 mph N6.0 kmh N 9.7 mph15.6 kmh 29.03 in983.1 mb 0.00 in0.0 mm 0.00 in0.0 mm 0.00 in0.0 mm
12:55 PM 88.3°F31.3°C 59.8°F15.4°C 39% 3.5 mph NNW5.6 kmh NNW 9.7 mph15.6 kmh 29.03 in983.1 mb 0.00 in0.0 mm 0.00 in0.0 mm 0.00 in0.0 mm
12:54 PM 88.3°F31.3°C 59.8°F15.4°C 39% 3.2 mph N5.1 kmh N 9.7 mph15.6 kmh 29.03 in983.1 mb 0.00 in0.0 mm 0.00 in0.0 mm 0.00 in0.0 mm
12:53 PM 88.3°F31.3°C 59.8°F15.4°C 39% 4.3 mph N6.9 kmh N 9.7 mph15.6 kmh 29.03 in983.1 mb 0.00 in0.0 mm 0.00 in0.0 mm 0.00 in0.0 mm
12:52 PM 88.3°F31.3°C 59.8°F15.4°C 39% 5.9 mph N9.5 kmh N 9.7 mph15.6 kmh 29.03 in983.1 mb 0.00 in0.0 mm 0.00 in0.0 mm 0.00 in0.0 mm
12:51 PM 88.3°F31.3°C 58.9°F14.9°C 37% 6.4 mph N10.3 kmh N 9.7 mph15.6 kmh 29.03 in983.1 mb 0.00 in0.0 mm 0.00 in0.0 mm 0.00 in0.0 mm
12:50 PM 88.3°F31.3°C 59.8°F15.4°C 39% 5.5 mph NW8.9 kmh NW 9.7 mph15.6 kmh 29.03 in983.1 mb 0.00 in0.0 mm 0.00 in0.0 mm 0.00 in0.0 mm
12:49 PM 88.3°F31.3°C 60.7°F15.9°C 40% 5.4 mph WNW8.7 kmh WNW 9.1 mph14.6 kmh 29.03 in983.1 mb 0.00 in0.0 mm 0.00 in0.0 mm 0.00 in0.0 mm
12:48 PM 88.3°F31.3°C 60.7°F15.9°C 40% 5.3 mph NW8.5 kmh NW 9.1 mph14.6 kmh 29.03 in983.1 mb 0.00 in0.0 mm 0.00 in0.0 mm 0.00 in0.0 mm
12:47 PM 88.3°F31.3°C 62.4°F16.9°C 42% 4.9 mph NNW7.9 kmh NNW 8.4 mph13.5 kmh 29.03 in983.1 mb 0.00 in0.0 mm 0.00 in0.0 mm 0.00 in0.0 mm
12:46 PM 88.2°F31.2°C 61.5°F16.4°C 41% 4.6 mph NNW7.4 kmh NNW 8.4 mph13.5 kmh 29.03 in983.1 mb 0.00 in0.0 mm 0.00 in0.0 mm 0.00 in0.0 mm
12:45 PM 88.2°F31.2°C 62.3°F16.8°C 42% 3.9 mph NNW6.3 kmh NNW 8.4 mph13.5 kmh 29.03 in983.1 mb 0.00 in0.0 mm 0.00 in0.0 mm 0.00 in0.0 mm
12:44 PM 88.2°F31.2°C 62.3°F16.8°C 42% 3.5 mph NW5.6 kmh NW 8.4 mph13.5 kmh 29.03 in983.1 mb 0.00 in0.0 mm 0.00 in0.0 mm 0.00 in0.0 mm
12:43 PM 88.2°F31.2°C 62.3°F16.8°C 42% 3.4 mph N5.5 kmh N 8.4 mph13.5 kmh 29.03 in983.1 mb 0.00 in0.0 mm 0.00 in0.0 mm 0.00 in0.0 mm
12:42 PM 88.0°F31.1°C 62.1°F16.7°C 42% 4.0 mph NNW6.4 kmh NNW 9.1 mph14.6 kmh 29.03 in983.1 mb 0.00 in0.0 mm 0.00 in0.0 mm 0.00 in0.0 mm
12:41 PM 88.0°F31.1°C 61.3°F16.3°C 41% 4.5 mph NW7.2 kmh NW 9.1 mph14.6 kmh 29.03 in983.1 mb 0.00 in0.0 mm 0.00 in0.0 mm 0.00 in0.0 mm
12:40 PM 88.0°F31.1°C 61.3°F16.3°C 41% 4.8 mph WNW7.7 kmh WNW 9.1 mph14.6 kmh 29.03 in983.1 mb 0.00 in0.0 mm 0.00 in0.0 mm 0.00 in0.0 mm
12:39 PM 88.0°F31.1°C 62.1°F16.7°C 42% 4.5 mph WNW7.2 kmh WNW 9.1 mph14.6 kmh 29.03 in983.1 mb 0.00 in0.0 mm 0.00 in0.0 mm 0.00 in0.0 mm
12:38 PM 88.0°F31.1°C 62.1°F16.7°C 42% 4.4 mph NW7.1 kmh NW 9.1 mph14.6 kmh 29.03 in983.1 mb 0.00 in0.0 mm 0.00 in0.0 mm 0.00 in0.0 mm
12:37 PM 88.0°F31.1°C 62.9°F17.2°C 43% 4.6 mph NW7.4 kmh NW 9.1 mph14.6 kmh 29.03 in983.1 mb 0.00 in0.0 mm 0.00 in0.0 mm 0.00 in0.0 mm
12:36 PM 88.0°F31.1°C 62.9°F17.2°C 43% 4.7 mph NW7.6 kmh NW 11.0 mph17.7 kmh 29.03 in983.1 mb 0.00 in0.0 mm 0.00 in0.0 mm 0.00 in0.0 mm
12:35 PM 88.0°F31.1°C 62.1°F16.7°C 42% 4.5 mph NNW7.2 kmh NNW 11.7 mph18.8 kmh 29.03 in983.1 mb 0.00 in0.0 mm 0.00 in0.0 mm 0.00 in0.0 mm
12:34 PM 87.8°F31.0°C 62.7°F17.1°C 43% 4.8 mph NNW7.7 kmh NNW 11.7 mph18.8 kmh 29.03 in983.1 mb 0.00 in0.0 mm 0.00 in0.0 mm 0.00 in0.0 mm
12:33 PM 87.8°F31.0°C 62.7°F17.1°C 43% 4.7 mph NNW7.6 kmh NNW 12.6 mph20.3 kmh 29.03 in983.1 mb 0.00 in0.0 mm 0.00 in0.0 mm 0.00 in0.0 mm
12:32 PM 87.8°F31.0°C 62.7°F17.1°C 43% 5.5 mph NW8.9 kmh NW 12.6 mph20.3 kmh 29.03 in983.1 mb 0.00 in0.0 mm 0.00 in0.0 mm 0.00 in0.0 mm
12:31 PM 87.8°F31.0°C 63.5°F17.5°C 44% 6.7 mph NW10.8 kmh NW 12.6 mph20.3 kmh 29.03 in983.1 mb 0.00 in0.0 mm 0.00 in0.0 mm 0.00 in0.0 mm
12:30 PM 87.6°F30.9°C 62.6°F17.0°C 43% 5.5 mph NNW8.9 kmh NNW 12.6 mph20.3 kmh 29.03 in983.1 mb 0.00 in0.0 mm 0.00 in0.0 mm 0.00 in0.0 mm
12:29 PM 87.6°F30.9°C 62.6°F17.0°C 43% 6.3 mph NW10.1 kmh NW 12.6 mph20.3 kmh 29.03 in983.1 mb 0.00 in0.0 mm 0.00 in0.0 mm 0.00 in0.0 mm
12:28 PM 87.6°F30.9°C 62.6°F17.0°C 43% 7.9 mph NW12.7 kmh NW 12.6 mph20.3 kmh 29.03 in983.1 mb 0.00 in0.0 mm 0.00 in0.0 mm 0.00 in0.0 mm
12:27 PM 87.6°F30.9°C 60.9°F16.1°C 41% 7.5 mph NNW12.1 kmh NNW 12.6 mph20.3 kmh 29.03 in983.1 mb 0.00 in0.0 mm 0.00 in0.0 mm 0.00 in0.0 mm
12:26 PM 87.6°F30.9°C 60.1°F15.6°C 40% 6.2 mph NNE10.0 kmh NNE 12.6 mph20.3 kmh 29.03 in983.1 mb 0.00 in0.0 mm 0.00 in0.0 mm 0.00 in0.0 mm
12:25 PM 87.8°F31.0°C 64.3°F17.9°C 46% 5.6 mph ENE9.0 kmh ENE 12.6 mph20.3 kmh 29.03 in983.1 mb 0.00 in0.0 mm 0.00 in0.0 mm 0.00 in0.0 mm
12:24 PM 87.8°F31.0°C 64.3°F17.9°C 46% 4.4 mph WNW7.1 kmh WNW 12.6 mph20.3 kmh 29.03 in983.1 mb 0.00 in0.0 mm 0.00 in0.0 mm 0.00 in0.0 mm
12:23 PM 88.0°F31.1°C 66.0°F18.9°C 48% 4.2 mph NW6.8 kmh NW 9.1 mph14.6 kmh 29.03 in983.1 mb 0.00 in0.0 mm 0.00 in0.0 mm 0.00 in0.0 mm
12:22 PM 88.2°F31.2°C 66.2°F19.0°C 48% 4.2 mph NNW6.8 kmh NNW 9.1 mph14.6 kmh 29.03 in983.1 mb 0.00 in0.0 mm 0.00 in0.0 mm 0.00 in0.0 mm
12:21 PM 88.2°F31.2°C 66.2°F19.0°C 48% 4.1 mph NNW6.6 kmh NNW 9.1 mph14.6 kmh 29.03 in983.1 mb 0.00 in0.0 mm 0.00 in0.0 mm 0.00 in0.0 mm
12:20 PM 88.2°F31.2°C 66.2°F19.0°C 48% 3.9 mph NNW6.3 kmh NNW 9.1 mph14.6 kmh 29.03 in983.1 mb 0.00 in0.0 mm 0.00 in0.0 mm 0.00 in0.0 mm
12:19 PM 88.2°F31.2°C 66.2°F19.0°C 48% 4.5 mph NW7.2 kmh NW 9.1 mph14.6 kmh 29.03 in983.1 mb 0.00 in0.0 mm 0.00 in0.0 mm 0.00 in0.0 mm
12:18 PM 88.0°F31.1°C 66.0°F18.9°C 48% 6.1 mph W9.8 kmh W 9.1 mph14.6 kmh 29.03 in983.1 mb 0.00 in0.0 mm 0.00 in0.0 mm 0.00 in0.0 mm
12:17 PM 88.0°F31.1°C 66.0°F18.9°C 48% 4.8 mph WNW7.7 kmh WNW 9.1 mph14.6 kmh 29.03 in983.1 mb 0.00 in0.0 mm 0.00 in0.0 mm 0.00 in0.0 mm
12:16 PM 88.0°F31.1°C 66.7°F19.3°C 49% 4.1 mph NW6.6 kmh NW 9.1 mph14.6 kmh 29.03 in983.1 mb 0.00 in0.0 mm 0.00 in0.0 mm 0.00 in0.0 mm
12:15 PM 88.0°F31.1°C 66.7°F19.3°C 49% 4.2 mph N6.8 kmh N 9.1 mph14.6 kmh 29.03 in983.1 mb 0.00 in0.0 mm 0.00 in0.0 mm 0.00 in0.0 mm
12:14 PM 87.8°F31.0°C 66.5°F19.2°C 49% 5.5 mph N8.9 kmh N 11.7 mph18.8 kmh 29.03 in983.1 mb 0.00 in0.0 mm 0.00 in0.0 mm 0.00 in0.0 mm
12:13 PM 87.6°F30.9°C 66.3°F19.1°C 49% 5.2 mph N8.4 kmh N 11.7 mph18.8 kmh 29.03 in983.1 mb 0.00 in0.0 mm 0.00 in0.0 mm 0.00 in0.0 mm
12:12 PM 87.6°F30.9°C 66.3°F19.1°C 49% 4.7 mph N7.6 kmh N 11.7 mph18.8 kmh 29.03 in983.1 mb 0.00 in0.0 mm 0.00 in0.0 mm 0.00 in0.0 mm
12:11 PM 87.6°F30.9°C 66.3°F19.1°C 49% 4.4 mph NNW7.1 kmh NNW 11.7 mph18.8 kmh 29.03 in983.1 mb 0.00 in0.0 mm 0.00 in0.0 mm 0.00 in0.0 mm
12:10 PM 87.4°F30.8°C 66.1°F18.9°C 49% 4.1 mph NW6.6 kmh NW 11.7 mph18.8 kmh 29.03 in983.1 mb 0.00 in0.0 mm 0.00 in0.0 mm 0.00 in0.0 mm
12:09 PM 87.6°F30.9°C 66.3°F19.1°C 49% 3.9 mph NNW6.3 kmh NNW 11.7 mph18.8 kmh 29.03 in983.1 mb 0.00 in0.0 mm 0.00 in0.0 mm 0.00 in0.0 mm
12:08 PM 87.6°F30.9°C 66.3°F19.1°C 49% 3.7 mph NNW6.0 kmh NNW 11.7 mph18.8 kmh 29.03 in983.1 mb 0.00 in0.0 mm 0.00 in0.0 mm 0.00 in0.0 mm
12:07 PM 87.6°F30.9°C 66.3°F19.1°C 49% 5.0 mph NNW8.0 kmh NNW 11.7 mph18.8 kmh 29.03 in983.1 mb 0.00 in0.0 mm 0.00 in0.0 mm 0.00 in0.0 mm
12:06 PM 87.6°F30.9°C 66.3°F19.1°C 49% 5.2 mph NNW8.4 kmh NNW 11.7 mph18.8 kmh 29.03 in983.1 mb 0.00 in0.0 mm 0.00 in0.0 mm 0.00 in0.0 mm
12:05 PM 87.4°F30.8°C 65.4°F18.6°C 48% 4.8 mph N7.7 kmh N 11.7 mph18.8 kmh 29.03 in983.1 mb 0.00 in0.0 mm 0.00 in0.0 mm 0.00 in0.0 mm
12:04 PM 87.4°F30.8°C 65.4°F18.6°C 48% 4.9 mph N7.9 kmh N 11.7 mph18.8 kmh 29.03 in983.1 mb 0.00 in0.0 mm 0.00 in0.0 mm 0.00 in0.0 mm
12:03 PM 87.1°F30.6°C 65.1°F18.4°C 48% 5.3 mph N8.5 kmh N 8.4 mph13.5 kmh 29.03 in983.1 mb 0.00 in0.0 mm 0.00 in0.0 mm 0.00 in0.0 mm
12:02 PM 87.3°F30.7°C 67.4°F19.7°C 52% 5.5 mph N8.9 kmh N 8.4 mph13.5 kmh 29.03 in983.1 mb 0.00 in0.0 mm 0.00 in0.0 mm 0.00 in0.0 mm
12:01 PM 87.1°F30.6°C 67.3°F19.6°C 52% Calm Calm 8.4 mph13.5 kmh 29.03 in983.1 mb 0.00 in0.0 mm 0.00 in0.0 mm 0.00 in0.0 mm
12:00 PM 87.1°F30.6°C 67.3°F19.6°C 52% Calm Calm 8.4 mph13.5 kmh 29.03 in983.1 mb 0.00 in0.0 mm 0.00 in0.0 mm 0.00 in0.0 mm
11:59 AM 87.1°F30.6°C 67.3°F19.6°C 52% 3.0 mph N4.8 kmh N 8.4 mph13.5 kmh 29.03 in983.1 mb 0.00 in0.0 mm 0.00 in0.0 mm 0.00 in0.0 mm
11:58 AM 87.1°F30.6°C 67.3°F19.6°C 52% 3.6 mph N5.8 kmh N 8.4 mph13.5 kmh 29.03 in983.1 mb 0.00 in0.0 mm 0.00 in0.0 mm 0.00 in0.0 mm
11:57 AM 87.1°F30.6°C 67.3°F19.6°C 52% 4.9 mph N7.9 kmh N 8.4 mph13.5 kmh 29.03 in983.1 mb 0.00 in0.0 mm 0.00 in0.0 mm 0.00 in0.0 mm
11:56 AM 87.1°F30.6°C 67.3°F19.6°C 52% 5.2 mph N8.4 kmh N 8.4 mph13.5 kmh 29.03 in983.1 mb 0.00 in0.0 mm 0.00 in0.0 mm 0.00 in0.0 mm
11:55 AM 87.1°F30.6°C 67.3°F19.6°C 52% 5.0 mph N8.0 kmh N 8.4 mph13.5 kmh 29.03 in983.1 mb 0.00 in0.0 mm 0.00 in0.0 mm 0.00 in0.0 mm
11:54 AM 87.1°F30.6°C 67.9°F19.9°C 53% 4.9 mph 7.9 kmh 8.4 mph13.5 kmh 29.03 in983.1 mb 0.00 in0.0 mm 0.00 in0.0 mm 0.00 in0.0 mm
11:53 AM 87.1°F30.6°C 67.9°F19.9°C 53% 4.4 mph N7.1 kmh N 8.4 mph13.5 kmh 29.03 in983.1 mb 0.00 in0.0 mm 0.00 in0.0 mm 0.00 in0.0 mm
11:52 AM 86.9°F30.5°C 67.7°F19.8°C 53% 3.8 mph N6.1 kmh N 8.4 mph13.5 kmh 29.03 in983.1 mb 0.00 in0.0 mm 0.00 in0.0 mm 0.00 in0.0 mm
11:51 AM 86.9°F30.5°C 67.1°F19.5°C 52% 3.0 mph NW4.8 kmh NW 8.4 mph13.5 kmh 29.03 in983.1 mb 0.00 in0.0 mm 0.00 in0.0 mm 0.00 in0.0 mm
11:50 AM 86.9°F30.5°C 67.1°F19.5°C 52% 3.8 mph NW6.1 kmh NW 8.4 mph13.5 kmh 29.03 in983.1 mb 0.00 in0.0 mm 0.00 in0.0 mm 0.00 in0.0 mm
11:49 AM 86.7°F30.4°C 66.9°F19.4°C 52% 4.7 mph NW7.6 kmh NW 8.4 mph13.5 kmh 29.03 in983.1 mb 0.00 in0.0 mm 0.00 in0.0 mm 0.00 in0.0 mm
11:48 AM 86.7°F30.4°C 67.6°F19.8°C 53% 3.8 mph NNW6.1 kmh NNW 8.4 mph13.5 kmh 29.03 in983.1 mb 0.00 in0.0 mm 0.00 in0.0 mm 0.00 in0.0 mm
11:47 AM 86.7°F30.4°C 67.6°F19.8°C 53% 4.6 mph N7.4 kmh N 8.4 mph13.5 kmh 29.03 in983.1 mb 0.00 in0.0 mm 0.00 in0.0 mm 0.00 in0.0 mm
11:46 AM 86.7°F30.4°C 67.6°F19.8°C 53% 5.0 mph N8.0 kmh N 8.4 mph13.5 kmh 29.03 in983.1 mb 0.00 in0.0 mm 0.00 in0.0 mm 0.00 in0.0 mm
11:45 AM 86.5°F30.3°C 67.4°F19.7°C 53% 4.7 mph NNW7.6 kmh NNW 8.4 mph13.5 kmh 29.03 in983.1 mb 0.00 in0.0 mm 0.00 in0.0 mm 0.00 in0.0 mm
11:44 AM 86.5°F30.3°C 68.0°F20.0°C 54% 4.3 mph NW6.9 kmh NW 8.4 mph13.5 kmh 29.03 in983.1 mb 0.00 in0.0 mm 0.00 in0.0 mm 0.00 in0.0 mm
11:43 AM 86.5°F30.3°C 68.0°F20.0°C 54% 4.2 mph NW6.8 kmh NW 8.4 mph13.5 kmh 29.03 in983.1 mb 0.00 in0.0 mm 0.00 in0.0 mm 0.00 in0.0 mm
11:42 AM 86.4°F30.2°C 67.9°F19.9°C 54% 4.7 mph N7.6 kmh N 7.1 mph11.4 kmh 29.03 in983.1 mb 0.00 in0.0 mm 0.00 in0.0 mm 0.00 in0.0 mm
11:41 AM 86.2°F30.1°C 67.8°F19.9°C 54% 5.1 mph N8.2 kmh N 7.1 mph11.4 kmh 29.03 in983.1 mb 0.00 in0.0 mm 0.00 in0.0 mm 0.00 in0.0 mm
11:40 AM 86.0°F30.0°C 67.6°F19.8°C 54% 4.2 mph N6.8 kmh N 7.1 mph11.4 kmh 29.03 in983.1 mb 0.00 in0.0 mm 0.00 in0.0 mm 0.00 in0.0 mm
11:39 AM 86.0°F30.0°C 67.6°F19.8°C 54% 3.4 mph N5.5 kmh N 7.1 mph11.4 kmh 29.03 in983.1 mb 0.00 in0.0 mm 0.00 in0.0 mm 0.00 in0.0 mm
11:38 AM 85.8°F29.9°C 67.4°F19.7°C 54% 3.4 mph NNW5.5 kmh NNW 7.1 mph11.4 kmh 29.03 in983.1 mb 0.00 in0.0 mm 0.00 in0.0 mm 0.00 in0.0 mm
11:37 AM 85.8°F29.9°C 68.0°F20.0°C 55% 3.8 mph NNW6.1 kmh NNW 7.1 mph11.4 kmh 29.03 in983.1 mb 0.00 in0.0 mm 0.00 in0.0 mm 0.00 in0.0 mm
11:36 AM 85.6°F29.8°C 67.8°F19.9°C 55% 3.6 mph NNW5.8 kmh NNW 7.1 mph11.4 kmh 29.03 in983.1 mb 0.00 in0.0 mm 0.00 in0.0 mm 0.00 in0.0 mm
11:35 AM 85.6°F29.8°C 68.5°F20.3°C 56% 3.3 mph NNW5.3 kmh NNW 7.1 mph11.4 kmh 29.03 in983.1 mb 0.00 in0.0 mm 0.00 in0.0 mm 0.00 in0.0 mm
11:34 AM 85.6°F29.8°C 67.8°F19.9°C 55% 3.3 mph NNW5.3 kmh NNW 7.1 mph11.4 kmh 29.03 in983.1 mb 0.00 in0.0 mm 0.00 in0.0 mm 0.00 in0.0 mm
11:33 AM 85.5°F29.7°C 67.7°F19.8°C 55% 3.7 mph WNW6.0 kmh WNW 7.1 mph11.4 kmh 29.03 in983.1 mb 0.00 in0.0 mm 0.00 in0.0 mm 0.00 in0.0 mm
11:32 AM 85.5°F29.7°C 67.7°F19.8°C 55% 4.1 mph WNW6.6 kmh WNW 6.2 mph10.0 kmh 29.03 in983.1 mb 0.00 in0.0 mm 0.00 in0.0 mm 0.00 in0.0 mm
11:31 AM 85.5°F29.7°C 67.7°F19.8°C 55% 4.4 mph WNW7.1 kmh WNW 9.1 mph14.6 kmh 29.03 in983.1 mb 0.00 in0.0 mm 0.00 in0.0 mm 0.00 in0.0 mm
11:30 AM 85.5°F29.7°C 67.7°F19.8°C 55% 4.9 mph WNW7.9 kmh WNW 9.1 mph14.6 kmh 29.03 in983.1 mb 0.00 in0.0 mm 0.00 in0.0 mm 0.00 in0.0 mm
11:29 AM 85.5°F29.7°C 67.7°F19.8°C 55% Calm Calm 9.1 mph14.6 kmh 29.03 in983.1 mb 0.00 in0.0 mm 0.00 in0.0 mm 0.00 in0.0 mm
11:28 AM 85.5°F29.7°C 67.7°F19.8°C 55% 4.3 mph NNW6.9 kmh NNW 9.1 mph14.6 kmh 29.03 in983.1 mb 0.00 in0.0 mm 0.00 in0.0 mm 0.00 in0.0 mm
11:27 AM 85.5°F29.7°C 67.7°F19.8°C 55% 4.3 mph NNW6.9 kmh NNW 9.1 mph14.6 kmh 29.03 in983.1 mb 0.00 in0.0 mm 0.00 in0.0 mm 0.00 in0.0 mm
11:26 AM 85.5°F29.7°C 67.7°F19.8°C 55% 4.9 mph NNW7.9 kmh NNW 9.1 mph14.6 kmh 29.03 in983.1 mb 0.00 in0.0 mm 0.00 in0.0 mm 0.00 in0.0 mm
11:25 AM 85.5°F29.7°C 67.7°F19.8°C 55% 4.5 mph NNW7.2 kmh NNW 9.1 mph14.6 kmh 29.03 in983.1 mb 0.00 in0.0 mm 0.00 in0.0 mm 0.00 in0.0 mm
11:24 AM 85.5°F29.7°C 67.7°F19.8°C 55% 5.0 mph NNW8.0 kmh NNW 9.1 mph14.6 kmh 29.03 in983.1 mb 0.00 in0.0 mm 0.00 in0.0 mm 0.00 in0.0 mm
11:23 AM 85.5°F29.7°C 67.7°F19.8°C 55% 5.4 mph N8.7 kmh N 9.1 mph14.6 kmh 29.03 in983.1 mb 0.00 in0.0 mm 0.00 in0.0 mm 0.00 in0.0 mm
11:22 AM 85.5°F29.7°C 68.4°F20.2°C 56% 6.2 mph N10.0 kmh N 9.1 mph14.6 kmh 29.03 in983.1 mb 0.00 in0.0 mm 0.00 in0.0 mm 0.00 in0.0 mm
11:21 AM 85.5°F29.7°C 69.0°F20.6°C 57% Calm Calm 8.4 mph13.5 kmh 29.03 in983.1 mb 0.00 in0.0 mm 0.00 in0.0 mm 0.00 in0.0 mm
11:20 AM 85.5°F29.7°C 69.0°F20.6°C 57% 3.0 mph W4.8 kmh W 8.4 mph13.5 kmh 29.03 in983.1 mb 0.00 in0.0 mm 0.00 in0.0 mm 0.00 in0.0 mm
11:19 AM 85.3°F29.6°C 68.2°F20.1°C 56% 3.0 mph W4.8 kmh W 8.4 mph13.5 kmh 29.03 in983.1 mb 0.00 in0.0 mm 0.00 in0.0 mm 0.00 in0.0 mm
11:18 AM 85.3°F29.6°C 68.2°F20.1°C 56% 3.7 mph W6.0 kmh W 8.4 mph13.5 kmh 29.03 in983.1 mb 0.00 in0.0 mm 0.00 in0.0 mm 0.00 in0.0 mm
11:17 AM 85.3°F29.6°C 68.2°F20.1°C 56% 4.8 mph W7.7 kmh W 8.4 mph13.5 kmh 29.03 in983.1 mb 0.00 in0.0 mm 0.00 in0.0 mm 0.00 in0.0 mm
11:16 AM 85.3°F29.6°C 67.5°F19.7°C 55% 5.6 mph W9.0 kmh W 8.4 mph13.5 kmh 29.03 in983.1 mb 0.00 in0.0 mm 0.00 in0.0 mm 0.00 in0.0 mm
11:15 AM 85.3°F29.6°C 67.5°F19.7°C 55% 4.3 mph N6.9 kmh N 8.4 mph13.5 kmh 29.03 in983.1 mb 0.00 in0.0 mm 0.00 in0.0 mm 0.00 in0.0 mm
11:14 AM 85.3°F29.6°C 67.5°F19.7°C 55% 4.5 mph N7.2 kmh N 8.4 mph13.5 kmh 29.03 in983.1 mb 0.00 in0.0 mm 0.00 in0.0 mm 0.00 in0.0 mm
11:13 AM 85.1°F29.5°C 67.4°F19.7°C 55% 5.3 mph N8.5 kmh N 8.4 mph13.5 kmh 29.03 in983.1 mb 0.00 in0.0 mm 0.00 in0.0 mm 0.00 in0.0 mm
11:12 AM 85.1°F29.5°C 68.0°F20.0°C 56% 5.1 mph N8.2 kmh N 8.4 mph13.5 kmh 29.03 in983.1 mb 0.00 in0.0 mm 0.00 in0.0 mm 0.00 in0.0 mm
11:11 AM 85.1°F29.5°C 69.8°F21.0°C 60% 4.2 mph N6.8 kmh N 8.4 mph13.5 kmh 29.03 in983.1 mb 0.00 in0.0 mm 0.00 in0.0 mm 0.00 in0.0 mm
11:10 AM 85.1°F29.5°C 70.9°F21.6°C 62% 3.1 mph NNW5.0 kmh NNW 7.1 mph11.4 kmh 29.03 in983.1 mb 0.00 in0.0 mm 0.00 in0.0 mm 0.00 in0.0 mm
11:09 AM 84.9°F29.4°C 70.7°F21.5°C 62% 3.0 mph NNW4.8 kmh NNW 8.4 mph13.5 kmh 29.03 in983.1 mb 0.00 in0.0 mm 0.00 in0.0 mm 0.00 in0.0 mm
11:08 AM 84.9°F29.4°C 70.7°F21.5°C 62% 3.0 mph NNW4.8 kmh NNW 8.4 mph13.5 kmh 29.03 in983.1 mb 0.00 in0.0 mm 0.00 in0.0 mm 0.00 in0.0 mm
11:07 AM 84.9°F29.4°C 70.7°F21.5°C 62% 3.2 mph NNW5.1 kmh NNW 8.4 mph13.5 kmh 29.03 in983.1 mb 0.00 in0.0 mm 0.00 in0.0 mm 0.00 in0.0 mm
11:06 AM 84.7°F29.3°C 70.5°F21.4°C 62% 3.7 mph NNW6.0 kmh NNW 8.4 mph13.5 kmh 29.03 in983.1 mb 0.00 in0.0 mm 0.00 in0.0 mm 0.00 in0.0 mm
11:05 AM 84.6°F29.2°C 69.9°F21.1°C 61% 4.3 mph N6.9 kmh N 8.4 mph13.5 kmh 29.03 in983.1 mb 0.00 in0.0 mm 0.00 in0.0 mm 0.00 in0.0 mm
11:04 AM 84.6°F29.2°C 69.9°F21.1°C 61% 4.8 mph N7.7 kmh N 8.4 mph13.5 kmh 29.03 in983.1 mb 0.00 in0.0 mm 0.00 in0.0 mm 0.00 in0.0 mm
11:03 AM 84.4°F29.1°C 69.7°F20.9°C 61% 4.8 mph N7.7 kmh N 8.4 mph13.5 kmh 29.03 in983.1 mb 0.00 in0.0 mm 0.00 in0.0 mm 0.00 in0.0 mm
11:02 AM 84.4°F29.1°C 69.1°F20.6°C 60% 4.8 mph N7.7 kmh N 8.4 mph13.5 kmh 29.03 in983.1 mb 0.00 in0.0 mm 0.00 in0.0 mm 0.00 in0.0 mm
11:01 AM 84.0°F28.9°C 70.4°F21.3°C 63% 4.6 mph N7.4 kmh N 8.4 mph13.5 kmh 29.03 in983.1 mb 0.00 in0.0 mm 0.00 in0.0 mm 0.00 in0.0 mm
11:00 AM 84.0°F28.9°C 71.0°F21.7°C 64% 4.6 mph NW7.4 kmh NW 8.4 mph13.5 kmh 29.03 in983.1 mb 0.00 in0.0 mm 0.00 in0.0 mm 0.00 in0.0 mm
10:59 AM 83.8°F28.8°C 71.3°F21.8°C 66% 4.6 mph W7.4 kmh W 7.8 mph12.6 kmh 29.03 in983.1 mb 0.00 in0.0 mm 0.00 in0.0 mm 0.00 in0.0 mm
10:58 AM 83.7°F28.7°C 71.2°F21.8°C 66% 4.5 mph W7.2 kmh W 7.8 mph12.6 kmh 29.03 in983.1 mb 0.00 in0.0 mm 0.00 in0.0 mm 0.00 in0.0 mm
10:57 AM 83.5°F28.6°C 71.0°F21.7°C 66% Calm Calm 7.1 mph11.4 kmh 29.03 in983.1 mb 0.00 in0.0 mm 0.00 in0.0 mm 0.00 in0.0 mm
10:56 AM 83.3°F28.5°C 70.8°F21.6°C 66% Calm Calm 7.1 mph11.4 kmh 29.03 in983.1 mb 0.00 in0.0 mm 0.00 in0.0 mm 0.00 in0.0 mm
10:54 AM 83.3°F28.5°C 70.3°F21.3°C 64% 4.6 mph W7.4 kmh W 7.1 mph11.4 kmh 29.03 in983.1 mb 0.00 in0.0 mm 0.00 in0.0 mm 0.00 in0.0 mm
10:53 AM 83.1°F28.4°C 70.1°F21.2°C 64% 5.1 mph W8.2 kmh W 7.1 mph11.4 kmh 29.03 in983.1 mb 0.00 in0.0 mm 0.00 in0.0 mm 0.00 in0.0 mm
10:52 AM 83.1°F28.4°C 70.1°F21.2°C 64% 4.9 mph W7.9 kmh W 7.1 mph11.4 kmh 29.03 in983.1 mb 0.00 in0.0 mm 0.00 in0.0 mm 0.00 in0.0 mm
10:51 AM 82.9°F28.3°C 69.4°F20.8°C 63% 4.3 mph WNW6.9 kmh WNW 8.4 mph13.5 kmh 29.03 in983.1 mb 0.00 in0.0 mm 0.00 in0.0 mm 0.00 in0.0 mm
10:50 AM 82.9°F28.3°C 69.4°F20.8°C 63% 3.4 mph WNW5.5 kmh WNW 8.4 mph13.5 kmh 29.03 in983.1 mb 0.00 in0.0 mm 0.00 in0.0 mm 0.00 in0.0 mm
10:49 AM 82.9°F28.3°C 69.9°F21.1°C 64% 3.6 mph W5.8 kmh W 8.4 mph13.5 kmh 29.03 in983.1 mb 0.00 in0.0 mm 0.00 in0.0 mm 0.00 in0.0 mm
10:48 AM 82.9°F28.3°C 69.9°F21.1°C 64% 4.0 mph W6.4 kmh W 8.4 mph13.5 kmh 29.03 in983.1 mb 0.00 in0.0 mm 0.00 in0.0 mm 0.00 in0.0 mm
10:47 AM 82.9°F28.3°C 69.9°F21.1°C 64% 4.5 mph W7.2 kmh W 8.4 mph13.5 kmh 29.03 in983.1 mb 0.00 in0.0 mm 0.00 in0.0 mm 0.00 in0.0 mm
10:46 AM 82.9°F28.3°C 70.4°F21.3°C 66% 4.7 mph W7.6 kmh W 8.4 mph13.5 kmh 29.03 in983.1 mb 0.00 in0.0 mm 0.00 in0.0 mm 0.00 in0.0 mm
10:45 AM 82.8°F28.2°C 70.4°F21.3°C 66% 4.3 mph W6.9 kmh W 8.4 mph13.5 kmh 29.03 in983.1 mb 0.00 in0.0 mm 0.00 in0.0 mm 0.00 in0.0 mm
10:43 AM 82.8°F28.2°C 71.4°F21.9°C 68% 3.6 mph WSW5.8 kmh WSW 8.4 mph13.5 kmh 29.03 in983.1 mb 0.00 in0.0 mm 0.00 in0.0 mm 0.00 in0.0 mm
10:42 AM 82.6°F28.1°C 71.2°F21.8°C 68% 3.0 mph WNW4.8 kmh WNW 8.4 mph13.5 kmh 29.03 in983.1 mb 0.00 in0.0 mm 0.00 in0.0 mm 0.00 in0.0 mm
10:41 AM 82.4°F28.0°C 71.0°F21.7°C 68% 3.0 mph WNW4.8 kmh WNW 8.4 mph13.5 kmh 29.03 in983.1 mb 0.00 in0.0 mm 0.00 in0.0 mm 0.00 in0.0 mm
10:40 AM 82.4°F28.0°C 70.5°F21.4°C 67% 3.5 mph WNW5.6 kmh WNW 8.4 mph13.5 kmh 29.03 in983.1 mb 0.00 in0.0 mm 0.00 in0.0 mm 0.00 in0.0 mm
10:39 AM 82.4°F28.0°C 70.5°F21.4°C 67% 4.0 mph WNW6.4 kmh WNW 8.4 mph13.5 kmh 29.03 in983.1 mb 0.00 in0.0 mm 0.00 in0.0 mm 0.00 in0.0 mm
10:38 AM 82.4°F28.0°C 70.5°F21.4°C 67% 4.4 mph W7.1 kmh W 8.4 mph13.5 kmh 29.03 in983.1 mb 0.00 in0.0 mm 0.00 in0.0 mm 0.00 in0.0 mm
10:37 AM 82.2°F27.9°C 70.8°F21.6°C 68% 4.6 mph WSW7.4 kmh WSW 8.4 mph13.5 kmh 29.03 in983.1 mb 0.00 in0.0 mm 0.00 in0.0 mm 0.00 in0.0 mm
10:36 AM 82.2°F27.9°C 71.3°F21.8°C 69% 4.3 mph WSW6.9 kmh WSW 9.1 mph14.6 kmh 29.03 in983.1 mb 0.00 in0.0 mm 0.00 in0.0 mm 0.00 in0.0 mm
10:35 AM 82.0°F27.8°C 71.1°F21.7°C 69% 4.7 mph W7.6 kmh W 9.1 mph14.6 kmh 29.03 in983.1 mb 0.00 in0.0 mm 0.00 in0.0 mm 0.00 in0.0 mm
10:34 AM 82.0°F27.8°C 71.1°F21.7°C 69% 4.8 mph W7.7 kmh W 9.1 mph14.6 kmh 29.03 in983.1 mb 0.00 in0.0 mm 0.00 in0.0 mm 0.00 in0.0 mm
10:33 AM 82.0°F27.8°C 71.1°F21.7°C 69% 4.2 mph W6.8 kmh W 9.1 mph14.6 kmh 29.03 in983.1 mb 0.00 in0.0 mm 0.00 in0.0 mm 0.00 in0.0 mm
10:32 AM 81.9°F27.7°C 71.0°F21.7°C 69% 4.3 mph W6.9 kmh W 9.1 mph14.6 kmh 29.03 in983.1 mb 0.00 in0.0 mm 0.00 in0.0 mm 0.00 in0.0 mm
10:31 AM 81.9°F27.7°C 71.0°F21.7°C 69% 4.6 mph W7.4 kmh W 9.1 mph14.6 kmh 29.03 in983.1 mb 0.00 in0.0 mm 0.00 in0.0 mm 0.00 in0.0 mm
10:30 AM 81.9°F27.7°C 71.0°F21.7°C 69% 4.6 mph W7.4 kmh W 9.1 mph14.6 kmh 29.03 in983.1 mb 0.00 in0.0 mm 0.00 in0.0 mm 0.00 in0.0 mm
10:29 AM 81.7°F27.6°C 70.8°F21.6°C 69% 5.2 mph W8.4 kmh W 9.1 mph14.6 kmh 29.03 in983.1 mb 0.00 in0.0 mm 0.00 in0.0 mm 0.00 in0.0 mm
10:28 AM 81.7°F27.6°C 70.8°F21.6°C 69% 4.7 mph W7.6 kmh W 9.1 mph14.6 kmh 29.03 in983.1 mb 0.00 in0.0 mm 0.00 in0.0 mm 0.00 in0.0 mm
10:27 AM 81.5°F27.5°C 70.6°F21.4°C 69% 4.1 mph W6.6 kmh W 9.1 mph14.6 kmh 29.03 in983.1 mb 0.00 in0.0 mm 0.00 in0.0 mm 0.00 in0.0 mm
10:26 AM 81.5°F27.5°C 70.6°F21.4°C 69% 3.5 mph WSW5.6 kmh WSW 9.1 mph14.6 kmh 29.03 in983.1 mb 0.00 in0.0 mm 0.00 in0.0 mm 0.00 in0.0 mm
10:25 AM 81.3°F27.4°C 70.4°F21.3°C 69% 3.4 mph WSW5.5 kmh WSW 8.4 mph13.5 kmh 29.03 in983.1 mb 0.00 in0.0 mm 0.00 in0.0 mm 0.00 in0.0 mm
10:24 AM 81.3°F27.4°C 70.4°F21.3°C 69% 4.4 mph WSW7.1 kmh WSW 8.4 mph13.5 kmh 29.03 in983.1 mb 0.00 in0.0 mm 0.00 in0.0 mm 0.00 in0.0 mm
10:23 AM 81.1°F27.3°C 70.2°F21.2°C 69% 4.4 mph WSW7.1 kmh WSW 8.4 mph13.5 kmh 29.03 in983.1 mb 0.00 in0.0 mm 0.00 in0.0 mm 0.00 in0.0 mm
10:22 AM 81.1°F27.3°C 70.2°F21.2°C 69% 3.8 mph WSW6.1 kmh WSW 11.0 mph17.7 kmh 29.03 in983.1 mb 0.00 in0.0 mm 0.00 in0.0 mm 0.00 in0.0 mm
10:21 AM 81.1°F27.3°C 70.2°F21.2°C 69% 3.8 mph WSW6.1 kmh WSW 11.0 mph17.7 kmh 29.03 in983.1 mb 0.00 in0.0 mm 0.00 in0.0 mm 0.00 in0.0 mm
10:20 AM 81.1°F27.3°C 70.2°F21.2°C 69% 4.3 mph WSW6.9 kmh WSW 11.0 mph17.7 kmh 29.03 in983.1 mb 0.00 in0.0 mm 0.00 in0.0 mm 0.00 in0.0 mm
10:19 AM 81.0°F27.2°C 70.1°F21.2°C 69% 4.9 mph WSW7.9 kmh WSW 11.0 mph17.7 kmh 29.03 in983.1 mb 0.00 in0.0 mm 0.00 in0.0 mm 0.00 in0.0 mm
10:18 AM 81.0°F27.2°C 70.6°F21.4°C 70% 4.9 mph SW7.9 kmh SW 11.0 mph17.7 kmh 29.03 in983.1 mb 0.00 in0.0 mm 0.00 in0.0 mm 0.00 in0.0 mm
10:17 AM 81.0°F27.2°C 70.6°F21.4°C 70% 4.8 mph SW7.7 kmh SW 11.0 mph17.7 kmh 29.03 in983.1 mb 0.00 in0.0 mm 0.00 in0.0 mm 0.00 in0.0 mm
10:16 AM 81.0°F27.2°C 70.6°F21.4°C 70% 5.0 mph WSW8.0 kmh WSW 11.0 mph17.7 kmh 29.03 in983.1 mb 0.00 in0.0 mm 0.00 in0.0 mm 0.00 in0.0 mm
10:15 AM 81.0°F27.2°C 70.6°F21.4°C 70% 6.2 mph W10.0 kmh W 11.0 mph17.7 kmh 29.03 in983.1 mb 0.00 in0.0 mm 0.00 in0.0 mm 0.00 in0.0 mm
10:14 AM 81.0°F27.2°C 70.6°F21.4°C 70% 6.3 mph WNW10.1 kmh WNW 11.0 mph17.7 kmh 29.03 in983.1 mb 0.00 in0.0 mm 0.00 in0.0 mm 0.00 in0.0 mm
10:13 AM 81.0°F27.2°C 70.6°F21.4°C 70% 4.5 mph W7.2 kmh W 11.0 mph17.7 kmh 29.03 in983.1 mb 0.00 in0.0 mm 0.00 in0.0 mm 0.00 in0.0 mm
10:12 AM 80.8°F27.1°C 70.9°F21.6°C 71% 4.5 mph WSW7.2 kmh WSW 11.0 mph17.7 kmh 29.03 in983.1 mb 0.00 in0.0 mm 0.00 in0.0 mm 0.00 in0.0 mm
10:11 AM 80.8°F27.1°C 71.4°F21.9°C 73% 3.9 mph WSW6.3 kmh WSW 11.0 mph17.7 kmh 29.03 in983.1 mb 0.00 in0.0 mm 0.00 in0.0 mm 0.00 in0.0 mm
10:10 AM 81.0°F27.2°C 71.6°F22.0°C 73% 3.6 mph W5.8 kmh W 11.0 mph17.7 kmh 29.03 in983.1 mb 0.00 in0.0 mm 0.00 in0.0 mm 0.00 in0.0 mm
10:09 AM 80.8°F27.1°C 71.4°F21.9°C 73% 3.8 mph W6.1 kmh W 11.0 mph17.7 kmh 29.03 in983.1 mb 0.00 in0.0 mm 0.00 in0.0 mm 0.00 in0.0 mm
10:08 AM 80.6°F27.0°C 71.2°F21.8°C 73% 4.7 mph WSW7.6 kmh WSW 11.0 mph17.7 kmh 29.03 in983.1 mb 0.00 in0.0 mm 0.00 in0.0 mm 0.00 in0.0 mm
10:07 AM 80.6°F27.0°C 71.6°F22.0°C 74% 5.3 mph WSW8.5 kmh WSW 11.0 mph17.7 kmh 29.03 in983.1 mb 0.00 in0.0 mm 0.00 in0.0 mm 0.00 in0.0 mm
10:06 AM 80.4°F26.9°C 71.4°F21.9°C 74% 5.8 mph WSW9.3 kmh WSW 11.0 mph17.7 kmh 29.03 in983.1 mb 0.00 in0.0 mm 0.00 in0.0 mm 0.00 in0.0 mm
10:05 AM 80.4°F26.9°C 71.4°F21.9°C 74% 4.7 mph WSW7.6 kmh WSW 11.0 mph17.7 kmh 29.03 in983.1 mb 0.00 in0.0 mm 0.00 in0.0 mm 0.00 in0.0 mm
10:04 AM 80.4°F26.9°C 71.4°F21.9°C 74% 3.4 mph WSW5.5 kmh WSW 8.4 mph13.5 kmh 29.03 in983.1 mb 0.00 in0.0 mm 0.00 in0.0 mm 0.00 in0.0 mm
10:03 AM 80.2°F26.8°C 71.7°F22.1°C 75% 3.6 mph WSW5.8 kmh WSW 8.4 mph13.5 kmh 29.03 in983.1 mb 0.00 in0.0 mm 0.00 in0.0 mm 0.00 in0.0 mm
10:02 AM 80.2°F26.8°C 71.7°F22.1°C 75% 4.3 mph WSW6.9 kmh WSW 8.4 mph13.5 kmh 29.03 in983.1 mb 0.00 in0.0 mm 0.00 in0.0 mm 0.00 in0.0 mm
10:01 AM 80.1°F26.7°C 71.6°F22.0°C 75% 4.3 mph WSW6.9 kmh WSW 8.4 mph13.5 kmh 29.03 in983.1 mb 0.00 in0.0 mm 0.00 in0.0 mm 0.00 in0.0 mm
10:00 AM 80.1°F26.7°C 71.6°F22.0°C 75% 4.4 mph W7.1 kmh W 9.1 mph14.6 kmh 29.03 in983.1 mb 0.00 in0.0 mm 0.00 in0.0 mm 0.00 in0.0 mm
09:59 AM 79.9°F26.6°C 71.4°F21.9°C 75% 4.0 mph W6.4 kmh W 9.1 mph14.6 kmh 29.03 in983.1 mb 0.00 in0.0 mm 0.00 in0.0 mm 0.00 in0.0 mm
09:58 AM 79.9°F26.6°C 71.4°F21.9°C 75% 3.8 mph W6.1 kmh W 9.1 mph14.6 kmh 29.03 in983.1 mb 0.00 in0.0 mm 0.00 in0.0 mm 0.00 in0.0 mm
09:57 AM 79.7°F26.5°C 71.2°F21.8°C 75% 4.3 mph W6.9 kmh W 9.1 mph14.6 kmh 29.03 in983.1 mb 0.00 in0.0 mm 0.00 in0.0 mm 0.00 in0.0 mm
09:56 AM 79.7°F26.5°C 71.6°F22.0°C 76% 4.3 mph WSW6.9 kmh WSW 9.1 mph14.6 kmh 29.03 in983.1 mb 0.00 in0.0 mm 0.00 in0.0 mm 0.00 in0.0 mm
09:55 AM 79.5°F26.4°C 71.5°F21.9°C 76% 4.0 mph SW6.4 kmh SW 9.1 mph14.6 kmh 29.03 in983.1 mb 0.00 in0.0 mm 0.00 in0.0 mm 0.00 in0.0 mm
09:54 AM 79.5°F26.4°C 71.5°F21.9°C 76% 4.1 mph WSW6.6 kmh WSW 9.1 mph14.6 kmh 29.03 in983.1 mb 0.00 in0.0 mm 0.00 in0.0 mm 0.00 in0.0 mm
09:53 AM 79.5°F26.4°C 71.5°F21.9°C 76% 4.4 mph W7.1 kmh W 9.1 mph14.6 kmh 29.03 in983.1 mb 0.00 in0.0 mm 0.00 in0.0 mm 0.00 in0.0 mm
09:52 AM 79.3°F26.3°C 71.3°F21.8°C 76% 4.6 mph WSW7.4 kmh WSW 9.1 mph14.6 kmh 29.03 in983.1 mb 0.00 in0.0 mm 0.00 in0.0 mm 0.00 in0.0 mm
09:51 AM 79.2°F26.2°C 71.2°F21.8°C 76% 4.1 mph WSW6.6 kmh WSW 9.1 mph14.6 kmh 29.03 in983.1 mb 0.00 in0.0 mm 0.00 in0.0 mm 0.00 in0.0 mm
09:50 AM 79.2°F26.2°C 71.2°F21.8°C 76% 3.1 mph WSW5.0 kmh WSW 7.8 mph12.6 kmh 29.03 in983.1 mb 0.00 in0.0 mm 0.00 in0.0 mm 0.00 in0.0 mm
09:49 AM 79.0°F26.1°C 71.0°F21.7°C 76% 3.6 mph W5.8 kmh W 7.1 mph11.4 kmh 29.03 in983.1 mb 0.00 in0.0 mm 0.00 in0.0 mm 0.00 in0.0 mm
09:48 AM 79.0°F26.1°C 71.0°F21.7°C 76% 3.7 mph W6.0 kmh W 7.8 mph12.6 kmh 29.03 in983.1 mb 0.00 in0.0 mm 0.00 in0.0 mm 0.00 in0.0 mm
09:47 AM 79.0°F26.1°C 71.0°F21.7°C 76% 3.7 mph W6.0 kmh W 8.4 mph13.5 kmh 29.03 in983.1 mb 0.00 in0.0 mm 0.00 in0.0 mm 0.00 in0.0 mm
09:46 AM 78.8°F26.0°C 71.2°F21.8°C 77% 3.5 mph WSW5.6 kmh WSW 8.4 mph13.5 kmh 29.03 in983.1 mb 0.00 in0.0 mm 0.00 in0.0 mm 0.00 in0.0 mm
09:45 AM 78.8°F26.0°C 71.2°F21.8°C 77% 3.5 mph WSW5.6 kmh WSW 8.4 mph13.5 kmh 29.03 in983.1 mb 0.00 in0.0 mm 0.00 in0.0 mm 0.00 in0.0 mm
09:44 AM 78.6°F25.9°C 71.0°F21.7°C 77% 4.9 mph WNW7.9 kmh WNW 9.1 mph14.6 kmh 29.03 in983.1 mb 0.00 in0.0 mm 0.00 in0.0 mm 0.00 in0.0 mm
09:43 AM 78.6°F25.9°C 71.0°F21.7°C 77% 4.7 mph WNW7.6 kmh WNW 9.1 mph14.6 kmh 29.03 in983.1 mb 0.00 in0.0 mm 0.00 in0.0 mm 0.00 in0.0 mm
09:40 AM 78.4°F25.8°C 70.8°F21.6°C 77% 5.0 mph W8.0 kmh W 9.1 mph14.6 kmh 29.03 in983.1 mb 0.00 in0.0 mm 0.00 in0.0 mm 0.00 in0.0 mm
09:39 AM 78.4°F25.8°C 71.2°F21.8°C 78% 4.8 mph W7.7 kmh W 9.1 mph14.6 kmh 29.03 in983.1 mb 0.00 in0.0 mm 0.00 in0.0 mm 0.00 in0.0 mm
09:38 AM 78.4°F25.8°C 71.2°F21.8°C 78% 4.8 mph WNW7.7 kmh WNW 9.1 mph14.6 kmh 29.03 in983.1 mb 0.00 in0.0 mm 0.00 in0.0 mm 0.00 in0.0 mm
09:37 AM 78.3°F25.7°C 71.1°F21.7°C 78% 5.4 mph WNW8.7 kmh WNW 9.1 mph14.6 kmh 29.03 in983.1 mb 0.00 in0.0 mm 0.00 in0.0 mm 0.00 in0.0 mm
09:36 AM 78.3°F25.7°C 71.1°F21.7°C 78% 5.8 mph WNW9.3 kmh WNW 9.1 mph14.6 kmh 29.03 in983.1 mb 0.00 in0.0 mm 0.00 in0.0 mm 0.00 in0.0 mm
09:35 AM 78.1°F25.6°C 70.9°F21.6°C 78% 4.8 mph WNW7.7 kmh WNW 9.1 mph14.6 kmh 29.03 in983.1 mb 0.00 in0.0 mm 0.00 in0.0 mm 0.00 in0.0 mm
09:34 AM 78.1°F25.6°C 70.9°F21.6°C 78% 3.8 mph W6.1 kmh W 8.4 mph13.5 kmh 29.03 in983.1 mb 0.00 in0.0 mm 0.00 in0.0 mm 0.00 in0.0 mm
09:33 AM 78.1°F25.6°C 70.9°F21.6°C 78% 3.3 mph W5.3 kmh W 8.4 mph13.5 kmh 29.03 in983.1 mb 0.00 in0.0 mm 0.00 in0.0 mm 0.00 in0.0 mm
09:32 AM 78.1°F25.6°C 70.9°F21.6°C 78% 4.7 mph W7.6 kmh W 8.4 mph13.5 kmh 29.03 in983.1 mb 0.00 in0.0 mm 0.00 in0.0 mm 0.00 in0.0 mm
09:31 AM 77.9°F25.5°C 70.7°F21.5°C 78% 7.0 mph WNW11.3 kmh WNW 8.4 mph13.5 kmh 29.03 in983.1 mb 0.00 in0.0 mm 0.00 in0.0 mm 0.00 in0.0 mm
09:30 AM 77.9°F25.5°C 70.7°F21.5°C 78% 6.6 mph WNW10.6 kmh WNW 8.4 mph13.5 kmh 29.03 in983.1 mb 0.00 in0.0 mm 0.00 in0.0 mm 0.00 in0.0 mm
09:29 AM 77.9°F25.5°C 71.2°F21.8°C 80% 4.4 mph WNW7.1 kmh WNW 8.4 mph13.5 kmh 29.03 in983.1 mb 0.00 in0.0 mm 0.00 in0.0 mm 0.00 in0.0 mm
09:28 AM 77.9°F25.5°C 71.2°F21.8°C 80% 4.3 mph W6.9 kmh W 8.4 mph13.5 kmh 29.03 in983.1 mb 0.00 in0.0 mm 0.00 in0.0 mm 0.00 in0.0 mm
09:27 AM 77.9°F25.5°C 71.2°F21.8°C 80% 4.5 mph WSW7.2 kmh WSW 8.4 mph13.5 kmh 29.03 in983.1 mb 0.00 in0.0 mm 0.00 in0.0 mm 0.00 in0.0 mm
09:26 AM 77.9°F25.5°C 71.2°F21.8°C 80% 4.7 mph WSW7.6 kmh WSW 8.4 mph13.5 kmh 29.03 in983.1 mb 0.00 in0.0 mm 0.00 in0.0 mm 0.00 in0.0 mm
09:25 AM 77.9°F25.5°C 71.2°F21.8°C 80% 4.5 mph WSW7.2 kmh WSW 8.4 mph13.5 kmh 29.03 in983.1 mb 0.00 in0.0 mm 0.00 in0.0 mm 0.00 in0.0 mm
09:24 AM 77.9°F25.5°C 71.2°F21.8°C 80% 4.3 mph WSW6.9 kmh WSW 7.8 mph12.6 kmh 29.03 in983.1 mb 0.00 in0.0 mm 0.00 in0.0 mm 0.00 in0.0 mm
09:23 AM 77.9°F25.5°C 71.6°F22.0°C 81% 4.6 mph WSW7.4 kmh WSW 7.8 mph12.6 kmh 29.03 in983.1 mb 0.00 in0.0 mm 0.00 in0.0 mm 0.00 in0.0 mm
09:22 AM 77.9°F25.5°C 71.6°F22.0°C 81% 4.5 mph WSW7.2 kmh WSW 7.8 mph12.6 kmh 29.03 in983.1 mb 0.00 in0.0 mm 0.00 in0.0 mm 0.00 in0.0 mm
09:21 AM 77.9°F25.5°C 71.6°F22.0°C 81% 3.9 mph WSW6.3 kmh WSW 7.8 mph12.6 kmh 29.03 in983.1 mb 0.00 in0.0 mm 0.00 in0.0 mm 0.00 in0.0 mm
09:20 AM 77.9°F25.5°C 72.0°F22.2°C 82% 3.4 mph WSW5.5 kmh WSW 6.5 mph10.5 kmh 29.03 in983.1 mb 0.00 in0.0 mm 0.00 in0.0 mm 0.00 in0.0 mm
09:19 AM 77.7°F25.4°C 71.8°F22.1°C 82% 3.7 mph WSW6.0 kmh WSW 8.4 mph13.5 kmh 29.03 in983.1 mb 0.00 in0.0 mm 0.00 in0.0 mm 0.00 in0.0 mm
09:18 AM 77.5°F25.3°C 71.6°F22.0°C 82% 3.2 mph WSW5.1 kmh WSW 12.0 mph19.3 kmh 29.03 in983.1 mb 0.00 in0.0 mm 0.00 in0.0 mm 0.00 in0.0 mm
09:17 AM 77.5°F25.3°C 71.6°F22.0°C 82% 3.0 mph WSW4.8 kmh WSW 12.0 mph19.3 kmh 29.03 in983.1 mb 0.00 in0.0 mm 0.00 in0.0 mm 0.00 in0.0 mm
09:16 AM 77.4°F25.2°C 71.5°F21.9°C 82% 3.0 mph WSW4.8 kmh WSW 12.0 mph19.3 kmh 29.03 in983.1 mb 0.00 in0.0 mm 0.00 in0.0 mm 0.00 in0.0 mm
09:15 AM 77.4°F25.2°C 71.5°F21.9°C 82% 3.0 mph WSW4.8 kmh WSW 12.0 mph19.3 kmh 29.03 in983.1 mb 0.00 in0.0 mm 0.00 in0.0 mm 0.00 in0.0 mm
09:14 AM 77.2°F25.1°C 71.3°F21.8°C 82% 3.3 mph WSW5.3 kmh WSW 12.0 mph19.3 kmh 29.03 in983.1 mb 0.00 in0.0 mm 0.00 in0.0 mm 0.00 in0.0 mm
09:13 AM 77.0°F25.0°C 71.1°F21.7°C 82% 3.7 mph W6.0 kmh W 12.0 mph19.3 kmh 29.03 in983.1 mb 0.00 in0.0 mm 0.00 in0.0 mm 0.00 in0.0 mm
09:12 AM 76.8°F24.9°C 70.9°F21.6°C 82% 5.3 mph W8.5 kmh W 12.0 mph19.3 kmh 29.03 in983.1 mb 0.00 in0.0 mm 0.00 in0.0 mm 0.00 in0.0 mm
09:11 AM 76.8°F24.9°C 70.9°F21.6°C 82% 5.9 mph W9.5 kmh W 12.0 mph19.3 kmh 29.03 in983.1 mb 0.00 in0.0 mm 0.00 in0.0 mm 0.00 in0.0 mm
09:10 AM 76.6°F24.8°C 70.7°F21.5°C 82% 5.5 mph WSW8.9 kmh WSW 12.0 mph19.3 kmh 29.03 in983.1 mb 0.00 in0.0 mm 0.00 in0.0 mm 0.00 in0.0 mm
09:09 AM 76.6°F24.8°C 70.7°F21.5°C 82% 4.8 mph WSW7.7 kmh WSW 12.0 mph19.3 kmh 29.03 in983.1 mb 0.00 in0.0 mm 0.00 in0.0 mm 0.00 in0.0 mm
09:08 AM 76.5°F24.7°C 70.6°F21.4°C 82% 3.4 mph WSW5.5 kmh WSW 9.1 mph14.6 kmh 29.03 in983.1 mb 0.00 in0.0 mm 0.00 in0.0 mm 0.00 in0.0 mm
09:07 AM 76.3°F24.6°C 70.4°F21.3°C 82% 3.1 mph WSW5.0 kmh WSW 9.1 mph14.6 kmh 29.03 in983.1 mb 0.00 in0.0 mm 0.00 in0.0 mm 0.00 in0.0 mm
09:06 AM 76.3°F24.6°C 70.4°F21.3°C 82% 3.0 mph W4.8 kmh W 9.1 mph14.6 kmh 29.03 in983.1 mb 0.00 in0.0 mm 0.00 in0.0 mm 0.00 in0.0 mm
09:05 AM 76.3°F24.6°C 70.4°F21.3°C 82% 3.0 mph W4.8 kmh W 9.1 mph14.6 kmh 29.03 in983.1 mb 0.00 in0.0 mm 0.00 in0.0 mm 0.00 in0.0 mm
09:04 AM 76.1°F24.5°C 70.2°F21.2°C 82% Calm Calm 9.1 mph14.6 kmh 29.03 in983.1 mb 0.00 in0.0 mm 0.00 in0.0 mm 0.00 in0.0 mm
09:03 AM 76.1°F24.5°C 70.2°F21.2°C 82% 4.6 mph W7.4 kmh W 9.1 mph14.6 kmh 29.03 in983.1 mb 0.00 in0.0 mm 0.00 in0.0 mm 0.00 in0.0 mm
09:02 AM 76.1°F24.5°C 70.6°F21.4°C 83% 3.9 mph W6.3 kmh W 9.1 mph14.6 kmh 29.03 in983.1 mb 0.00 in0.0 mm 0.00 in0.0 mm 0.00 in0.0 mm
09:01 AM 76.1°F24.5°C 70.6°F21.4°C 83% 3.9 mph W6.3 kmh W 9.1 mph14.6 kmh 29.03 in983.1 mb 0.00 in0.0 mm 0.00 in0.0 mm 0.00 in0.0 mm
09:00 AM 75.9°F24.4°C 70.4°F21.3°C 83% 4.4 mph WSW7.1 kmh WSW 9.1 mph14.6 kmh 29.03 in983.1 mb 0.00 in0.0 mm 0.00 in0.0 mm 0.00 in0.0 mm
08:59 AM 75.9°F24.4°C 70.4°F21.3°C 83% 4.9 mph WSW7.9 kmh WSW 7.1 mph11.4 kmh 29.06 in984.1 mb 0.00 in0.0 mm 0.00 in0.0 mm 0.00 in0.0 mm
08:58 AM 75.7°F24.3°C 70.2°F21.2°C 83% Calm Calm 7.1 mph11.4 kmh 29.06 in984.1 mb 0.00 in0.0 mm 0.00 in0.0 mm 0.00 in0.0 mm
08:57 AM 75.7°F24.3°C 70.2°F21.2°C 83% Calm Calm 7.1 mph11.4 kmh 29.06 in984.1 mb 0.00 in0.0 mm 0.00 in0.0 mm 0.00 in0.0 mm
08:56 AM 75.6°F24.2°C 70.1°F21.2°C 83% 4.3 mph WSW6.9 kmh WSW 8.4 mph13.5 kmh 29.06 in984.1 mb 0.00 in0.0 mm 0.00 in0.0 mm 0.00 in0.0 mm
08:55 AM 75.6°F24.2°C 70.1°F21.2°C 83% 4.3 mph WSW6.9 kmh WSW 8.4 mph13.5 kmh 29.06 in984.1 mb 0.00 in0.0 mm 0.00 in0.0 mm 0.00 in0.0 mm
08:54 AM 75.4°F24.1°C 69.9°F21.1°C 83% 4.3 mph WSW6.9 kmh WSW 8.4 mph13.5 kmh 29.06 in984.1 mb 0.00 in0.0 mm 0.00 in0.0 mm 0.00 in0.0 mm
08:53 AM 75.4°F24.1°C 69.9°F21.1°C 83% 3.6 mph WSW5.8 kmh WSW 8.4 mph13.5 kmh 29.06 in984.1 mb 0.00 in0.0 mm 0.00 in0.0 mm 0.00 in0.0 mm
08:52 AM 75.4°F24.1°C 69.9°F21.1°C 83% 3.0 mph SW4.8 kmh SW 8.4 mph13.5 kmh 29.06 in984.1 mb 0.00 in0.0 mm 0.00 in0.0 mm 0.00 in0.0 mm
08:51 AM 75.2°F24.0°C 69.7°F20.9°C 83% 3.0 mph SW4.8 kmh SW 8.4 mph13.5 kmh 29.06 in984.1 mb 0.00 in0.0 mm 0.00 in0.0 mm 0.00 in0.0 mm
08:50 AM 75.0°F23.9°C 69.5°F20.8°C 83% 3.4 mph SW5.5 kmh SW 8.4 mph13.5 kmh 29.06 in984.1 mb 0.00 in0.0 mm 0.00 in0.0 mm 0.00 in0.0 mm
08:49 AM 75.0°F23.9°C 69.5°F20.8°C 83% 4.1 mph SW6.6 kmh SW 8.4 mph13.5 kmh 29.06 in984.1 mb 0.00 in0.0 mm 0.00 in0.0 mm 0.00 in0.0 mm
08:48 AM 75.0°F23.9°C 69.5°F20.8°C 83% 3.9 mph SW6.3 kmh SW 8.4 mph13.5 kmh 29.06 in984.1 mb 0.00 in0.0 mm 0.00 in0.0 mm 0.00 in0.0 mm
08:47 AM 74.8°F23.8°C 69.3°F20.7°C 83% 3.3 mph WSW5.3 kmh WSW 8.4 mph13.5 kmh 29.06 in984.1 mb 0.00 in0.0 mm 0.00 in0.0 mm 0.00 in0.0 mm
08:46 AM 74.8°F23.8°C 69.3°F20.7°C 83% 3.6 mph WSW5.8 kmh WSW 7.8 mph12.6 kmh 29.06 in984.1 mb 0.00 in0.0 mm 0.00 in0.0 mm 0.00 in0.0 mm
08:45 AM 74.7°F23.7°C 69.2°F20.7°C 83% 3.9 mph W6.3 kmh W 7.8 mph12.6 kmh 29.06 in984.1 mb 0.00 in0.0 mm 0.00 in0.0 mm 0.00 in0.0 mm
08:44 AM 74.7°F23.7°C 69.2°F20.7°C 83% 4.3 mph W6.9 kmh W 7.8 mph12.6 kmh 29.03 in983.1 mb 0.00 in0.0 mm 0.00 in0.0 mm 0.00 in0.0 mm
08:43 AM 74.5°F23.6°C 69.0°F20.6°C 83% 4.8 mph WSW7.7 kmh WSW 9.1 mph14.6 kmh 29.03 in983.1 mb 0.00 in0.0 mm 0.00 in0.0 mm 0.00 in0.0 mm
08:42 AM 74.5°F23.6°C 69.0°F20.6°C 83% 4.7 mph WSW7.6 kmh WSW 9.1 mph14.6 kmh 29.03 in983.1 mb 0.00 in0.0 mm 0.00 in0.0 mm 0.00 in0.0 mm
08:41 AM 74.5°F23.6°C 69.0°F20.6°C 83% 4.3 mph W6.9 kmh W 9.1 mph14.6 kmh 29.03 in983.1 mb 0.00 in0.0 mm 0.00 in0.0 mm 0.00 in0.0 mm
08:40 AM 74.3°F23.5°C 68.8°F20.4°C 83% 3.9 mph W6.3 kmh W 9.1 mph14.6 kmh 29.03 in983.1 mb 0.00 in0.0 mm 0.00 in0.0 mm 0.00 in0.0 mm
08:39 AM 74.3°F23.5°C 68.8°F20.4°C 83% 3.7 mph WSW6.0 kmh WSW 9.1 mph14.6 kmh 29.03 in983.1 mb 0.00 in0.0 mm 0.00 in0.0 mm 0.00 in0.0 mm
08:38 AM 74.1°F23.4°C 68.6°F20.3°C 83% 4.3 mph WSW6.9 kmh WSW 9.1 mph14.6 kmh 29.03 in983.1 mb 0.00 in0.0 mm 0.00 in0.0 mm 0.00 in0.0 mm
08:37 AM 73.8°F23.2°C 68.3°F20.2°C 83% 3.6 mph WSW5.8 kmh WSW 9.1 mph14.6 kmh 29.03 in983.1 mb 0.00 in0.0 mm 0.00 in0.0 mm 0.00 in0.0 mm
08:36 AM 73.8°F23.2°C 68.3°F20.2°C 83% 4.1 mph WSW6.6 kmh WSW 9.1 mph14.6 kmh 29.03 in983.1 mb 0.00 in0.0 mm 0.00 in0.0 mm 0.00 in0.0 mm
08:35 AM 73.8°F23.2°C 68.3°F20.2°C 83% 4.7 mph SW7.6 kmh SW 9.1 mph14.6 kmh 29.03 in983.1 mb 0.00 in0.0 mm 0.00 in0.0 mm 0.00 in0.0 mm
08:34 AM 73.6°F23.1°C 68.1°F20.1°C 83% 5.5 mph SW8.9 kmh SW 9.1 mph14.6 kmh 29.03 in983.1 mb 0.00 in0.0 mm 0.00 in0.0 mm 0.00 in0.0 mm
08:33 AM 73.6°F23.1°C 68.1°F20.1°C 83% Calm Calm 7.1 mph11.4 kmh 29.03 in983.1 mb 0.00 in0.0 mm 0.00 in0.0 mm 0.00 in0.0 mm
08:32 AM 73.4°F23.0°C 67.9°F19.9°C 83% Calm Calm 7.1 mph11.4 kmh 29.03 in983.1 mb 0.00 in0.0 mm 0.00 in0.0 mm 0.00 in0.0 mm
08:31 AM 73.4°F23.0°C 67.9°F19.9°C 83% 3.0 mph WSW4.8 kmh WSW 5.2 mph8.4 kmh 29.03 in983.1 mb 0.00 in0.0 mm 0.00 in0.0 mm 0.00 in0.0 mm
08:30 AM 73.2°F22.9°C 67.7°F19.8°C 83% 3.0 mph WSW4.8 kmh WSW 5.2 mph8.4 kmh 29.03 in983.1 mb 0.00 in0.0 mm 0.00 in0.0 mm 0.00 in0.0 mm
08:29 AM 73.2°F22.9°C 67.7°F19.8°C 83% 3.0 mph WSW4.8 kmh WSW 4.5 mph7.2 kmh 29.03 in983.1 mb 0.00 in0.0 mm 0.00 in0.0 mm 0.00 in0.0 mm
08:28 AM 73.0°F22.8°C 67.5°F19.7°C 83% 4.3 mph SW6.9 kmh SW 4.5 mph7.2 kmh 29.03 in983.1 mb 0.00 in0.0 mm 0.00 in0.0 mm 0.00 in0.0 mm
08:27 AM 73.0°F22.8°C 67.5°F19.7°C 83% 4.3 mph SW6.9 kmh SW 5.2 mph8.4 kmh 29.03 in983.1 mb 0.00 in0.0 mm 0.00 in0.0 mm 0.00 in0.0 mm
08:26 AM 72.9°F22.7°C 67.4°F19.7°C 83% 4.3 mph SW6.9 kmh SW 5.2 mph8.4 kmh 29.03 in983.1 mb 0.00 in0.0 mm 0.00 in0.0 mm 0.00 in0.0 mm
08:25 AM 72.9°F22.7°C 67.4°F19.7°C 83% 4.3 mph SW6.9 kmh SW 5.2 mph8.4 kmh 29.03 in983.1 mb 0.00 in0.0 mm 0.00 in0.0 mm 0.00 in0.0 mm
08:24 AM 72.7°F22.6°C 67.2°F19.6°C 83% Calm Calm 5.2 mph8.4 kmh 29.03 in983.1 mb 0.00 in0.0 mm 0.00 in0.0 mm 0.00 in0.0 mm
08:23 AM 72.5°F22.5°C 67.0°F19.4°C 83% Calm Calm 5.2 mph8.4 kmh 29.03 in983.1 mb 0.00 in0.0 mm 0.00 in0.0 mm 0.00 in0.0 mm
08:22 AM 72.3°F22.4°C 66.8°F19.3°C 83% Calm Calm 5.2 mph8.4 kmh 29.03 in983.1 mb 0.00 in0.0 mm 0.00 in0.0 mm 0.00 in0.0 mm
08:21 AM 72.3°F22.4°C 66.8°F19.3°C 83% Calm Calm 5.2 mph8.4 kmh 29.03 in983.1 mb 0.00 in0.0 mm 0.00 in0.0 mm 0.00 in0.0 mm
08:20 AM 72.1°F22.3°C 66.2°F19.0°C 82% Calm Calm 5.2 mph8.4 kmh 29.03 in983.1 mb 0.00 in0.0 mm 0.00 in0.0 mm 0.00 in0.0 mm
08:19 AM 72.1°F22.3°C 66.2°F19.0°C 82% Calm Calm 5.2 mph8.4 kmh 29.03 in983.1 mb 0.00 in0.0 mm 0.00 in0.0 mm 0.00 in0.0 mm
08:18 AM 72.0°F22.2°C 66.1°F18.9°C 82% Calm Calm 5.2 mph8.4 kmh 29.03 in983.1 mb 0.00 in0.0 mm 0.00 in0.0 mm 0.00 in0.0 mm
08:17 AM 71.8°F22.1°C 65.9°F18.8°C 82% Calm Calm 5.2 mph8.4 kmh 29.03 in983.1 mb 0.00 in0.0 mm 0.00 in0.0 mm 0.00 in0.0 mm
08:16 AM 71.8°F22.1°C 65.9°F18.8°C 82% Calm Calm 5.2 mph8.4 kmh 29.03 in983.1 mb 0.00 in0.0 mm 0.00 in0.0 mm 0.00 in0.0 mm
08:15 AM 71.8°F22.1°C 65.9°F18.8°C 82% Calm Calm 5.2 mph8.4 kmh 29.03 in983.1 mb 0.00 in0.0 mm 0.00 in0.0 mm 0.00 in0.0 mm
08:14 AM 71.6°F22.0°C 65.7°F18.7°C 82% Calm Calm 5.2 mph8.4 kmh 29.03 in983.1 mb 0.00 in0.0 mm 0.00 in0.0 mm 0.00 in0.0 mm
08:13 AM 71.6°F22.0°C 65.7°F18.7°C 82% Calm Calm 5.2 mph8.4 kmh 29.03 in983.1 mb 0.00 in0.0 mm 0.00 in0.0 mm 0.00 in0.0 mm
08:12 AM 71.4°F21.9°C 65.5°F18.6°C 82% Calm Calm 5.2 mph8.4 kmh 29.03 in983.1 mb 0.00 in0.0 mm 0.00 in0.0 mm 0.00 in0.0 mm
08:11 AM 71.4°F21.9°C 65.5°F18.6°C 82% 3.0 mph WSW4.8 kmh WSW 5.2 mph8.4 kmh 29.03 in983.1 mb 0.00 in0.0 mm 0.00 in0.0 mm 0.00 in0.0 mm
08:10 AM 71.4°F21.9°C 65.5°F18.6°C 82% 3.0 mph WSW4.8 kmh WSW 5.2 mph8.4 kmh 29.03 in983.1 mb 0.00 in0.0 mm 0.00 in0.0 mm 0.00 in0.0 mm
08:09 AM 71.4°F21.9°C 65.5°F18.6°C 82% 3.0 mph WSW4.8 kmh WSW 5.2 mph8.4 kmh 29.03 in983.1 mb 0.00 in0.0 mm 0.00 in0.0 mm 0.00 in0.0 mm
08:08 AM 71.2°F21.8°C 65.3°F18.5°C 82% 3.3 mph WSW5.3 kmh WSW 7.1 mph11.4 kmh 29.03 in983.1 mb 0.00 in0.0 mm 0.00 in0.0 mm 0.00 in0.0 mm
08:07 AM 71.2°F21.8°C 65.3°F18.5°C 82% 3.7 mph WSW6.0 kmh WSW 7.1 mph11.4 kmh 29.03 in983.1 mb 0.00 in0.0 mm 0.00 in0.0 mm 0.00 in0.0 mm
08:06 AM 71.1°F21.7°C 65.2°F18.4°C 82% 3.7 mph WSW6.0 kmh WSW 7.1 mph11.4 kmh 29.03 in983.1 mb 0.00 in0.0 mm 0.00 in0.0 mm 0.00 in0.0 mm
08:05 AM 71.1°F21.7°C 65.2°F18.4°C 82% Calm Calm 7.1 mph11.4 kmh 29.03 in983.1 mb 0.00 in0.0 mm 0.00 in0.0 mm 0.00 in0.0 mm
08:04 AM 71.1°F21.7°C 65.2°F18.4°C 82% Calm Calm 7.1 mph11.4 kmh 29.03 in983.1 mb 0.00 in0.0 mm 0.00 in0.0 mm 0.00 in0.0 mm
08:03 AM 70.9°F21.6°C 65.0°F18.3°C 82% Calm Calm 7.1 mph11.4 kmh 29.03 in983.1 mb 0.00 in0.0 mm 0.00 in0.0 mm 0.00 in0.0 mm
08:02 AM 70.9°F21.6°C 65.0°F18.3°C 82% Calm Calm 7.1 mph11.4 kmh 29.03 in983.1 mb 0.00 in0.0 mm 0.00 in0.0 mm 0.00 in0.0 mm
08:01 AM 70.9°F21.6°C 65.0°F18.3°C 82% 3.7 mph WSW6.0 kmh WSW 7.1 mph11.4 kmh 29.03 in983.1 mb 0.00 in0.0 mm 0.00 in0.0 mm 0.00 in0.0 mm
08:00 AM 70.9°F21.6°C 65.0°F18.3°C 82% 3.7 mph WSW6.0 kmh WSW 7.1 mph11.4 kmh 29.03 in983.1 mb 0.00 in0.0 mm 0.00 in0.0 mm 0.00 in0.0 mm
07:59 AM 70.7°F21.5°C 64.8°F18.2°C 82% 3.7 mph WSW6.0 kmh WSW 7.1 mph11.4 kmh 29.03 in983.1 mb 0.00 in0.0 mm 0.00 in0.0 mm 0.00 in0.0 mm
07:58 AM 70.7°F21.5°C 64.8°F18.2°C 82% Calm Calm 5.2 mph8.4 kmh 29.03 in983.1 mb 0.00 in0.0 mm 0.00 in0.0 mm 0.00 in0.0 mm
07:57 AM 70.7°F21.5°C 64.8°F18.2°C 82% Calm Calm 5.2 mph8.4 kmh 29.03 in983.1 mb 0.00 in0.0 mm 0.00 in0.0 mm 0.00 in0.0 mm
07:56 AM 70.5°F21.4°C 64.2°F17.9°C 80% Calm Calm 5.2 mph8.4 kmh 29.03 in983.1 mb 0.00 in0.0 mm 0.00 in0.0 mm 0.00 in0.0 mm
07:55 AM 70.5°F21.4°C 64.2°F17.9°C 80% Calm Calm 5.2 mph8.4 kmh 29.03 in983.1 mb 0.00 in0.0 mm 0.00 in0.0 mm 0.00 in0.0 mm
07:54 AM 70.5°F21.4°C 64.2°F17.9°C 80% Calm Calm 5.2 mph8.4 kmh 29.03 in983.1 mb 0.00 in0.0 mm 0.00 in0.0 mm 0.00 in0.0 mm
07:53 AM 70.3°F21.3°C 64.0°F17.8°C 80% Calm Calm 5.2 mph8.4 kmh 29.03 in983.1 mb 0.00 in0.0 mm 0.00 in0.0 mm 0.00 in0.0 mm
07:52 AM 70.3°F21.3°C 64.0°F17.8°C 80% Calm Calm 5.2 mph8.4 kmh 29.03 in983.1 mb 0.00 in0.0 mm 0.00 in0.0 mm 0.00 in0.0 mm
07:51 AM 70.3°F21.3°C 64.0°F17.8°C 80% Calm Calm 5.2 mph8.4 kmh 29.03 in983.1 mb 0.00 in0.0 mm 0.00 in0.0 mm 0.00 in0.0 mm
07:50 AM 70.2°F21.2°C 63.9°F17.7°C 80% Calm Calm 4.5 mph7.2 kmh 29.03 in983.1 mb 0.00 in0.0 mm 0.00 in0.0 mm 0.00 in0.0 mm
07:49 AM 70.2°F21.2°C 63.9°F17.7°C 80% Calm Calm 3.2 mph5.1 kmh 29.03 in983.1 mb 0.00 in0.0 mm 0.00 in0.0 mm 0.00 in0.0 mm
07:48 AM 70.2°F21.2°C 63.9°F17.7°C 80% Calm Calm 3.2 mph5.1 kmh 29.03 in983.1 mb 0.00 in0.0 mm 0.00 in0.0 mm 0.00 in0.0 mm
07:47 AM 70.2°F21.2°C 63.9°F17.7°C 80% Calm Calm 3.2 mph5.1 kmh 29.03 in983.1 mb 0.00 in0.0 mm 0.00 in0.0 mm 0.00 in0.0 mm
07:46 AM 70.0°F21.1°C 63.7°F17.6°C 80% Calm Calm 3.2 mph5.1 kmh 29.03 in983.1 mb 0.00 in0.0 mm 0.00 in0.0 mm 0.00 in0.0 mm
07:45 AM 70.0°F21.1°C 63.7°F17.6°C 80% Calm Calm 3.2 mph5.1 kmh 29.03 in983.1 mb 0.00 in0.0 mm 0.00 in0.0 mm 0.00 in0.0 mm
07:44 AM 70.0°F21.1°C 63.7°F17.6°C 80% Calm Calm 4.5 mph7.2 kmh 29.03 in983.1 mb 0.00 in0.0 mm 0.00 in0.0 mm 0.00 in0.0 mm
07:43 AM 70.0°F21.1°C 63.7°F17.6°C 80% Calm Calm 4.5 mph7.2 kmh 29.03 in983.1 mb 0.00 in0.0 mm 0.00 in0.0 mm 0.00 in0.0 mm
07:42 AM 69.8°F21.0°C 63.5°F17.5°C 80% Calm Calm 4.5 mph7.2 kmh 29.03 in983.1 mb 0.00 in0.0 mm 0.00 in0.0 mm 0.00 in0.0 mm
07:41 AM 69.8°F21.0°C 63.5°F17.5°C 80% Calm Calm 4.5 mph7.2 kmh 29.03 in983.1 mb 0.00 in0.0 mm 0.00 in0.0 mm 0.00 in0.0 mm
07:40 AM 69.8°F21.0°C 63.5°F17.5°C 80% Calm Calm 4.5 mph7.2 kmh 29.03 in983.1 mb 0.00 in0.0 mm 0.00 in0.0 mm 0.00 in0.0 mm
07:39 AM 69.8°F21.0°C 63.5°F17.5°C 80% Calm Calm 4.5 mph7.2 kmh 29.03 in983.1 mb 0.00 in0.0 mm 0.00 in0.0 mm 0.00 in0.0 mm
07:38 AM 69.6°F20.9°C 63.3°F17.4°C 80% Calm Calm 4.5 mph7.2 kmh 29.03 in983.1 mb 0.00 in0.0 mm 0.00 in0.0 mm 0.00 in0.0 mm
07:37 AM 69.6°F20.9°C 63.3°F17.4°C 80% Calm Calm 4.5 mph7.2 kmh 29.03 in983.1 mb 0.00 in0.0 mm 0.00 in0.0 mm 0.00 in0.0 mm
07:36 AM 69.6°F20.9°C 63.3°F17.4°C 80% Calm Calm 4.5 mph7.2 kmh 29.03 in983.1 mb 0.00 in0.0 mm 0.00 in0.0 mm 0.00 in0.0 mm
07:35 AM 69.6°F20.9°C 63.3°F17.4°C 80% Calm Calm 4.5 mph7.2 kmh 29.03 in983.1 mb 0.00 in0.0 mm 0.00 in0.0 mm 0.00 in0.0 mm
07:34 AM 69.6°F20.9°C 63.3°F17.4°C 80% Calm Calm 4.5 mph7.2 kmh 29.03 in983.1 mb 0.00 in0.0 mm 0.00 in0.0 mm 0.00 in0.0 mm
07:33 AM 69.6°F20.9°C 63.3°F17.4°C 80% Calm Calm 4.5 mph7.2 kmh 29.03 in983.1 mb 0.00 in0.0 mm 0.00 in0.0 mm 0.00 in0.0 mm
07:32 AM 69.4°F20.8°C 63.1°F17.3°C 80% Calm Calm 4.5 mph7.2 kmh 29.03 in983.1 mb 0.00 in0.0 mm 0.00 in0.0 mm 0.00 in0.0 mm
07:31 AM 69.4°F20.8°C 63.1°F17.3°C 80% Calm Calm 4.5 mph7.2 kmh 29.03 in983.1 mb 0.00 in0.0 mm 0.00 in0.0 mm 0.00 in0.0 mm
07:30 AM 69.4°F20.8°C 63.1°F17.3°C 80% Calm Calm 4.5 mph7.2 kmh 29.03 in983.1 mb 0.00 in0.0 mm 0.00 in0.0 mm 0.00 in0.0 mm
07:29 AM 69.4°F20.8°C 63.1°F17.3°C 80% Calm Calm 4.5 mph7.2 kmh 29.03 in983.1 mb 0.00 in0.0 mm 0.00 in0.0 mm 0.00 in0.0 mm
07:28 AM 69.3°F20.7°C 63.0°F17.2°C 80% Calm Calm 4.5 mph7.2 kmh 29.03 in983.1 mb 0.00 in0.0 mm 0.00 in0.0 mm 0.00 in0.0 mm
07:27 AM 69.3°F20.7°C 63.0°F17.2°C 80% Calm Calm 4.5 mph7.2 kmh 29.03 in983.1 mb 0.00 in0.0 mm 0.00 in0.0 mm 0.00 in0.0 mm
07:26 AM 69.3°F20.7°C 63.0°F17.2°C 80% Calm Calm 4.5 mph7.2 kmh 29.03 in983.1 mb 0.00 in0.0 mm 0.00 in0.0 mm 0.00 in0.0 mm
07:25 AM 69.3°F20.7°C 63.0°F17.2°C 80% Calm Calm 5.8 mph9.3 kmh 29.03 in983.1 mb 0.00 in0.0 mm 0.00 in0.0 mm 0.00 in0.0 mm
07:24 AM 69.1°F20.6°C 62.4°F16.9°C 79% Calm Calm 7.1 mph11.4 kmh 29.03 in983.1 mb 0.00 in0.0 mm 0.00 in0.0 mm 0.00 in0.0 mm
07:23 AM 69.1°F20.6°C 62.4°F16.9°C 79% Calm Calm 7.8 mph12.6 kmh 29.03 in983.1 mb 0.00 in0.0 mm 0.00 in0.0 mm 0.00 in0.0 mm
07:22 AM 69.1°F20.6°C 62.4°F16.9°C 79% Calm Calm 7.8 mph12.6 kmh 29.03 in983.1 mb 0.00 in0.0 mm 0.00 in0.0 mm 0.00 in0.0 mm
07:21 AM 69.1°F20.6°C 62.4°F16.9°C 79% 3.0 mph WSW4.8 kmh WSW 7.8 mph12.6 kmh 29.03 in983.1 mb 0.00 in0.0 mm 0.00 in0.0 mm 0.00 in0.0 mm
07:20 AM 68.9°F20.5°C 62.2°F16.8°C 79% 3.0 mph WSW4.8 kmh WSW 7.8 mph12.6 kmh 29.03 in983.1 mb 0.00 in0.0 mm 0.00 in0.0 mm 0.00 in0.0 mm
07:19 AM 68.9°F20.5°C 62.2°F16.8°C 79% 3.0 mph W4.8 kmh W 7.8 mph12.6 kmh 29.03 in983.1 mb 0.00 in0.0 mm 0.00 in0.0 mm 0.00 in0.0 mm
07:18 AM 68.9°F20.5°C 62.2°F16.8°C 79% 3.6 mph WNW5.8 kmh WNW 7.8 mph12.6 kmh 29.03 in983.1 mb 0.00 in0.0 mm 0.00 in0.0 mm 0.00 in0.0 mm
07:17 AM 68.9°F20.5°C 62.2°F16.8°C 79% 4.1 mph W6.6 kmh W 7.8 mph12.6 kmh 29.03 in983.1 mb 0.00 in0.0 mm 0.00 in0.0 mm 0.00 in0.0 mm
07:16 AM 68.9°F20.5°C 62.2°F16.8°C 79% 4.9 mph W7.9 kmh W 7.8 mph12.6 kmh 29.03 in983.1 mb 0.00 in0.0 mm 0.00 in0.0 mm 0.00 in0.0 mm
07:15 AM 68.7°F20.4°C 62.0°F16.7°C 79% 4.9 mph W7.9 kmh W 7.8 mph12.6 kmh 29.03 in983.1 mb 0.00 in0.0 mm 0.00 in0.0 mm 0.00 in0.0 mm
07:14 AM 68.7°F20.4°C 62.0°F16.7°C 79% Calm Calm 7.8 mph12.6 kmh 29.03 in983.1 mb 0.00 in0.0 mm 0.00 in0.0 mm 0.00 in0.0 mm
07:13 AM 68.7°F20.4°C 62.0°F16.7°C 79% Calm Calm 7.1 mph11.4 kmh 29.03 in983.1 mb 0.00 in0.0 mm 0.00 in0.0 mm 0.00 in0.0 mm
07:12 AM 68.5°F20.3°C 61.8°F16.6°C 79% Calm Calm 7.1 mph11.4 kmh 29.03 in983.1 mb 0.00 in0.0 mm 0.00 in0.0 mm 0.00 in0.0 mm
07:11 AM 68.5°F20.3°C 61.4°F16.3°C 78% Calm Calm 7.1 mph11.4 kmh 29.03 in983.1 mb 0.00 in0.0 mm 0.00 in0.0 mm 0.00 in0.0 mm
07:10 AM 68.5°F20.3°C 61.4°F16.3°C 78% Calm Calm 7.1 mph11.4 kmh 29.03 in983.1 mb 0.00 in0.0 mm 0.00 in0.0 mm 0.00 in0.0 mm
07:09 AM 68.5°F20.3°C 61.4°F16.3°C 78% Calm Calm 7.1 mph11.4 kmh 29.03 in983.1 mb 0.00 in0.0 mm 0.00 in0.0 mm 0.00 in0.0 mm
07:08 AM 68.5°F20.3°C 61.4°F16.3°C 78% Calm Calm 7.1 mph11.4 kmh 29.03 in983.1 mb 0.00 in0.0 mm 0.00 in0.0 mm 0.00 in0.0 mm
07:07 AM 68.4°F20.2°C 61.3°F16.3°C 78% 3.0 mph WSW4.8 kmh WSW 7.1 mph11.4 kmh 29.03 in983.1 mb 0.00 in0.0 mm 0.00 in0.0 mm 0.00 in0.0 mm
07:06 AM 68.4°F20.2°C 61.3°F16.3°C 78% 3.0 mph WSW4.8 kmh WSW 7.1 mph11.4 kmh 29.03 in983.1 mb 0.00 in0.0 mm 0.00 in0.0 mm 0.00 in0.0 mm
07:05 AM 68.4°F20.2°C 61.3°F16.3°C 78% 3.0 mph WSW4.8 kmh WSW 7.1 mph11.4 kmh 29.03 in983.1 mb 0.00 in0.0 mm 0.00 in0.0 mm 0.00 in0.0 mm
07:04 AM 68.2°F20.1°C 61.1°F16.2°C 78% Calm Calm 7.1 mph11.4 kmh 29.03 in983.1 mb 0.00 in0.0 mm 0.00 in0.0 mm 0.00 in0.0 mm
07:03 AM 68.2°F20.1°C 61.1°F16.2°C 78% Calm Calm 7.1 mph11.4 kmh 29.03 in983.1 mb 0.00 in0.0 mm 0.00 in0.0 mm 0.00 in0.0 mm
07:02 AM 68.2°F20.1°C 61.1°F16.2°C 78% Calm Calm 7.1 mph11.4 kmh 29.03 in983.1 mb 0.00 in0.0 mm 0.00 in0.0 mm 0.00 in0.0 mm
07:01 AM 68.2°F20.1°C 61.1°F16.2°C 78% Calm Calm 7.1 mph11.4 kmh 29.03 in983.1 mb 0.00 in0.0 mm 0.00 in0.0 mm 0.00 in0.0 mm
07:00 AM 68.0°F20.0°C 60.9°F16.1°C 78% Calm Calm 7.1 mph11.4 kmh 29.00 in982.1 mb 0.00 in0.0 mm 0.00 in0.0 mm 0.00 in0.0 mm
06:59 AM 68.0°F20.0°C 60.9°F16.1°C 78% 4.3 mph SW6.9 kmh SW 7.1 mph11.4 kmh 29.00 in982.1 mb 0.00 in0.0 mm 0.00 in0.0 mm 0.00 in0.0 mm
06:58 AM 68.0°F20.0°C 60.5°F15.8°C 77% 4.3 mph WSW6.9 kmh WSW 7.1 mph11.4 kmh 29.00 in982.1 mb 0.00 in0.0 mm 0.00 in0.0 mm 0.00 in0.0 mm
06:57 AM 68.0°F20.0°C 60.5°F15.8°C 77% 4.3 mph WSW6.9 kmh WSW 7.1 mph11.4 kmh 29.00 in982.1 mb 0.00 in0.0 mm 0.00 in0.0 mm 0.00 in0.0 mm
06:56 AM 68.0°F20.0°C 60.5°F15.8°C 77% Calm Calm 5.8 mph9.3 kmh 29.00 in982.1 mb 0.00 in0.0 mm 0.00 in0.0 mm 0.00 in0.0 mm
06:55 AM 68.0°F20.0°C 60.5°F15.8°C 77% Calm Calm 5.8 mph9.3 kmh 29.00 in982.1 mb 0.00 in0.0 mm 0.00 in0.0 mm 0.00 in0.0 mm
06:54 AM 68.0°F20.0°C 60.4°F15.8°C 77% Calm Calm 3.0 mph4.8 kmh 29.00 in982.1 mb 0.00 in0.0 mm 0.00 in0.0 mm 0.00 in0.0 mm
06:53 AM 68.0°F20.0°C 60.4°F15.8°C 77% Calm Calm 3.9 mph6.3 kmh 29.00 in982.1 mb 0.00 in0.0 mm 0.00 in0.0 mm 0.00 in0.0 mm
06:52 AM 68.0°F20.0°C 60.4°F15.8°C 77% Calm Calm 5.2 mph8.4 kmh 29.00 in982.1 mb 0.00 in0.0 mm 0.00 in0.0 mm 0.00 in0.0 mm
06:51 AM 67.8°F19.9°C 60.3°F15.7°C 77% Calm Calm 5.2 mph8.4 kmh 29.00 in982.1 mb 0.00 in0.0 mm 0.00 in0.0 mm 0.00 in0.0 mm
06:50 AM 67.8°F19.9°C 60.2°F15.7°C 77% Calm Calm 5.2 mph8.4 kmh 29.00 in982.1 mb 0.00 in0.0 mm 0.00 in0.0 mm 0.00 in0.0 mm
06:49 AM 67.8°F19.9°C 60.2°F15.7°C 77% Calm Calm 5.2 mph8.4 kmh 29.00 in982.1 mb 0.00 in0.0 mm 0.00 in0.0 mm 0.00 in0.0 mm
06:48 AM 67.8°F19.9°C 60.2°F15.7°C 77% Calm Calm 5.2 mph8.4 kmh 29.00 in982.1 mb 0.00 in0.0 mm 0.00 in0.0 mm 0.00 in0.0 mm
06:47 AM 67.8°F19.9°C 60.2°F15.7°C 77% Calm Calm 5.2 mph8.4 kmh 29.00 in982.1 mb 0.00 in0.0 mm 0.00 in0.0 mm 0.00 in0.0 mm
06:46 AM 67.8°F19.9°C 60.2°F15.7°C 77% 3.0 mph W4.8 kmh W 5.2 mph8.4 kmh 29.00 in982.1 mb 0.00 in0.0 mm 0.00 in0.0 mm 0.00 in0.0 mm
06:45 AM 67.8°F19.9°C 60.2°F15.7°C 77% 3.0 mph W4.8 kmh W 5.2 mph8.4 kmh 29.00 in982.1 mb 0.00 in0.0 mm 0.00 in0.0 mm 0.00 in0.0 mm
06:44 AM 67.8°F19.9°C 60.2°F15.7°C 76% 3.0 mph W4.8 kmh W 5.2 mph8.4 kmh 29.03 in983.1 mb 0.00 in0.0 mm 0.00 in0.0 mm 0.00 in0.0 mm
06:43 AM 67.8°F19.9°C 60.2°F15.7°C 76% Calm Calm 5.8 mph9.3 kmh 29.03 in983.1 mb 0.00 in0.0 mm 0.00 in0.0 mm 0.00 in0.0 mm
06:41 AM 67.8°F19.9°C 60.2°F15.7°C 76% Calm Calm 5.8 mph9.3 kmh 29.03 in983.1 mb 0.00 in0.0 mm 0.00 in0.0 mm 0.00 in0.0 mm
06:40 AM 67.8°F19.9°C 60.2°F15.7°C 76% Calm Calm 5.8 mph9.3 kmh 29.03 in983.1 mb 0.00 in0.0 mm 0.00 in0.0 mm 0.00 in0.0 mm
06:39 AM 67.8°F19.9°C 60.2°F15.7°C 76% Calm Calm 5.8 mph9.3 kmh 29.03 in983.1 mb 0.00 in0.0 mm 0.00 in0.0 mm 0.00 in0.0 mm
06:38 AM 67.8°F19.9°C 60.2°F15.7°C 76% Calm Calm 5.8 mph9.3 kmh 29.03 in983.1 mb 0.00 in0.0 mm 0.00 in0.0 mm 0.00 in0.0 mm
06:37 AM 67.8°F19.9°C 60.2°F15.7°C 76% 3.0 mph SW4.8 kmh SW 5.8 mph9.3 kmh 29.03 in983.1 mb 0.00 in0.0 mm 0.00 in0.0 mm 0.00 in0.0 mm
06:36 AM 67.8°F19.9°C 60.2°F15.7°C 76% 3.0 mph SW4.8 kmh SW 5.8 mph9.3 kmh 29.03 in983.1 mb 0.00 in0.0 mm 0.00 in0.0 mm 0.00 in0.0 mm
06:35 AM 67.8°F19.9°C 60.2°F15.7°C 76% 3.0 mph SW4.8 kmh SW 5.8 mph9.3 kmh 29.03 in983.1 mb 0.00 in0.0 mm 0.00 in0.0 mm 0.00 in0.0 mm
06:34 AM 67.8°F19.9°C 60.2°F15.7°C 76% 3.8 mph SW6.1 kmh SW 5.8 mph9.3 kmh 29.03 in983.1 mb 0.00 in0.0 mm 0.00 in0.0 mm 0.00 in0.0 mm
06:33 AM 67.8°F19.9°C 60.2°F15.7°C 76% 4.3 mph WSW6.9 kmh WSW 5.2 mph8.4 kmh 29.03 in983.1 mb 0.00 in0.0 mm 0.00 in0.0 mm 0.00 in0.0 mm
06:32 AM 67.8°F19.9°C 60.2°F15.7°C 76% 4.0 mph WSW6.4 kmh WSW 5.2 mph8.4 kmh 29.03 in983.1 mb 0.00 in0.0 mm 0.00 in0.0 mm 0.00 in0.0 mm
06:31 AM 67.8°F19.9°C 59.8°F15.4°C 75% 3.6 mph WSW5.8 kmh WSW 5.2 mph8.4 kmh 29.03 in983.1 mb 0.00 in0.0 mm 0.00 in0.0 mm 0.00 in0.0 mm
06:30 AM 67.8°F19.9°C 59.8°F15.4°C 75% 3.2 mph WSW5.1 kmh WSW 5.2 mph8.4 kmh 29.03 in983.1 mb 0.00 in0.0 mm 0.00 in0.0 mm 0.00 in0.0 mm
06:29 AM 67.8°F19.9°C 59.8°F15.4°C 75% 3.0 mph WSW4.8 kmh WSW 5.2 mph8.4 kmh 29.03 in983.1 mb 0.00 in0.0 mm 0.00 in0.0 mm 0.00 in0.0 mm
06:28 AM 67.8°F19.9°C 59.8°F15.4°C 75% 3.0 mph WSW4.8 kmh WSW 5.2 mph8.4 kmh 29.03 in983.1 mb 0.00 in0.0 mm 0.00 in0.0 mm 0.00 in0.0 mm
06:27 AM 67.8°F19.9°C 59.8°F15.4°C 75% 3.0 mph WSW4.8 kmh WSW 5.2 mph8.4 kmh 29.03 in983.1 mb 0.00 in0.0 mm 0.00 in0.0 mm 0.00 in0.0 mm
06:26 AM 67.8°F19.9°C 59.8°F15.4°C 75% 3.0 mph WSW4.8 kmh WSW 5.2 mph8.4 kmh 29.03 in983.1 mb 0.00 in0.0 mm 0.00 in0.0 mm 0.00 in0.0 mm
06:25 AM 67.8°F19.9°C 59.8°F15.4°C 75% 3.0 mph WSW4.8 kmh WSW 5.2 mph8.4 kmh 29.03 in983.1 mb 0.00 in0.0 mm 0.00 in0.0 mm 0.00 in0.0 mm
06:24 AM 67.8°F19.9°C 59.8°F15.4°C 75% Calm Calm 4.5 mph7.2 kmh 29.03 in983.1 mb 0.00 in0.0 mm 0.00 in0.0 mm 0.00 in0.0 mm
06:23 AM 67.8°F19.9°C 59.8°F15.4°C 75% Calm Calm 4.5 mph7.2 kmh 29.03 in983.1 mb 0.00 in0.0 mm 0.00 in0.0 mm 0.00 in0.0 mm
06:22 AM 67.8°F19.9°C 59.8°F15.4°C 75% Calm Calm 4.5 mph7.2 kmh 29.03 in983.1 mb 0.00 in0.0 mm 0.00 in0.0 mm 0.00 in0.0 mm
06:21 AM 68.0°F20.0°C 60.0°F15.6°C 75% Calm Calm 3.9 mph6.3 kmh 29.03 in983.1 mb 0.00 in0.0 mm 0.00 in0.0 mm 0.00 in0.0 mm
06:20 AM 68.0°F20.0°C 60.0°F15.6°C 75% Calm Calm 3.9 mph6.3 kmh 29.03 in983.1 mb 0.00 in0.0 mm 0.00 in0.0 mm 0.00 in0.0 mm
06:19 AM 68.0°F20.0°C 60.0°F15.6°C 75% Calm Calm 3.9 mph6.3 kmh 29.03 in983.1 mb 0.00 in0.0 mm 0.00 in0.0 mm 0.00 in0.0 mm
06:18 AM 67.8°F19.9°C 59.8°F15.4°C 75% Calm Calm 3.9 mph6.3 kmh 29.03 in983.1 mb 0.00 in0.0 mm 0.00 in0.0 mm 0.00 in0.0 mm
06:17 AM 67.8°F19.9°C 59.8°F15.4°C 75% Calm Calm 4.5 mph7.2 kmh 29.03 in983.1 mb 0.00 in0.0 mm 0.00 in0.0 mm 0.00 in0.0 mm
06:16 AM 67.8°F19.9°C 59.8°F15.4°C 75% Calm Calm 4.5 mph7.2 kmh 29.03 in983.1 mb 0.00 in0.0 mm 0.00 in0.0 mm 0.00 in0.0 mm
06:15 AM 67.8°F19.9°C 59.8°F15.4°C 75% Calm Calm 4.5 mph7.2 kmh 29.03 in983.1 mb 0.00 in0.0 mm 0.00 in0.0 mm 0.00 in0.0 mm
06:14 AM 67.8°F19.9°C 59.8°F15.4°C 75% Calm Calm 4.5 mph7.2 kmh 29.03 in983.1 mb 0.00 in0.0 mm 0.00 in0.0 mm 0.00 in0.0 mm
06:13 AM 67.8°F19.9°C 59.8°F15.4°C 75% Calm Calm 4.5 mph7.2 kmh 29.03 in983.1 mb 0.00 in0.0 mm 0.00 in0.0 mm 0.00 in0.0 mm
06:12 AM 67.8°F19.9°C 59.8°F15.4°C 75% Calm Calm 4.5 mph7.2 kmh 29.03 in983.1 mb 0.00 in0.0 mm 0.00 in0.0 mm 0.00 in0.0 mm
06:11 AM 67.8°F19.9°C 59.8°F15.4°C 75% Calm Calm 4.5 mph7.2 kmh 29.03 in983.1 mb 0.00 in0.0 mm 0.00 in0.0 mm 0.00 in0.0 mm
06:10 AM 67.8°F19.9°C 59.8°F15.4°C 75% Calm Calm 4.5 mph7.2 kmh 29.03 in983.1 mb 0.00 in0.0 mm 0.00 in0.0 mm 0.00 in0.0 mm
06:09 AM 67.8°F19.9°C 59.8°F15.4°C 75% Calm Calm 4.5 mph7.2 kmh 29.03 in983.1 mb 0.00 in0.0 mm 0.00 in0.0 mm 0.00 in0.0 mm
06:08 AM 67.8°F19.9°C 59.8°F15.4°C 75% Calm Calm 4.5 mph7.2 kmh 29.03 in983.1 mb 0.00 in0.0 mm 0.00 in0.0 mm 0.00 in0.0 mm
06:07 AM 67.8°F19.9°C 59.4°F15.2°C 74% Calm Calm 4.5 mph7.2 kmh 29.03 in983.1 mb 0.00 in0.0 mm 0.00 in0.0 mm 0.00 in0.0 mm
06:06 AM 67.8°F19.9°C 59.4°F15.2°C 74% Calm Calm 5.8 mph9.3 kmh 29.03 in983.1 mb 0.00 in0.0 mm 0.00 in0.0 mm 0.00 in0.0 mm
06:05 AM 67.8°F19.9°C 59.4°F15.2°C 74% Calm Calm 5.8 mph9.3 kmh 29.03 in983.1 mb 0.00 in0.0 mm 0.00 in0.0 mm 0.00 in0.0 mm
06:03 AM 67.8°F19.9°C 59.4°F15.2°C 74% Calm Calm 5.8 mph9.3 kmh 29.03 in983.1 mb 0.00 in0.0 mm 0.00 in0.0 mm 0.00 in0.0 mm
06:02 AM 67.8°F19.9°C 59.4°F15.2°C 74% Calm Calm 5.8 mph9.3 kmh 29.03 in983.1 mb 0.00 in0.0 mm 0.00 in0.0 mm 0.00 in0.0 mm
06:01 AM 67.8°F19.9°C 59.8°F15.4°C 75% Calm Calm 7.1 mph11.4 kmh 29.03 in983.1 mb 0.00 in0.0 mm 0.00 in0.0 mm 0.00 in0.0 mm
06:00 AM 67.8°F19.9°C 59.8°F15.4°C 75% Calm Calm 7.1 mph11.4 kmh 29.03 in983.1 mb 0.00 in0.0 mm 0.00 in0.0 mm 0.00 in0.0 mm
05:59 AM 67.8°F19.9°C 59.8°F15.4°C 75% 3.7 mph WSW6.0 kmh WSW 7.1 mph11.4 kmh 29.03 in983.1 mb 0.00 in0.0 mm 0.00 in0.0 mm 0.00 in0.0 mm
05:58 AM 67.8°F19.9°C 59.4°F15.2°C 74% 3.7 mph WSW6.0 kmh WSW 7.1 mph11.4 kmh 29.03 in983.1 mb 0.00 in0.0 mm 0.00 in0.0 mm 0.00 in0.0 mm
05:57 AM 67.8°F19.9°C 59.4°F15.2°C 74% 3.9 mph WSW6.3 kmh WSW 7.1 mph11.4 kmh 29.03 in983.1 mb 0.00 in0.0 mm 0.00 in0.0 mm 0.00 in0.0 mm
05:56 AM 67.8°F19.9°C 59.4°F15.2°C 74% 3.9 mph WSW6.3 kmh WSW 7.1 mph11.4 kmh 29.03 in983.1 mb 0.00 in0.0 mm 0.00 in0.0 mm 0.00 in0.0 mm
05:55 AM 67.8°F19.9°C 59.4°F15.2°C 74% 3.6 mph WSW5.8 kmh WSW 7.1 mph11.4 kmh 29.03 in983.1 mb 0.00 in0.0 mm 0.00 in0.0 mm 0.00 in0.0 mm
05:52 AM 67.8°F19.9°C 59.4°F15.2°C 74% 3.7 mph WSW6.0 kmh WSW 7.1 mph11.4 kmh 29.03 in983.1 mb 0.00 in0.0 mm 0.00 in0.0 mm 0.00 in0.0 mm
05:51 AM 67.6°F19.8°C 59.2°F15.1°C 74% Calm Calm 7.1 mph11.4 kmh 29.03 in983.1 mb 0.00 in0.0 mm 0.00 in0.0 mm 0.00 in0.0 mm
05:50 AM 67.6°F19.8°C 59.7°F15.4°C 75% Calm Calm 5.2 mph8.4 kmh 29.03 in983.1 mb 0.00 in0.0 mm 0.00 in0.0 mm 0.00 in0.0 mm
05:49 AM 67.6°F19.8°C 59.7°F15.4°C 75% 3.0 mph W4.8 kmh W 5.2 mph8.4 kmh 29.03 in983.1 mb 0.00 in0.0 mm 0.00 in0.0 mm 0.00 in0.0 mm
05:48 AM 67.5°F19.7°C 59.6°F15.3°C 75% 3.0 mph W4.8 kmh W 5.2 mph8.4 kmh 29.03 in983.1 mb 0.00 in0.0 mm 0.00 in0.0 mm 0.00 in0.0 mm
05:47 AM 67.5°F19.7°C 59.6°F15.3°C 75% 3.0 mph W4.8 kmh W 4.5 mph7.2 kmh 29.03 in983.1 mb 0.00 in0.0 mm 0.00 in0.0 mm 0.00 in0.0 mm
05:46 AM 67.3°F19.6°C 59.0°F15.0°C 74% 3.0 mph W4.8 kmh W 4.5 mph7.2 kmh 29.03 in983.1 mb 0.00 in0.0 mm 0.00 in0.0 mm 0.00 in0.0 mm
05:45 AM 67.1°F19.5°C 58.8°F14.9°C 74% Calm Calm 4.5 mph7.2 kmh 29.03 in983.1 mb 0.00 in0.0 mm 0.00 in0.0 mm 0.00 in0.0 mm
05:44 AM 66.9°F19.4°C 58.6°F14.8°C 74% Calm Calm 4.5 mph7.2 kmh 29.00 in982.1 mb 0.00 in0.0 mm 0.00 in0.0 mm 0.00 in0.0 mm
05:43 AM 66.7°F19.3°C 57.9°F14.4°C 73% Calm Calm 3.9 mph6.3 kmh 29.00 in982.1 mb 0.00 in0.0 mm 0.00 in0.0 mm 0.00 in0.0 mm
05:42 AM 66.7°F19.3°C 58.0°F14.4°C 73% Calm Calm -- 29.00 in982.1 mb 0.00 in0.0 mm 0.00 in0.0 mm 0.00 in0.0 mm
05:41 AM 66.7°F19.3°C 58.0°F14.4°C 73% Calm Calm -- 29.00 in982.1 mb 0.00 in0.0 mm 0.00 in0.0 mm 0.00 in0.0 mm
05:40 AM 66.7°F19.3°C 58.0°F14.4°C 73% Calm Calm -- 29.00 in982.1 mb 0.00 in0.0 mm 0.00 in0.0 mm 0.00 in0.0 mm
05:39 AM 66.9°F19.4°C 58.1°F14.5°C 73% Calm Calm -- 29.00 in982.1 mb 0.00 in0.0 mm 0.00 in0.0 mm 0.00 in0.0 mm
05:38 AM 66.9°F19.4°C 58.2°F14.6°C 73% Calm Calm -- 29.00 in982.1 mb 0.00 in0.0 mm 0.00 in0.0 mm 0.00 in0.0 mm
05:37 AM 66.9°F19.4°C 58.2°F14.6°C 73% Calm Calm -- 29.00 in982.1 mb 0.00 in0.0 mm 0.00 in0.0 mm 0.00 in0.0 mm
05:36 AM 66.9°F19.4°C 58.2°F14.6°C 73% Calm Calm -- 29.00 in982.1 mb 0.00 in0.0 mm 0.00 in0.0 mm 0.00 in0.0 mm
05:35 AM 66.9°F19.4°C 57.7°F14.3°C 72% Calm Calm -- 29.00 in982.1 mb 0.00 in0.0 mm 0.00 in0.0 mm 0.00 in0.0 mm
05:34 AM 66.9°F19.4°C 57.7°F14.3°C 72% Calm Calm -- 29.00 in982.1 mb 0.00 in0.0 mm 0.00 in0.0 mm 0.00 in0.0 mm
05:33 AM 66.9°F19.4°C 57.7°F14.3°C 72% Calm Calm -- 29.00 in982.1 mb 0.00 in0.0 mm 0.00 in0.0 mm 0.00 in0.0 mm
05:32 AM 66.9°F19.4°C 57.7°F14.3°C 72% Calm Calm -- 29.00 in982.1 mb 0.00 in0.0 mm 0.00 in0.0 mm 0.00 in0.0 mm
05:31 AM 66.9°F19.4°C 57.7°F14.3°C 72% Calm Calm -- 29.00 in982.1 mb 0.00 in0.0 mm 0.00 in0.0 mm 0.00 in0.0 mm
05:30 AM 66.9°F19.4°C 57.7°F14.3°C 72% Calm Calm -- 29.03 in983.1 mb 0.00 in0.0 mm 0.00 in0.0 mm 0.00 in0.0 mm
05:29 AM 66.9°F19.4°C 57.7°F14.3°C 72% Calm Calm -- 29.03 in983.1 mb 0.00 in0.0 mm 0.00 in0.0 mm 0.00 in0.0 mm
05:28 AM 66.9°F19.4°C 57.7°F14.3°C 72% Calm Calm -- 29.03 in983.1 mb 0.00 in0.0 mm 0.00 in0.0 mm 0.00 in0.0 mm
05:27 AM 66.9°F19.4°C 57.7°F14.3°C 72% Calm Calm 3.2 mph5.1 kmh 29.03 in983.1 mb 0.00 in0.0 mm 0.00 in0.0 mm 0.00 in0.0 mm
05:26 AM 66.9°F19.4°C 57.7°F14.3°C 72% Calm Calm 3.2 mph5.1 kmh 29.03 in983.1 mb 0.00 in0.0 mm 0.00 in0.0 mm 0.00 in0.0 mm
05:25 AM 66.9°F19.4°C 57.7°F14.3°C 72% Calm Calm 3.9 mph6.3 kmh 29.03 in983.1 mb 0.00 in0.0 mm 0.00 in0.0 mm 0.00 in0.0 mm
05:24 AM 66.9°F19.4°C 57.7°F14.3°C 72% Calm Calm 3.9 mph6.3 kmh 29.03 in983.1 mb 0.00 in0.0 mm 0.00 in0.0 mm 0.00 in0.0 mm
05:23 AM 66.9°F19.4°C 57.3°F14.1°C 71% Calm Calm 3.9 mph6.3 kmh 29.03 in983.1 mb 0.00 in0.0 mm 0.00 in0.0 mm 0.00 in0.0 mm
05:22 AM 66.9°F19.4°C 57.3°F14.1°C 71% Calm Calm 3.9 mph6.3 kmh 29.03 in983.1 mb 0.00 in0.0 mm 0.00 in0.0 mm 0.00 in0.0 mm
05:20 AM 67.1°F19.5°C 57.5°F14.2°C 71% Calm Calm 3.9 mph6.3 kmh 29.03 in983.1 mb 0.00 in0.0 mm 0.00 in0.0 mm 0.00 in0.0 mm
05:19 AM 67.3°F19.6°C 57.7°F14.3°C 71% Calm Calm 3.9 mph6.3 kmh 29.03 in983.1 mb 0.00 in0.0 mm 0.00 in0.0 mm 0.00 in0.0 mm
05:18 AM 67.3°F19.6°C 57.7°F14.3°C 71% Calm Calm 3.9 mph6.3 kmh 29.03 in983.1 mb 0.00 in0.0 mm 0.00 in0.0 mm 0.00 in0.0 mm
05:17 AM 67.3°F19.6°C 57.7°F14.3°C 71% Calm Calm 4.5 mph7.2 kmh 29.03 in983.1 mb 0.00 in0.0 mm 0.00 in0.0 mm 0.00 in0.0 mm
05:16 AM 67.5°F19.7°C 57.9°F14.4°C 71% Calm Calm 4.5 mph7.2 kmh 29.03 in983.1 mb 0.00 in0.0 mm 0.00 in0.0 mm 0.00 in0.0 mm
05:15 AM 67.5°F19.7°C 57.9°F14.4°C 71% Calm Calm 4.5 mph7.2 kmh 29.03 in983.1 mb 0.00 in0.0 mm 0.00 in0.0 mm 0.00 in0.0 mm
05:14 AM 67.5°F19.7°C 57.9°F14.4°C 71% Calm Calm 4.5 mph7.2 kmh 29.03 in983.1 mb 0.00 in0.0 mm 0.00 in0.0 mm 0.00 in0.0 mm
05:13 AM 67.8°F19.9°C 58.6°F14.8°C 72% Calm Calm 4.5 mph7.2 kmh 29.03 in983.1 mb 0.00 in0.0 mm 0.00 in0.0 mm 0.00 in0.0 mm
05:12 AM 67.8°F19.9°C 58.6°F14.8°C 72% Calm Calm 4.5 mph7.2 kmh 29.03 in983.1 mb 0.00 in0.0 mm 0.00 in0.0 mm 0.00 in0.0 mm
05:11 AM 67.8°F19.9°C 58.6°F14.8°C 72% Calm Calm 4.5 mph7.2 kmh 29.03 in983.1 mb 0.00 in0.0 mm 0.00 in0.0 mm 0.00 in0.0 mm
05:10 AM 67.8°F19.9°C 58.6°F14.8°C 72% Calm Calm 4.5 mph7.2 kmh 29.03 in983.1 mb 0.00 in0.0 mm 0.00 in0.0 mm 0.00 in0.0 mm
05:09 AM 67.8°F19.9°C 58.6°F14.8°C 72% Calm Calm 4.5 mph7.2 kmh 29.03 in983.1 mb 0.00 in0.0 mm 0.00 in0.0 mm 0.00 in0.0 mm
05:08 AM 67.8°F19.9°C 58.6°F14.8°C 72% Calm Calm 4.5 mph7.2 kmh 29.03 in983.1 mb 0.00 in0.0 mm 0.00 in0.0 mm 0.00 in0.0 mm
05:07 AM 67.8°F19.9°C 58.6°F14.8°C 72% 3.0 mph W4.8 kmh W 4.5 mph7.2 kmh 29.03 in983.1 mb 0.00 in0.0 mm 0.00 in0.0 mm 0.00 in0.0 mm
05:06 AM 67.6°F19.8°C 58.0°F14.4°C 71% 3.0 mph W4.8 kmh W 4.5 mph7.2 kmh 29.03 in983.1 mb 0.00 in0.0 mm 0.00 in0.0 mm 0.00 in0.0 mm
05:05 AM 67.6°F19.8°C 58.0°F14.4°C 71% 3.0 mph W4.8 kmh W 4.5 mph7.2 kmh 29.03 in983.1 mb 0.00 in0.0 mm 0.00 in0.0 mm 0.00 in0.0 mm
05:04 AM 67.6°F19.8°C 58.0°F14.4°C 71% Calm Calm 3.9 mph6.3 kmh 29.03 in983.1 mb 0.00 in0.0 mm 0.00 in0.0 mm 0.00 in0.0 mm
05:03 AM 67.8°F19.9°C 58.2°F14.6°C 71% Calm Calm 3.2 mph5.1 kmh 29.03 in983.1 mb 0.00 in0.0 mm 0.00 in0.0 mm 0.00 in0.0 mm
05:02 AM 67.8°F19.9°C 58.2°F14.6°C 71% Calm Calm 3.2 mph5.1 kmh 29.03 in983.1 mb 0.00 in0.0 mm 0.00 in0.0 mm 0.00 in0.0 mm
05:01 AM 67.8°F19.9°C 58.2°F14.6°C 71% Calm Calm 3.2 mph5.1 kmh 29.03 in983.1 mb 0.00 in0.0 mm 0.00 in0.0 mm 0.00 in0.0 mm
05:00 AM 67.8°F19.9°C 58.2°F14.6°C 71% Calm Calm 3.2 mph5.1 kmh 29.03 in983.1 mb 0.00 in0.0 mm 0.00 in0.0 mm 0.00 in0.0 mm
04:59 AM 67.8°F19.9°C 58.2°F14.6°C 71% Calm Calm 3.2 mph5.1 kmh 29.03 in983.1 mb 0.00 in0.0 mm 0.00 in0.0 mm 0.00 in0.0 mm
04:58 AM 67.8°F19.9°C 58.2°F14.6°C 71% Calm Calm 3.2 mph5.1 kmh 29.03 in983.1 mb 0.00 in0.0 mm 0.00 in0.0 mm 0.00 in0.0 mm
04:57 AM 67.8°F19.9°C 58.2°F14.6°C 71% Calm Calm 4.5 mph7.2 kmh 29.03 in983.1 mb 0.00 in0.0 mm 0.00 in0.0 mm 0.00 in0.0 mm
04:56 AM 67.8°F19.9°C 58.7°F14.8°C 72% Calm Calm 4.5 mph7.2 kmh 29.03 in983.1 mb 0.00 in0.0 mm 0.00 in0.0 mm 0.00 in0.0 mm
04:55 AM 67.8°F19.9°C 58.7°F14.8°C 72% Calm Calm 4.5 mph7.2 kmh 29.03 in983.1 mb 0.00 in0.0 mm 0.00 in0.0 mm 0.00 in0.0 mm
04:54 AM 67.8°F19.9°C 58.7°F14.8°C 72% Calm Calm 4.5 mph7.2 kmh 29.03 in983.1 mb 0.00 in0.0 mm 0.00 in0.0 mm 0.00 in0.0 mm
04:53 AM 67.8°F19.9°C 58.7°F14.8°C 72% Calm Calm 4.5 mph7.2 kmh 29.03 in983.1 mb 0.00 in0.0 mm 0.00 in0.0 mm 0.00 in0.0 mm
04:52 AM 67.8°F19.9°C 58.7°F14.8°C 72% Calm Calm 4.5 mph7.2 kmh 29.03 in983.1 mb 0.00 in0.0 mm 0.00 in0.0 mm 0.00 in0.0 mm
04:51 AM 67.6°F19.8°C 58.5°F14.7°C 72% Calm Calm 5.2 mph8.4 kmh 29.03 in983.1 mb 0.00 in0.0 mm 0.00 in0.0 mm 0.00 in0.0 mm
04:50 AM 67.5°F19.7°C 58.4°F14.7°C 72% Calm Calm 5.2 mph8.4 kmh 29.03 in983.1 mb 0.00 in0.0 mm 0.00 in0.0 mm 0.00 in0.0 mm
04:49 AM 67.5°F19.7°C 58.4°F14.7°C 72% Calm Calm 5.2 mph8.4 kmh 29.03 in983.1 mb 0.00 in0.0 mm 0.00 in0.0 mm 0.00 in0.0 mm
04:48 AM 67.3°F19.6°C 57.7°F14.3°C 71% Calm Calm 5.2 mph8.4 kmh 29.03 in983.1 mb 0.00 in0.0 mm 0.00 in0.0 mm 0.00 in0.0 mm
04:47 AM 67.3°F19.6°C 57.7°F14.3°C 71% Calm Calm 5.2 mph8.4 kmh 29.03 in983.1 mb 0.00 in0.0 mm 0.00 in0.0 mm 0.00 in0.0 mm
04:46 AM 67.1°F19.5°C 57.6°F14.2°C 71% Calm Calm 5.2 mph8.4 kmh 29.03 in983.1 mb 0.00 in0.0 mm 0.00 in0.0 mm 0.00 in0.0 mm
04:45 AM 67.1°F19.5°C 57.1°F13.9°C 70% Calm Calm 5.2 mph8.4 kmh 29.00 in982.1 mb 0.00 in0.0 mm 0.00 in0.0 mm 0.00 in0.0 mm
04:44 AM 66.9°F19.4°C 56.9°F13.8°C 70% 3.0 mph W4.8 kmh W 5.2 mph8.4 kmh 29.00 in982.1 mb 0.00 in0.0 mm 0.00 in0.0 mm 0.00 in0.0 mm
04:43 AM 66.9°F19.4°C 56.9°F13.8°C 70% 3.0 mph W4.8 kmh W 5.2 mph8.4 kmh 29.00 in982.1 mb 0.00 in0.0 mm 0.00 in0.0 mm 0.00 in0.0 mm
04:42 AM 66.9°F19.4°C 56.9°F13.8°C 70% 3.0 mph W4.8 kmh W 5.2 mph8.4 kmh 29.00 in982.1 mb 0.00 in0.0 mm 0.00 in0.0 mm 0.00 in0.0 mm
04:41 AM 66.9°F19.4°C 56.9°F13.8°C 70% 3.0 mph W4.8 kmh W 5.2 mph8.4 kmh 29.00 in982.1 mb 0.00 in0.0 mm 0.00 in0.0 mm 0.00 in0.0 mm
04:40 AM 66.9°F19.4°C 56.9°F13.8°C 70% 3.0 mph W4.8 kmh W 5.2 mph8.4 kmh 29.00 in982.1 mb 0.00 in0.0 mm 0.00 in0.0 mm 0.00 in0.0 mm
04:39 AM 66.9°F19.4°C 56.9°F13.8°C 70% 3.0 mph W4.8 kmh W 5.2 mph8.4 kmh 29.00 in982.1 mb 0.00 in0.0 mm 0.00 in0.0 mm 0.00 in0.0 mm
04:38 AM 66.9°F19.4°C 56.9°F13.8°C 70% 3.0 mph W4.8 kmh W 5.2 mph8.4 kmh 29.00 in982.1 mb 0.00 in0.0 mm 0.00 in0.0 mm 0.00 in0.0 mm
04:37 AM 66.9°F19.4°C 56.9°F13.8°C 70% 3.0 mph W4.8 kmh W 5.2 mph8.4 kmh 29.00 in982.1 mb 0.00 in0.0 mm 0.00 in0.0 mm 0.00 in0.0 mm
04:36 AM 66.9°F19.4°C 56.9°F13.8°C 70% 3.0 mph W4.8 kmh W 5.2 mph8.4 kmh 29.00 in982.1 mb 0.00 in0.0 mm 0.00 in0.0 mm 0.00 in0.0 mm
04:35 AM 66.9°F19.4°C 56.9°F13.8°C 70% 3.0 mph W4.8 kmh W 5.2 mph8.4 kmh 29.00 in982.1 mb 0.00 in0.0 mm 0.00 in0.0 mm 0.00 in0.0 mm
04:34 AM 66.9°F19.4°C 56.9°F13.8°C 70% 3.0 mph W4.8 kmh W 5.2 mph8.4 kmh 29.00 in982.1 mb 0.00 in0.0 mm 0.00 in0.0 mm 0.00 in0.0 mm
04:33 AM 66.7°F19.3°C 56.3°F13.5°C 69% 3.0 mph WNW4.8 kmh WNW 5.2 mph8.4 kmh 29.00 in982.1 mb 0.00 in0.0 mm 0.00 in0.0 mm 0.00 in0.0 mm
04:32 AM 66.7°F19.3°C 56.3°F13.5°C 69% 3.0 mph WNW4.8 kmh WNW 5.2 mph8.4 kmh 29.00 in982.1 mb 0.00 in0.0 mm 0.00 in0.0 mm 0.00 in0.0 mm
04:31 AM 66.7°F19.3°C 56.3°F13.5°C 69% 3.0 mph WNW4.8 kmh WNW 4.5 mph7.2 kmh 29.00 in982.1 mb 0.00 in0.0 mm 0.00 in0.0 mm 0.00 in0.0 mm
04:30 AM 66.7°F19.3°C 56.3°F13.5°C 69% Calm Calm 3.2 mph5.1 kmh 29.00 in982.1 mb 0.00 in0.0 mm 0.00 in0.0 mm 0.00 in0.0 mm
04:28 AM 66.9°F19.4°C 56.5°F13.6°C 69% Calm Calm -- 29.00 in982.1 mb 0.00 in0.0 mm 0.00 in0.0 mm 0.00 in0.0 mm
04:27 AM 66.9°F19.4°C 56.5°F13.6°C 69% Calm Calm -- 29.00 in982.1 mb 0.00 in0.0 mm 0.00 in0.0 mm 0.00 in0.0 mm
04:26 AM 66.9°F19.4°C 56.5°F13.6°C 69% Calm Calm -- 29.00 in982.1 mb 0.00 in0.0 mm 0.00 in0.0 mm 0.00 in0.0 mm
04:25 AM 66.9°F19.4°C 56.5°F13.6°C 69% Calm Calm -- 29.00 in982.1 mb 0.00 in0.0 mm 0.00 in0.0 mm 0.00 in0.0 mm
04:24 AM 66.9°F19.4°C 56.5°F13.6°C 69% Calm Calm -- 29.00 in982.1 mb 0.00 in0.0 mm 0.00 in0.0 mm 0.00 in0.0 mm
04:23 AM 66.9°F19.4°C 56.5°F13.6°C 69% Calm Calm 3.9 mph6.3 kmh 29.00 in982.1 mb 0.00 in0.0 mm 0.00 in0.0 mm 0.00 in0.0 mm
04:22 AM 66.9°F19.4°C 56.5°F13.6°C 69% Calm Calm 3.9 mph6.3 kmh 29.00 in982.1 mb 0.00 in0.0 mm 0.00 in0.0 mm 0.00 in0.0 mm
04:21 AM 66.9°F19.4°C 56.5°F13.6°C 69% Calm Calm 3.9 mph6.3 kmh 29.00 in982.1 mb 0.00 in0.0 mm 0.00 in0.0 mm 0.00 in0.0 mm
04:20 AM 66.9°F19.4°C 56.5°F13.6°C 69% Calm Calm 4.5 mph7.2 kmh 29.00 in982.1 mb 0.00 in0.0 mm 0.00 in0.0 mm 0.00 in0.0 mm
04:19 AM 66.9°F19.4°C 56.5°F13.6°C 69% Calm Calm 4.5 mph7.2 kmh 29.00 in982.1 mb 0.00 in0.0 mm 0.00 in0.0 mm 0.00 in0.0 mm
04:18 AM 66.9°F19.4°C 56.5°F13.6°C 69% Calm Calm 4.5 mph7.2 kmh 29.00 in982.1 mb 0.00 in0.0 mm 0.00 in0.0 mm 0.00 in0.0 mm
04:17 AM 66.9°F19.4°C 56.5°F13.6°C 69% Calm Calm 4.5 mph7.2 kmh 29.00 in982.1 mb 0.00 in0.0 mm 0.00 in0.0 mm 0.00 in0.0 mm
04:16 AM 66.9°F19.4°C 56.5°F13.6°C 69% Calm Calm 4.5 mph7.2 kmh 29.00 in982.1 mb 0.00 in0.0 mm 0.00 in0.0 mm 0.00 in0.0 mm
04:15 AM 66.9°F19.4°C 56.5°F13.6°C 69% Calm Calm 4.5 mph7.2 kmh 29.00 in982.1 mb 0.00 in0.0 mm 0.00 in0.0 mm 0.00 in0.0 mm
04:14 AM 66.9°F19.4°C 56.0°F13.3°C 68% 3.0 mph WNW4.8 kmh WNW 4.5 mph7.2 kmh 29.00 in982.1 mb 0.00 in0.0 mm 0.00 in0.0 mm 0.00 in0.0 mm
04:13 AM 66.9°F19.4°C 56.0°F13.3°C 68% 3.0 mph WNW4.8 kmh WNW 4.5 mph7.2 kmh 29.00 in982.1 mb 0.00 in0.0 mm 0.00 in0.0 mm 0.00 in0.0 mm
04:12 AM 67.1°F19.5°C 56.2°F13.4°C 68% 3.0 mph WNW4.8 kmh WNW 4.5 mph7.2 kmh 29.00 in982.1 mb 0.00 in0.0 mm 0.00 in0.0 mm 0.00 in0.0 mm
04:11 AM 67.1°F19.5°C 56.2°F13.4°C 68% 3.0 mph WNW4.8 kmh WNW 4.5 mph7.2 kmh 29.00 in982.1 mb 0.00 in0.0 mm 0.00 in0.0 mm 0.00 in0.0 mm
04:10 AM 67.1°F19.5°C 56.2°F13.4°C 68% 3.0 mph WNW4.8 kmh WNW 4.5 mph7.2 kmh 29.00 in982.1 mb 0.00 in0.0 mm 0.00 in0.0 mm 0.00 in0.0 mm
04:09 AM 67.1°F19.5°C 56.2°F13.4°C 68% Calm Calm 4.5 mph7.2 kmh 29.00 in982.1 mb 0.00 in0.0 mm 0.00 in0.0 mm 0.00 in0.0 mm
04:08 AM 67.1°F19.5°C 56.2°F13.4°C 68% Calm Calm 3.9 mph6.3 kmh 29.00 in982.1 mb 0.00 in0.0 mm 0.00 in0.0 mm 0.00 in0.0 mm
04:07 AM 67.1°F19.5°C 56.2°F13.4°C 68% Calm Calm 3.9 mph6.3 kmh 29.00 in982.1 mb 0.00 in0.0 mm 0.00 in0.0 mm 0.00 in0.0 mm
04:06 AM 67.1°F19.5°C 56.2°F13.4°C 68% Calm Calm 3.9 mph6.3 kmh 29.00 in982.1 mb 0.00 in0.0 mm 0.00 in0.0 mm 0.00 in0.0 mm
04:05 AM 67.1°F19.5°C 56.2°F13.4°C 68% Calm Calm 3.9 mph6.3 kmh 29.00 in982.1 mb 0.00 in0.0 mm 0.00 in0.0 mm 0.00 in0.0 mm
04:04 AM 67.1°F19.5°C 56.2°F13.4°C 68% Calm Calm 3.9 mph6.3 kmh 29.00 in982.1 mb 0.00 in0.0 mm 0.00 in0.0 mm 0.00 in0.0 mm
04:03 AM 67.1°F19.5°C 56.2°F13.4°C 68% Calm Calm 4.5 mph7.2 kmh 29.00 in982.1 mb 0.00 in0.0 mm 0.00 in0.0 mm 0.00 in0.0 mm
04:02 AM 67.1°F19.5°C 56.2°F13.4°C 68% Calm Calm 4.5 mph7.2 kmh 29.00 in982.1 mb 0.00 in0.0 mm 0.00 in0.0 mm 0.00 in0.0 mm
04:01 AM 67.1°F19.5°C 55.8°F13.2°C 67% Calm Calm 5.2 mph8.4 kmh 29.00 in982.1 mb 0.00 in0.0 mm 0.00 in0.0 mm 0.00 in0.0 mm
04:00 AM 67.1°F19.5°C 55.8°F13.2°C 67% Calm Calm 5.2 mph8.4 kmh 29.00 in982.1 mb 0.00 in0.0 mm 0.00 in0.0 mm 0.00 in0.0 mm
03:59 AM 67.1°F19.5°C 55.8°F13.2°C 67% Calm Calm 5.2 mph8.4 kmh 29.00 in982.1 mb 0.00 in0.0 mm 0.00 in0.0 mm 0.00 in0.0 mm
03:58 AM 67.3°F19.6°C 56.0°F13.3°C 67% Calm Calm 5.2 mph8.4 kmh 29.00 in982.1 mb 0.00 in0.0 mm 0.00 in0.0 mm 0.00 in0.0 mm
03:57 AM 67.3°F19.6°C 56.0°F13.3°C 67% Calm Calm 5.2 mph8.4 kmh 29.00 in982.1 mb 0.00 in0.0 mm 0.00 in0.0 mm 0.00 in0.0 mm
03:56 AM 67.3°F19.6°C 56.0°F13.3°C 67% 3.0 mph WNW4.8 kmh WNW 5.2 mph8.4 kmh 29.00 in982.1 mb 0.00 in0.0 mm 0.00 in0.0 mm 0.00 in0.0 mm
03:55 AM 67.3°F19.6°C 56.0°F13.3°C 67% 3.0 mph WNW4.8 kmh WNW 5.2 mph8.4 kmh 29.00 in982.1 mb 0.00 in0.0 mm 0.00 in0.0 mm 0.00 in0.0 mm
03:54 AM 67.5°F19.7°C 56.2°F13.4°C 67% 3.3 mph WNW5.3 kmh WNW 5.2 mph8.4 kmh 29.00 in982.1 mb 0.00 in0.0 mm 0.00 in0.0 mm 0.00 in0.0 mm
03:53 AM 67.5°F19.7°C 56.2°F13.4°C 67% 3.5 mph WNW5.6 kmh WNW 5.2 mph8.4 kmh 29.00 in982.1 mb 0.00 in0.0 mm 0.00 in0.0 mm 0.00 in0.0 mm
03:52 AM 67.5°F19.7°C 56.2°F13.4°C 67% 3.7 mph WNW6.0 kmh WNW 5.2 mph8.4 kmh 29.00 in982.1 mb 0.00 in0.0 mm 0.00 in0.0 mm 0.00 in0.0 mm
03:51 AM 67.6°F19.8°C 56.3°F13.5°C 67% Calm Calm 4.5 mph7.2 kmh 29.00 in982.1 mb 0.00 in0.0 mm 0.00 in0.0 mm 0.00 in0.0 mm
03:50 AM 67.6°F19.8°C 55.8°F13.2°C 65% Calm Calm 4.5 mph7.2 kmh 29.00 in982.1 mb 0.00 in0.0 mm 0.00 in0.0 mm 0.00 in0.0 mm
03:49 AM 67.8°F19.9°C 56.0°F13.3°C 65% Calm Calm 4.5 mph7.2 kmh 29.00 in982.1 mb 0.00 in0.0 mm 0.00 in0.0 mm 0.00 in0.0 mm
03:48 AM 67.8°F19.9°C 56.0°F13.3°C 65% Calm Calm 4.5 mph7.2 kmh 29.00 in982.1 mb 0.00 in0.0 mm 0.00 in0.0 mm 0.00 in0.0 mm
03:47 AM 68.0°F20.0°C 56.2°F13.4°C 65% Calm Calm 4.5 mph7.2 kmh 29.00 in982.1 mb 0.00 in0.0 mm 0.00 in0.0 mm 0.00 in0.0 mm
03:46 AM 68.2°F20.1°C 56.8°F13.8°C 67% Calm Calm 4.5 mph7.2 kmh 29.00 in982.1 mb 0.00 in0.0 mm 0.00 in0.0 mm 0.00 in0.0 mm
03:45 AM 68.2°F20.1°C 56.8°F13.8°C 67% Calm Calm 4.5 mph7.2 kmh 29.00 in982.1 mb 0.00 in0.0 mm 0.00 in0.0 mm 0.00 in0.0 mm
03:44 AM 68.4°F20.2°C 57.0°F13.9°C 67% Calm Calm 4.5 mph7.2 kmh 29.00 in982.1 mb 0.00 in0.0 mm 0.00 in0.0 mm 0.00 in0.0 mm
03:43 AM 68.4°F20.2°C 57.0°F13.9°C 67% Calm Calm 3.9 mph6.3 kmh 29.00 in982.1 mb 0.00 in0.0 mm 0.00 in0.0 mm 0.00 in0.0 mm
03:42 AM 68.4°F20.2°C 57.0°F13.9°C 67% 3.0 mph WNW4.8 kmh WNW 3.9 mph6.3 kmh 29.00 in982.1 mb 0.00 in0.0 mm 0.00 in0.0 mm 0.00 in0.0 mm
03:41 AM 68.4°F20.2°C 57.0°F13.9°C 67% 3.0 mph WNW4.8 kmh WNW 3.9 mph6.3 kmh 29.00 in982.1 mb 0.00 in0.0 mm 0.00 in0.0 mm 0.00 in0.0 mm
03:40 AM 68.4°F20.2°C 56.6°F13.7°C 66% 3.0 mph WNW4.8 kmh WNW 3.9 mph6.3 kmh 29.00 in982.1 mb 0.00 in0.0 mm 0.00 in0.0 mm 0.00 in0.0 mm
03:39 AM 68.5°F20.3°C 57.1°F13.9°C 67% 3.0 mph WNW4.8 kmh WNW 3.9 mph6.3 kmh 29.00 in982.1 mb 0.00 in0.0 mm 0.00 in0.0 mm 0.00 in0.0 mm
03:38 AM 68.5°F20.3°C 57.1°F13.9°C 67% Calm Calm 3.2 mph5.1 kmh 29.00 in982.1 mb 0.00 in0.0 mm 0.00 in0.0 mm 0.00 in0.0 mm
03:37 AM 68.5°F20.3°C 57.1°F13.9°C 67% Calm Calm -- 29.00 in982.1 mb 0.00 in0.0 mm 0.00 in0.0 mm 0.00 in0.0 mm
03:36 AM 68.5°F20.3°C 57.1°F13.9°C 67% Calm Calm -- 29.00 in982.1 mb 0.00 in0.0 mm 0.00 in0.0 mm 0.00 in0.0 mm
03:35 AM 68.5°F20.3°C 57.2°F14.0°C 67% Calm Calm -- 29.00 in982.1 mb 0.00 in0.0 mm 0.00 in0.0 mm 0.00 in0.0 mm
03:34 AM 68.4°F20.2°C 57.1°F13.9°C 67% Calm Calm -- 29.00 in982.1 mb 0.00 in0.0 mm 0.00 in0.0 mm 0.00 in0.0 mm
03:33 AM 68.4°F20.2°C 56.6°F13.7°C 66% Calm Calm -- 29.00 in982.1 mb 0.00 in0.0 mm 0.00 in0.0 mm 0.00 in0.0 mm
03:32 AM 68.4°F20.2°C 56.6°F13.7°C 66% Calm Calm -- 29.00 in982.1 mb 0.00 in0.0 mm 0.00 in0.0 mm 0.00 in0.0 mm
03:31 AM 68.4°F20.2°C 56.6°F13.7°C 66% Calm Calm -- 29.00 in982.1 mb 0.00 in0.0 mm 0.00 in0.0 mm 0.00 in0.0 mm
03:30 AM 68.4°F20.2°C 56.6°F13.7°C 66% Calm Calm -- 29.00 in982.1 mb 0.00 in0.0 mm 0.00 in0.0 mm 0.00 in0.0 mm
03:29 AM 68.4°F20.2°C 56.6°F13.7°C 66% Calm Calm -- 29.00 in982.1 mb 0.00 in0.0 mm 0.00 in0.0 mm 0.00 in0.0 mm
03:28 AM 68.4°F20.2°C 56.6°F13.7°C 66% Calm Calm -- 29.00 in982.1 mb 0.00 in0.0 mm 0.00 in0.0 mm 0.00 in0.0 mm
03:27 AM 68.4°F20.2°C 56.6°F13.7°C 66% Calm Calm -- 29.00 in982.1 mb 0.00 in0.0 mm 0.00 in0.0 mm 0.00 in0.0 mm
03:26 AM 68.4°F20.2°C 56.6°F13.7°C 66% Calm Calm -- 29.00 in982.1 mb 0.00 in0.0 mm 0.00 in0.0 mm 0.00 in0.0 mm
03:25 AM 68.4°F20.2°C 56.1°F13.4°C 64% Calm Calm -- 29.00 in982.1 mb 0.00 in0.0 mm 0.00 in0.0 mm 0.00 in0.0 mm
03:24 AM 68.4°F20.2°C 56.1°F13.4°C 64% Calm Calm -- 29.00 in982.1 mb 0.00 in0.0 mm 0.00 in0.0 mm 0.00 in0.0 mm
03:23 AM 68.4°F20.2°C 56.1°F13.4°C 64% Calm Calm -- 29.00 in982.1 mb 0.00 in0.0 mm 0.00 in0.0 mm 0.00 in0.0 mm
03:22 AM 68.4°F20.2°C 56.1°F13.4°C 64% Calm Calm -- 29.00 in982.1 mb 0.00 in0.0 mm 0.00 in0.0 mm 0.00 in0.0 mm
03:21 AM 68.5°F20.3°C 56.2°F13.4°C 64% Calm Calm -- 29.00 in982.1 mb 0.00 in0.0 mm 0.00 in0.0 mm 0.00 in0.0 mm
03:20 AM 68.5°F20.3°C 56.2°F13.4°C 64% Calm Calm -- 29.00 in982.1 mb 0.00 in0.0 mm 0.00 in0.0 mm 0.00 in0.0 mm
03:19 AM 68.5°F20.3°C 56.2°F13.4°C 64% Calm Calm -- 29.00 in982.1 mb 0.00 in0.0 mm 0.00 in0.0 mm 0.00 in0.0 mm
03:18 AM 68.5°F20.3°C 56.2°F13.4°C 64% Calm Calm -- 29.00 in982.1 mb 0.00 in0.0 mm 0.00 in0.0 mm 0.00 in0.0 mm
03:17 AM 68.7°F20.4°C 56.4°F13.6°C 64% Calm Calm -- 29.00 in982.1 mb 0.00 in0.0 mm 0.00 in0.0 mm 0.00 in0.0 mm
03:16 AM 68.7°F20.4°C 56.4°F13.6°C 64% Calm Calm -- 29.00 in982.1 mb 0.00 in0.0 mm 0.00 in0.0 mm 0.00 in0.0 mm
03:15 AM 68.7°F20.4°C 56.4°F13.6°C 64% Calm Calm -- 29.03 in983.1 mb 0.00 in0.0 mm 0.00 in0.0 mm 0.00 in0.0 mm
03:14 AM 68.7°F20.4°C 56.4°F13.6°C 64% Calm Calm -- 29.03 in983.1 mb 0.00 in0.0 mm 0.00 in0.0 mm 0.00 in0.0 mm
03:13 AM 68.7°F20.4°C 56.4°F13.6°C 64% Calm Calm -- 29.03 in983.1 mb 0.00 in0.0 mm 0.00 in0.0 mm 0.00 in0.0 mm
03:12 AM 68.9°F20.5°C 56.6°F13.7°C 64% Calm Calm -- 29.03 in983.1 mb 0.00 in0.0 mm 0.00 in0.0 mm 0.00 in0.0 mm
03:11 AM 68.9°F20.5°C 56.1°F13.4°C 63% Calm Calm -- 29.03 in983.1 mb 0.00 in0.0 mm 0.00 in0.0 mm 0.00 in0.0 mm
03:10 AM 68.9°F20.5°C 56.1°F13.4°C 63% Calm Calm -- 29.03 in983.1 mb 0.00 in0.0 mm 0.00 in0.0 mm 0.00 in0.0 mm
03:09 AM 68.9°F20.5°C 56.1°F13.4°C 63% Calm Calm -- 29.03 in983.1 mb 0.00 in0.0 mm 0.00 in0.0 mm 0.00 in0.0 mm
03:08 AM 69.1°F20.6°C 56.3°F13.5°C 63% Calm Calm -- 29.03 in983.1 mb 0.00 in0.0 mm 0.00 in0.0 mm 0.00 in0.0 mm
03:07 AM 69.1°F20.6°C 56.3°F13.5°C 63% Calm Calm -- 29.03 in983.1 mb 0.00 in0.0 mm 0.00 in0.0 mm 0.00 in0.0 mm
03:06 AM 69.1°F20.6°C 56.3°F13.5°C 63% Calm Calm -- 29.03 in983.1 mb 0.00 in0.0 mm 0.00 in0.0 mm 0.00 in0.0 mm
03:05 AM 69.1°F20.6°C 56.3°F13.5°C 63% Calm Calm 4.5 mph7.2 kmh 29.03 in983.1 mb 0.00 in0.0 mm 0.00 in0.0 mm 0.00 in0.0 mm
03:04 AM 69.3°F20.7°C 56.5°F13.6°C 63% Calm Calm 5.2 mph8.4 kmh 29.03 in983.1 mb 0.00 in0.0 mm 0.00 in0.0 mm 0.00 in0.0 mm
03:03 AM 69.3°F20.7°C 56.5°F13.6°C 63% Calm Calm 5.2 mph8.4 kmh 29.03 in983.1 mb 0.00 in0.0 mm 0.00 in0.0 mm 0.00 in0.0 mm
03:02 AM 69.3°F20.7°C 56.5°F13.6°C 63% Calm Calm 5.2 mph8.4 kmh 29.03 in983.1 mb 0.00 in0.0 mm 0.00 in0.0 mm 0.00 in0.0 mm
03:01 AM 69.3°F20.7°C 56.5°F13.6°C 63% Calm Calm 5.2 mph8.4 kmh 29.03 in983.1 mb 0.00 in0.0 mm 0.00 in0.0 mm 0.00 in0.0 mm
03:00 AM 69.4°F20.8°C 56.6°F13.7°C 63% Calm Calm 5.2 mph8.4 kmh 29.00 in982.1 mb 0.00 in0.0 mm 0.00 in0.0 mm 0.00 in0.0 mm
02:59 AM 69.4°F20.8°C 56.6°F13.7°C 63% Calm Calm 5.2 mph8.4 kmh 29.00 in982.1 mb 0.00 in0.0 mm 0.00 in0.0 mm 0.00 in0.0 mm
02:58 AM 69.4°F20.8°C 56.6°F13.7°C 63% Calm Calm 5.2 mph8.4 kmh 29.00 in982.1 mb 0.00 in0.0 mm 0.00 in0.0 mm 0.00 in0.0 mm
02:57 AM 69.4°F20.8°C 56.6°F13.7°C 63% 3.7 mph WNW6.0 kmh WNW 5.2 mph8.4 kmh 29.00 in982.1 mb 0.00 in0.0 mm 0.00 in0.0 mm 0.00 in0.0 mm
02:56 AM 69.4°F20.8°C 56.6°F13.7°C 63% 3.7 mph WNW6.0 kmh WNW 5.2 mph8.4 kmh 29.00 in982.1 mb 0.00 in0.0 mm 0.00 in0.0 mm 0.00 in0.0 mm
02:55 AM 69.4°F20.8°C 56.6°F13.7°C 63% 3.7 mph WNW6.0 kmh WNW 5.2 mph8.4 kmh 29.00 in982.1 mb 0.00 in0.0 mm 0.00 in0.0 mm 0.00 in0.0 mm
02:54 AM 69.4°F20.8°C 56.6°F13.7°C 63% Calm Calm 4.5 mph7.2 kmh 29.00 in982.1 mb 0.00 in0.0 mm 0.00 in0.0 mm 0.00 in0.0 mm
02:53 AM 69.4°F20.8°C 56.6°F13.7°C 63% Calm Calm 4.5 mph7.2 kmh 29.00 in982.1 mb 0.00 in0.0 mm 0.00 in0.0 mm 0.00 in0.0 mm
02:52 AM 69.4°F20.8°C 56.6°F13.7°C 63% Calm Calm 4.5 mph7.2 kmh 29.00 in982.1 mb 0.00 in0.0 mm 0.00 in0.0 mm 0.00 in0.0 mm
02:51 AM 69.4°F20.8°C 56.6°F13.7°C 63% Calm Calm 4.5 mph7.2 kmh 29.00 in982.1 mb 0.00 in0.0 mm 0.00 in0.0 mm 0.00 in0.0 mm
02:50 AM 69.4°F20.8°C 56.6°F13.7°C 63% Calm Calm 4.5 mph7.2 kmh 29.00 in982.1 mb 0.00 in0.0 mm 0.00 in0.0 mm 0.00 in0.0 mm
02:49 AM 69.3°F20.7°C 56.5°F13.6°C 63% Calm Calm 4.5 mph7.2 kmh 29.00 in982.1 mb 0.00 in0.0 mm 0.00 in0.0 mm 0.00 in0.0 mm
02:48 AM 69.3°F20.7°C 56.0°F13.3°C 62% Calm Calm 4.5 mph7.2 kmh 29.00 in982.1 mb 0.00 in0.0 mm 0.00 in0.0 mm 0.00 in0.0 mm
02:47 AM 69.3°F20.7°C 56.0°F13.3°C 62% Calm Calm 4.5 mph7.2 kmh 29.00 in982.1 mb 0.00 in0.0 mm 0.00 in0.0 mm 0.00 in0.0 mm
02:46 AM 69.3°F20.7°C 56.0°F13.3°C 62% Calm Calm 5.2 mph8.4 kmh 29.00 in982.1 mb 0.00 in0.0 mm 0.00 in0.0 mm 0.00 in0.0 mm
02:45 AM 69.3°F20.7°C 56.0°F13.3°C 62% Calm Calm 5.2 mph8.4 kmh 29.00 in982.1 mb 0.00 in0.0 mm 0.00 in0.0 mm 0.00 in0.0 mm
02:44 AM 69.3°F20.7°C 56.0°F13.3°C 62% Calm Calm 5.2 mph8.4 kmh 29.00 in982.1 mb 0.00 in0.0 mm 0.00 in0.0 mm 0.00 in0.0 mm
02:43 AM 69.3°F20.7°C 56.0°F13.3°C 62% Calm Calm 5.2 mph8.4 kmh 29.00 in982.1 mb 0.00 in0.0 mm 0.00 in0.0 mm 0.00 in0.0 mm
02:42 AM 69.4°F20.8°C 56.1°F13.4°C 62% 3.0 mph WNW4.8 kmh WNW 5.2 mph8.4 kmh 29.00 in982.1 mb 0.00 in0.0 mm 0.00 in0.0 mm 0.00 in0.0 mm
02:41 AM 69.4°F20.8°C 56.1°F13.4°C 62% 3.3 mph WNW5.3 kmh WNW 5.2 mph8.4 kmh 29.00 in982.1 mb 0.00 in0.0 mm 0.00 in0.0 mm 0.00 in0.0 mm
02:40 AM 69.4°F20.8°C 56.1°F13.4°C 62% 3.4 mph WNW5.5 kmh WNW 5.2 mph8.4 kmh 29.00 in982.1 mb 0.00 in0.0 mm 0.00 in0.0 mm 0.00 in0.0 mm
02:39 AM 69.4°F20.8°C 56.1°F13.4°C 62% 3.5 mph WNW5.6 kmh WNW 5.2 mph8.4 kmh 29.00 in982.1 mb 0.00 in0.0 mm 0.00 in0.0 mm 0.00 in0.0 mm
02:38 AM 69.4°F20.8°C 56.1°F13.4°C 62% 3.5 mph WNW5.6 kmh WNW 5.2 mph8.4 kmh 29.00 in982.1 mb 0.00 in0.0 mm 0.00 in0.0 mm 0.00 in0.0 mm
02:37 AM 69.6°F20.9°C 56.3°F13.5°C 62% 3.5 mph WNW5.6 kmh WNW 5.2 mph8.4 kmh 29.00 in982.1 mb 0.00 in0.0 mm 0.00 in0.0 mm 0.00 in0.0 mm
02:36 AM 69.6°F20.9°C 55.7°F13.2°C 61% 3.0 mph WNW4.8 kmh WNW 5.2 mph8.4 kmh 29.00 in982.1 mb 0.00 in0.0 mm 0.00 in0.0 mm 0.00 in0.0 mm
02:35 AM 69.6°F20.9°C 55.7°F13.2°C 61% 3.0 mph WNW4.8 kmh WNW 5.2 mph8.4 kmh 29.00 in982.1 mb 0.00 in0.0 mm 0.00 in0.0 mm 0.00 in0.0 mm
02:34 AM 69.6°F20.9°C 55.7°F13.2°C 61% 3.0 mph WNW4.8 kmh WNW 5.2 mph8.4 kmh 29.00 in982.1 mb 0.00 in0.0 mm 0.00 in0.0 mm 0.00 in0.0 mm
02:33 AM 69.6°F20.9°C 55.7°F13.2°C 61% 3.0 mph WNW4.8 kmh WNW 5.2 mph8.4 kmh 29.00 in982.1 mb 0.00 in0.0 mm 0.00 in0.0 mm 0.00 in0.0 mm
02:32 AM 69.8°F21.0°C 55.9°F13.3°C 61% 3.0 mph WNW4.8 kmh WNW 5.2 mph8.4 kmh 29.00 in982.1 mb 0.00 in0.0 mm 0.00 in0.0 mm 0.00 in0.0 mm
02:31 AM 69.8°F21.0°C 55.9°F13.3°C 61% 3.0 mph WNW4.8 kmh WNW 5.2 mph8.4 kmh 29.00 in982.1 mb 0.00 in0.0 mm 0.00 in0.0 mm 0.00 in0.0 mm
02:30 AM 70.0°F21.1°C 56.1°F13.4°C 61% 3.4 mph WNW5.5 kmh WNW 5.2 mph8.4 kmh 29.00 in982.1 mb 0.00 in0.0 mm 0.00 in0.0 mm 0.00 in0.0 mm
02:29 AM 70.0°F21.1°C 56.1°F13.4°C 61% 3.6 mph WNW5.8 kmh WNW 4.5 mph7.2 kmh 29.00 in982.1 mb 0.00 in0.0 mm 0.00 in0.0 mm 0.00 in0.0 mm
02:28 AM 70.0°F21.1°C 56.1°F13.4°C 61% 3.7 mph WNW6.0 kmh WNW 4.5 mph7.2 kmh 29.00 in982.1 mb 0.00 in0.0 mm 0.00 in0.0 mm 0.00 in0.0 mm
02:27 AM 70.2°F21.2°C 56.3°F13.5°C 61% Calm Calm 4.5 mph7.2 kmh 29.00 in982.1 mb 0.00 in0.0 mm 0.00 in0.0 mm 0.00 in0.0 mm
02:26 AM 70.2°F21.2°C 56.3°F13.5°C 61% Calm Calm 3.2 mph5.1 kmh 29.00 in982.1 mb 0.00 in0.0 mm 0.00 in0.0 mm 0.00 in0.0 mm
02:25 AM 70.2°F21.2°C 55.8°F13.2°C 60% Calm Calm -- 29.00 in982.1 mb 0.00 in0.0 mm 0.00 in0.0 mm 0.00 in0.0 mm
02:24 AM 70.2°F21.2°C 55.8°F13.2°C 60% Calm Calm -- 29.00 in982.1 mb 0.00 in0.0 mm 0.00 in0.0 mm 0.00 in0.0 mm
02:23 AM 70.2°F21.2°C 55.8°F13.2°C 60% Calm Calm -- 29.00 in982.1 mb 0.00 in0.0 mm 0.00 in0.0 mm 0.00 in0.0 mm
02:22 AM 70.3°F21.3°C 55.9°F13.3°C 60% Calm Calm -- 29.00 in982.1 mb 0.00 in0.0 mm 0.00 in0.0 mm 0.00 in0.0 mm
02:21 AM 70.3°F21.3°C 55.9°F13.3°C 60% Calm Calm -- 29.00 in982.1 mb 0.00 in0.0 mm 0.00 in0.0 mm 0.00 in0.0 mm
02:20 AM 70.3°F21.3°C 55.9°F13.3°C 60% Calm Calm -- 29.00 in982.1 mb 0.00 in0.0 mm 0.00 in0.0 mm 0.00 in0.0 mm
02:19 AM 70.3°F21.3°C 55.9°F13.3°C 60% Calm Calm -- 29.00 in982.1 mb 0.00 in0.0 mm 0.00 in0.0 mm 0.00 in0.0 mm
02:18 AM 70.3°F21.3°C 55.9°F13.3°C 60% Calm Calm -- 29.00 in982.1 mb 0.00 in0.0 mm 0.00 in0.0 mm 0.00 in0.0 mm
02:17 AM 70.5°F21.4°C 56.1°F13.4°C 60% Calm Calm -- 29.00 in982.1 mb 0.00 in0.0 mm 0.00 in0.0 mm 0.00 in0.0 mm
02:15 AM 70.5°F21.4°C 56.1°F13.4°C 60% Calm Calm -- 29.00 in982.1 mb 0.00 in0.0 mm 0.00 in0.0 mm 0.00 in0.0 mm
02:14 AM 70.7°F21.5°C 56.3°F13.5°C 60% Calm Calm -- 29.00 in982.1 mb 0.00 in0.0 mm 0.00 in0.0 mm 0.00 in0.0 mm
02:13 AM 70.7°F21.5°C 56.3°F13.5°C 60% Calm Calm -- 29.00 in982.1 mb 0.00 in0.0 mm 0.00 in0.0 mm 0.00 in0.0 mm
02:12 AM 70.7°F21.5°C 56.3°F13.5°C 60% Calm Calm -- 29.00 in982.1 mb 0.00 in0.0 mm 0.00 in0.0 mm 0.00 in0.0 mm
02:11 AM 70.9°F21.6°C 56.5°F13.6°C 60% Calm Calm -- 29.00 in982.1 mb 0.00 in0.0 mm 0.00 in0.0 mm 0.00 in0.0 mm
02:10 AM 70.9°F21.6°C 56.5°F13.6°C 60% Calm Calm -- 29.00 in982.1 mb 0.00 in0.0 mm 0.00 in0.0 mm 0.00 in0.0 mm
02:09 AM 70.9°F21.6°C 56.5°F13.6°C 60% Calm Calm -- 29.00 in982.1 mb 0.00 in0.0 mm 0.00 in0.0 mm 0.00 in0.0 mm
02:08 AM 71.1°F21.7°C 56.7°F13.7°C 60% Calm Calm -- 29.00 in982.1 mb 0.00 in0.0 mm 0.00 in0.0 mm 0.00 in0.0 mm
02:07 AM 71.1°F21.7°C 56.7°F13.7°C 60% Calm Calm -- 29.00 in982.1 mb 0.00 in0.0 mm 0.00 in0.0 mm 0.00 in0.0 mm
02:06 AM 71.1°F21.7°C 56.7°F13.7°C 60% Calm Calm -- 29.00 in982.1 mb 0.00 in0.0 mm 0.00 in0.0 mm 0.00 in0.0 mm
02:05 AM 71.2°F21.8°C 56.8°F13.8°C 60% Calm Calm -- 29.00 in982.1 mb 0.00 in0.0 mm 0.00 in0.0 mm 0.00 in0.0 mm
02:04 AM 71.2°F21.8°C 56.8°F13.8°C 60% Calm Calm -- 29.00 in982.1 mb 0.00 in0.0 mm 0.00 in0.0 mm 0.00 in0.0 mm
02:03 AM 71.2°F21.8°C 56.2°F13.4°C 59% Calm Calm -- 29.00 in982.1 mb 0.00 in0.0 mm 0.00 in0.0 mm 0.00 in0.0 mm
02:02 AM 71.4°F21.9°C 56.4°F13.6°C 59% Calm Calm -- 29.00 in982.1 mb 0.00 in0.0 mm 0.00 in0.0 mm 0.00 in0.0 mm
02:01 AM 71.4°F21.9°C 56.4°F13.6°C 59% Calm Calm -- 29.00 in982.1 mb 0.00 in0.0 mm 0.00 in0.0 mm 0.00 in0.0 mm
02:00 AM 71.4°F21.9°C 56.4°F13.6°C 59% Calm Calm -- 29.00 in982.1 mb 0.00 in0.0 mm 0.00 in0.0 mm 0.00 in0.0 mm
01:59 AM 71.4°F21.9°C 56.4°F13.6°C 59% Calm Calm -- 29.00 in982.1 mb 0.00 in0.0 mm 0.00 in0.0 mm 0.00 in0.0 mm
01:58 AM 71.6°F22.0°C 56.6°F13.7°C 59% Calm Calm 3.9 mph6.3 kmh 29.00 in982.1 mb 0.00 in0.0 mm 0.00 in0.0 mm 0.00 in0.0 mm
01:57 AM 71.6°F22.0°C 56.6°F13.7°C 59% Calm Calm 4.5 mph7.2 kmh 29.00 in982.1 mb 0.00 in0.0 mm 0.00 in0.0 mm 0.00 in0.0 mm
01:56 AM 71.6°F22.0°C 56.6°F13.7°C 59% Calm Calm 4.5 mph7.2 kmh 29.00 in982.1 mb 0.00 in0.0 mm 0.00 in0.0 mm 0.00 in0.0 mm
01:55 AM 71.6°F22.0°C 56.6°F13.7°C 59% Calm Calm 4.5 mph7.2 kmh 29.00 in982.1 mb 0.00 in0.0 mm 0.00 in0.0 mm 0.00 in0.0 mm
01:54 AM 71.8°F22.1°C 56.8°F13.8°C 59% Calm Calm 4.5 mph7.2 kmh 29.00 in982.1 mb 0.00 in0.0 mm 0.00 in0.0 mm 0.00 in0.0 mm
01:53 AM 71.8°F22.1°C 56.8°F13.8°C 59% Calm Calm 4.5 mph7.2 kmh 29.00 in982.1 mb 0.00 in0.0 mm 0.00 in0.0 mm 0.00 in0.0 mm
01:52 AM 71.8°F22.1°C 56.2°F13.4°C 58% Calm Calm 4.5 mph7.2 kmh 29.00 in982.1 mb 0.00 in0.0 mm 0.00 in0.0 mm 0.00 in0.0 mm
01:51 AM 71.8°F22.1°C 56.2°F13.4°C 58% Calm Calm 4.5 mph7.2 kmh 29.00 in982.1 mb 0.00 in0.0 mm 0.00 in0.0 mm 0.00 in0.0 mm
01:50 AM 72.0°F22.2°C 56.4°F13.6°C 58% Calm Calm 4.5 mph7.2 kmh 29.00 in982.1 mb 0.00 in0.0 mm 0.00 in0.0 mm 0.00 in0.0 mm
01:49 AM 72.0°F22.2°C 56.4°F13.6°C 58% Calm Calm 4.5 mph7.2 kmh 29.00 in982.1 mb 0.00 in0.0 mm 0.00 in0.0 mm 0.00 in0.0 mm
01:48 AM 72.1°F22.3°C 56.5°F13.6°C 58% Calm Calm 4.5 mph7.2 kmh 29.00 in982.1 mb 0.00 in0.0 mm 0.00 in0.0 mm 0.00 in0.0 mm
01:47 AM 72.1°F22.3°C 56.5°F13.6°C 58% Calm Calm 4.5 mph7.2 kmh 29.00 in982.1 mb 0.00 in0.0 mm 0.00 in0.0 mm 0.00 in0.0 mm
01:46 AM 72.3°F22.4°C 56.7°F13.7°C 58% Calm Calm 4.5 mph7.2 kmh 29.00 in982.1 mb 0.00 in0.0 mm 0.00 in0.0 mm 0.00 in0.0 mm
01:45 AM 72.3°F22.4°C 56.7°F13.7°C 58% Calm Calm 4.5 mph7.2 kmh 29.00 in982.1 mb 0.00 in0.0 mm 0.00 in0.0 mm 0.00 in0.0 mm
01:44 AM 72.5°F22.5°C 56.9°F13.8°C 58% Calm Calm 4.5 mph7.2 kmh 29.00 in982.1 mb 0.00 in0.0 mm 0.00 in0.0 mm 0.00 in0.0 mm
01:43 AM 72.5°F22.5°C 56.9°F13.8°C 58% Calm Calm 4.5 mph7.2 kmh 29.00 in982.1 mb 0.00 in0.0 mm 0.00 in0.0 mm 0.00 in0.0 mm
01:42 AM 72.7°F22.6°C 57.1°F13.9°C 58% Calm Calm 4.5 mph7.2 kmh 29.00 in982.1 mb 0.00 in0.0 mm 0.00 in0.0 mm 0.00 in0.0 mm
01:41 AM 72.7°F22.6°C 57.1°F13.9°C 58% Calm Calm 4.5 mph7.2 kmh 29.00 in982.1 mb 0.00 in0.0 mm 0.00 in0.0 mm 0.00 in0.0 mm
01:40 AM 72.7°F22.6°C 57.1°F13.9°C 58% Calm Calm 4.5 mph7.2 kmh 29.00 in982.1 mb 0.00 in0.0 mm 0.00 in0.0 mm 0.00 in0.0 mm
01:39 AM 72.7°F22.6°C 57.1°F13.9°C 58% Calm Calm 4.5 mph7.2 kmh 29.00 in982.1 mb 0.00 in0.0 mm 0.00 in0.0 mm 0.00 in0.0 mm
01:38 AM 72.9°F22.7°C 57.3°F14.1°C 58% Calm Calm 4.5 mph7.2 kmh 29.00 in982.1 mb 0.00 in0.0 mm 0.00 in0.0 mm 0.00 in0.0 mm
01:37 AM 72.9°F22.7°C 57.3°F14.1°C 58% Calm Calm 4.5 mph7.2 kmh 29.00 in982.1 mb 0.00 in0.0 mm 0.00 in0.0 mm 0.00 in0.0 mm
01:36 AM 73.0°F22.8°C 57.4°F14.1°C 58% Calm Calm 4.5 mph7.2 kmh 29.00 in982.1 mb 0.00 in0.0 mm 0.00 in0.0 mm 0.00 in0.0 mm
01:35 AM 73.2°F22.9°C 57.5°F14.2°C 58% Calm Calm 4.5 mph7.2 kmh 29.00 in982.1 mb 0.00 in0.0 mm 0.00 in0.0 mm 0.00 in0.0 mm
01:34 AM 73.2°F22.9°C 57.5°F14.2°C 58% Calm Calm 4.5 mph7.2 kmh 29.00 in982.1 mb 0.00 in0.0 mm 0.00 in0.0 mm 0.00 in0.0 mm
01:33 AM 73.4°F23.0°C 57.7°F14.3°C 58% Calm Calm 5.8 mph9.3 kmh 29.00 in982.1 mb 0.00 in0.0 mm 0.00 in0.0 mm 0.00 in0.0 mm
01:32 AM 73.4°F23.0°C 57.7°F14.3°C 58% Calm Calm 7.1 mph11.4 kmh 29.00 in982.1 mb 0.00 in0.0 mm 0.00 in0.0 mm 0.00 in0.0 mm
01:31 AM 73.4°F23.0°C 57.7°F14.3°C 58% Calm Calm 7.1 mph11.4 kmh 29.00 in982.1 mb 0.00 in0.0 mm 0.00 in0.0 mm 0.00 in0.0 mm
01:30 AM 73.4°F23.0°C 57.7°F14.3°C 58% 3.0 mph WNW4.8 kmh WNW 7.1 mph11.4 kmh 29.00 in982.1 mb 0.00 in0.0 mm 0.00 in0.0 mm 0.00 in0.0 mm
01:29 AM 73.6°F23.1°C 57.9°F14.4°C 58% 3.0 mph WNW4.8 kmh WNW 7.1 mph11.4 kmh 29.00 in982.1 mb 0.00 in0.0 mm 0.00 in0.0 mm 0.00 in0.0 mm
01:28 AM 73.6°F23.1°C 57.9°F14.4°C 58% 3.0 mph WNW4.8 kmh WNW 7.1 mph11.4 kmh 29.00 in982.1 mb 0.00 in0.0 mm 0.00 in0.0 mm 0.00 in0.0 mm
01:27 AM 73.6°F23.1°C 57.9°F14.4°C 58% 3.3 mph WNW5.3 kmh WNW 7.1 mph11.4 kmh 29.00 in982.1 mb 0.00 in0.0 mm 0.00 in0.0 mm 0.00 in0.0 mm
01:26 AM 73.6°F23.1°C 57.9°F14.4°C 58% 3.6 mph WNW5.8 kmh WNW 7.1 mph11.4 kmh 29.00 in982.1 mb 0.00 in0.0 mm 0.00 in0.0 mm 0.00 in0.0 mm
01:25 AM 73.6°F23.1°C 57.9°F14.4°C 58% 3.9 mph WNW6.3 kmh WNW 7.1 mph11.4 kmh 29.00 in982.1 mb 0.00 in0.0 mm 0.00 in0.0 mm 0.00 in0.0 mm
01:24 AM 73.6°F23.1°C 57.9°F14.4°C 58% 4.2 mph WNW6.8 kmh WNW 7.1 mph11.4 kmh 29.00 in982.1 mb 0.00 in0.0 mm 0.00 in0.0 mm 0.00 in0.0 mm
01:23 AM 73.6°F23.1°C 57.9°F14.4°C 58% 3.9 mph W6.3 kmh W 7.1 mph11.4 kmh 29.00 in982.1 mb 0.00 in0.0 mm 0.00 in0.0 mm 0.00 in0.0 mm
01:22 AM 73.6°F23.1°C 57.4°F14.1°C 57% 4.0 mph W6.4 kmh W 5.8 mph9.3 kmh 29.00 in982.1 mb 0.00 in0.0 mm 0.00 in0.0 mm 0.00 in0.0 mm
01:21 AM 73.6°F23.1°C 57.4°F14.1°C 57% 3.7 mph W6.0 kmh W 5.8 mph9.3 kmh 29.00 in982.1 mb 0.00 in0.0 mm 0.00 in0.0 mm 0.00 in0.0 mm
01:20 AM 73.8°F23.2°C 57.5°F14.2°C 57% 3.2 mph W5.1 kmh W 5.8 mph9.3 kmh 29.00 in982.1 mb 0.00 in0.0 mm 0.00 in0.0 mm 0.00 in0.0 mm
01:19 AM 73.6°F23.1°C 57.4°F14.1°C 57% 3.2 mph W5.1 kmh W 5.8 mph9.3 kmh 29.00 in982.1 mb 0.00 in0.0 mm 0.00 in0.0 mm 0.00 in0.0 mm
01:18 AM 73.6°F23.1°C 57.4°F14.1°C 57% 3.8 mph W6.1 kmh W 5.8 mph9.3 kmh 29.00 in982.1 mb 0.00 in0.0 mm 0.00 in0.0 mm 0.00 in0.0 mm
01:17 AM 73.6°F23.1°C 56.8°F13.8°C 55% 3.5 mph W5.6 kmh W 5.8 mph9.3 kmh 29.00 in982.1 mb 0.00 in0.0 mm 0.00 in0.0 mm 0.00 in0.0 mm
01:16 AM 73.6°F23.1°C 56.8°F13.8°C 55% 3.3 mph W5.3 kmh W 5.8 mph9.3 kmh 29.00 in982.1 mb 0.00 in0.0 mm 0.00 in0.0 mm 0.00 in0.0 mm
01:15 AM 73.6°F23.1°C 56.8°F13.8°C 55% 3.0 mph W4.8 kmh W 5.8 mph9.3 kmh 29.00 in982.1 mb 0.00 in0.0 mm 0.00 in0.0 mm 0.00 in0.0 mm
01:14 AM 73.8°F23.2°C 57.0°F13.9°C 55% 3.0 mph W4.8 kmh W 5.2 mph8.4 kmh 29.00 in982.1 mb 0.00 in0.0 mm 0.00 in0.0 mm 0.00 in0.0 mm
01:13 AM 73.8°F23.2°C 57.0°F13.9°C 55% Calm Calm 5.2 mph8.4 kmh 29.00 in982.1 mb 0.00 in0.0 mm 0.00 in0.0 mm 0.00 in0.0 mm
01:11 AM 73.9°F23.3°C 57.0°F13.9°C 55% 3.0 mph W4.8 kmh W 5.2 mph8.4 kmh 29.00 in982.1 mb 0.00 in0.0 mm 0.00 in0.0 mm 0.00 in0.0 mm
01:10 AM 74.1°F23.4°C 57.2°F14.0°C 55% 3.0 mph W4.8 kmh W 5.2 mph8.4 kmh 29.00 in982.1 mb 0.00 in0.0 mm 0.00 in0.0 mm 0.00 in0.0 mm
01:09 AM 74.1°F23.4°C 57.2°F14.0°C 55% 3.0 mph W4.8 kmh W 5.2 mph8.4 kmh 29.00 in982.1 mb 0.00 in0.0 mm 0.00 in0.0 mm 0.00 in0.0 mm
01:08 AM 74.3°F23.5°C 57.4°F14.1°C 55% Calm Calm 5.2 mph8.4 kmh 29.00 in982.1 mb 0.00 in0.0 mm 0.00 in0.0 mm 0.00 in0.0 mm
01:07 AM 74.3°F23.5°C 57.4°F14.1°C 55% 3.0 mph W4.8 kmh W 5.8 mph9.3 kmh 29.00 in982.1 mb 0.00 in0.0 mm 0.00 in0.0 mm 0.00 in0.0 mm
01:06 AM 74.5°F23.6°C 57.6°F14.2°C 55% 3.0 mph W4.8 kmh W 5.8 mph9.3 kmh 29.00 in982.1 mb 0.00 in0.0 mm 0.00 in0.0 mm 0.00 in0.0 mm
01:05 AM 74.7°F23.7°C 57.8°F14.3°C 55% 3.0 mph W4.8 kmh W 5.8 mph9.3 kmh 29.00 in982.1 mb 0.00 in0.0 mm 0.00 in0.0 mm 0.00 in0.0 mm
01:04 AM 74.7°F23.7°C 57.8°F14.3°C 55% 3.0 mph W4.8 kmh W 5.8 mph9.3 kmh 29.00 in982.1 mb 0.00 in0.0 mm 0.00 in0.0 mm 0.00 in0.0 mm
01:03 AM 74.8°F23.8°C 57.9°F14.4°C 55% Calm Calm 5.8 mph9.3 kmh 29.00 in982.1 mb 0.00 in0.0 mm 0.00 in0.0 mm 0.00 in0.0 mm
01:02 AM 74.8°F23.8°C 57.9°F14.4°C 55% Calm Calm 5.8 mph9.3 kmh 29.00 in982.1 mb 0.00 in0.0 mm 0.00 in0.0 mm 0.00 in0.0 mm
01:01 AM 75.0°F23.9°C 58.1°F14.5°C 55% 4.3 mph WNW6.9 kmh WNW 5.8 mph9.3 kmh 29.00 in982.1 mb 0.00 in0.0 mm 0.00 in0.0 mm 0.00 in0.0 mm
01:00 AM 75.0°F23.9°C 58.1°F14.5°C 55% 4.3 mph WNW6.9 kmh WNW 5.8 mph9.3 kmh 29.00 in982.1 mb 0.00 in0.0 mm 0.00 in0.0 mm 0.00 in0.0 mm
12:59 AM 75.2°F24.0°C 57.7°F14.3°C 54% 4.3 mph WNW6.9 kmh WNW 5.8 mph9.3 kmh 29.00 in982.1 mb 0.00 in0.0 mm 0.00 in0.0 mm 0.00 in0.0 mm
12:58 AM 75.2°F24.0°C 57.7°F14.3°C 54% 3.8 mph WNW6.1 kmh WNW 5.8 mph9.3 kmh 29.00 in982.1 mb 0.00 in0.0 mm 0.00 in0.0 mm 0.00 in0.0 mm
12:57 AM 75.2°F24.0°C 57.7°F14.3°C 54% 3.0 mph WNW4.8 kmh WNW 5.8 mph9.3 kmh 29.00 in982.1 mb 0.00 in0.0 mm 0.00 in0.0 mm 0.00 in0.0 mm
12:56 AM 75.4°F24.1°C 57.9°F14.4°C 54% 3.6 mph WNW5.8 kmh WNW 5.8 mph9.3 kmh 29.00 in982.1 mb 0.00 in0.0 mm 0.00 in0.0 mm 0.00 in0.0 mm
12:55 AM 75.6°F24.2°C 58.0°F14.4°C 54% 3.4 mph WNW5.5 kmh WNW 5.8 mph9.3 kmh 29.00 in982.1 mb 0.00 in0.0 mm 0.00 in0.0 mm 0.00 in0.0 mm
12:54 AM 75.6°F24.2°C 58.0°F14.4°C 54% 3.2 mph WNW5.1 kmh WNW 5.8 mph9.3 kmh 29.00 in982.1 mb 0.00 in0.0 mm 0.00 in0.0 mm 0.00 in0.0 mm
12:53 AM 75.6°F24.2°C 58.0°F14.4°C 54% 3.0 mph WNW4.8 kmh WNW 5.2 mph8.4 kmh 29.00 in982.1 mb 0.00 in0.0 mm 0.00 in0.0 mm 0.00 in0.0 mm
12:52 AM 75.7°F24.3°C 58.1°F14.5°C 54% 3.5 mph WNW5.6 kmh WNW 5.2 mph8.4 kmh 29.00 in982.1 mb 0.00 in0.0 mm 0.00 in0.0 mm 0.00 in0.0 mm
12:51 AM 75.7°F24.3°C 58.1°F14.5°C 54% 3.7 mph WNW6.0 kmh WNW 5.2 mph8.4 kmh 29.00 in982.1 mb 0.00 in0.0 mm 0.00 in0.0 mm 0.00 in0.0 mm
12:50 AM 75.7°F24.3°C 58.1°F14.5°C 54% 3.1 mph WNW5.0 kmh WNW 5.2 mph8.4 kmh 29.00 in982.1 mb 0.00 in0.0 mm 0.00 in0.0 mm 0.00 in0.0 mm
12:49 AM 75.7°F24.3°C 58.1°F14.5°C 54% 3.3 mph WNW5.3 kmh WNW 5.8 mph9.3 kmh 29.00 in982.1 mb 0.00 in0.0 mm 0.00 in0.0 mm 0.00 in0.0 mm
12:48 AM 75.9°F24.4°C 58.3°F14.6°C 54% 3.4 mph WNW5.5 kmh WNW 5.8 mph9.3 kmh 29.00 in982.1 mb 0.00 in0.0 mm 0.00 in0.0 mm 0.00 in0.0 mm
12:47 AM 75.9°F24.4°C 58.3°F14.6°C 54% 3.3 mph WNW5.3 kmh WNW 5.8 mph9.3 kmh 29.00 in982.1 mb 0.00 in0.0 mm 0.00 in0.0 mm 0.00 in0.0 mm
12:46 AM 75.9°F24.4°C 58.3°F14.6°C 54% 3.0 mph WNW4.8 kmh WNW 5.8 mph9.3 kmh 29.00 in982.1 mb 0.00 in0.0 mm 0.00 in0.0 mm 0.00 in0.0 mm
12:45 AM 76.1°F24.5°C 58.5°F14.7°C 54% 3.7 mph WNW6.0 kmh WNW 5.8 mph9.3 kmh 29.00 in982.1 mb 0.00 in0.0 mm 0.00 in0.0 mm 0.00 in0.0 mm
12:44 AM 76.1°F24.5°C 58.5°F14.7°C 54% 3.7 mph WNW6.0 kmh WNW 5.8 mph9.3 kmh 29.00 in982.1 mb 0.00 in0.0 mm 0.00 in0.0 mm 0.00 in0.0 mm
12:43 AM 76.1°F24.5°C 58.5°F14.7°C 54% 3.2 mph WNW5.1 kmh WNW 7.1 mph11.4 kmh 29.00 in982.1 mb 0.00 in0.0 mm 0.00 in0.0 mm 0.00 in0.0 mm
12:42 AM 76.3°F24.6°C 58.7°F14.8°C 54% 3.6 mph WNW5.8 kmh WNW 7.1 mph11.4 kmh 29.00 in982.1 mb 0.00 in0.0 mm 0.00 in0.0 mm 0.00 in0.0 mm
12:41 AM 76.3°F24.6°C 58.7°F14.8°C 54% 3.9 mph WNW6.3 kmh WNW 7.1 mph11.4 kmh 29.00 in982.1 mb 0.00 in0.0 mm 0.00 in0.0 mm 0.00 in0.0 mm
12:40 AM 76.3°F24.6°C 58.7°F14.8°C 54% 4.0 mph WNW6.4 kmh WNW 7.1 mph11.4 kmh 29.00 in982.1 mb 0.00 in0.0 mm 0.00 in0.0 mm 0.00 in0.0 mm
12:39 AM 76.3°F24.6°C 58.7°F14.8°C 54% 3.8 mph WNW6.1 kmh WNW 7.1 mph11.4 kmh 29.00 in982.1 mb 0.00 in0.0 mm 0.00 in0.0 mm 0.00 in0.0 mm
12:38 AM 76.3°F24.6°C 58.7°F14.8°C 54% 4.1 mph WNW6.6 kmh WNW 7.1 mph11.4 kmh 29.00 in982.1 mb 0.00 in0.0 mm 0.00 in0.0 mm 0.00 in0.0 mm
12:37 AM 76.5°F24.7°C 58.9°F14.9°C 54% 4.1 mph WNW6.6 kmh WNW 7.1 mph11.4 kmh 29.00 in982.1 mb 0.00 in0.0 mm 0.00 in0.0 mm 0.00 in0.0 mm
12:36 AM 76.5°F24.7°C 58.9°F14.9°C 54% 4.0 mph WNW6.4 kmh WNW 7.1 mph11.4 kmh 29.00 in982.1 mb 0.00 in0.0 mm 0.00 in0.0 mm 0.00 in0.0 mm
12:35 AM 76.5°F24.7°C 58.9°F14.9°C 54% 3.9 mph WNW6.3 kmh WNW 9.1 mph14.6 kmh 29.00 in982.1 mb 0.00 in0.0 mm 0.00 in0.0 mm 0.00 in0.0 mm
12:34 AM 76.5°F24.7°C 58.9°F14.9°C 54% 3.9 mph WNW6.3 kmh WNW 9.1 mph14.6 kmh 29.00 in982.1 mb 0.00 in0.0 mm 0.00 in0.0 mm 0.00 in0.0 mm
12:33 AM 76.6°F24.8°C 59.0°F15.0°C 54% 3.9 mph WNW6.3 kmh WNW 9.1 mph14.6 kmh 29.00 in982.1 mb 0.00 in0.0 mm 0.00 in0.0 mm 0.00 in0.0 mm
12:32 AM 76.6°F24.8°C 59.0°F15.0°C 54% 3.8 mph WNW6.1 kmh WNW 9.1 mph14.6 kmh 29.00 in982.1 mb 0.00 in0.0 mm 0.00 in0.0 mm 0.00 in0.0 mm
12:31 AM 76.6°F24.8°C 59.0°F15.0°C 54% 3.7 mph WNW6.0 km